PWSweather.com
Personal Weather Stations
Station Observations
GHWX1
Golden Heights, Sturgeon County, AB T0A1N5

Golden HeightsSturgeon County, AB T0A1N5

Lat: 53.919, Lon: -113.37

Elevation: 2159

Station Type:

http://www.ghwx.ca

High Low Average
Temperature 10.3°F-12.1°C -15.5°F-26.4°C -3.2°F-19.6°C
Dew Point -2.9°F-19.4°C -20.2°F-29.0°C -11.8°F-24.3°C
Winds 12.0 mph 19.3 kmh Calm Calm 4.0 mph W6.4 kmh W
Wind Gusts -- -- --
Humidity 81% 53% 67%
Pressure 30.59 in1035.9 mb 30.40 in1029.5 mb -
Precipitation 0.00 in0.0 mm - -
Hour Temp Dew Point Humidity Winds Wind Gusts Pressure Precip Precip Rate Daily Precip Total
12:01 AM -10.8°F-23.8°C -17.1°F-27.3°C 73% 3.0 mph WNW4.8 kmh WNW -- 30.59 in1035.9 mb 0.00 in0.0 mm 0.00 in0.0 mm 0.00 in0.0 mm
12:02 AM -11.0°F-23.9°C -17.3°F-27.4°C 73% 2.0 mph WNW3.2 kmh WNW -- 30.59 in1035.9 mb 0.00 in0.0 mm 0.00 in0.0 mm 0.00 in0.0 mm
12:03 AM -11.2°F-24.0°C -17.5°F-27.5°C 73% 2.0 mph W3.2 kmh W -- 30.59 in1035.9 mb 0.00 in0.0 mm 0.00 in0.0 mm 0.00 in0.0 mm
12:04 AM -11.2°F-24.0°C -17.5°F-27.5°C 73% 2.0 mph WNW3.2 kmh WNW -- 30.59 in1035.9 mb 0.00 in0.0 mm 0.00 in0.0 mm 0.00 in0.0 mm
12:05 AM -11.2°F-24.0°C -17.2°F-27.3°C 74% 3.0 mph WNW4.8 kmh WNW -- 30.59 in1035.9 mb 0.00 in0.0 mm 0.00 in0.0 mm 0.00 in0.0 mm
12:07 AM -11.2°F-24.0°C -16.9°F-27.2°C 75% 3.0 mph W4.8 kmh W -- 30.59 in1035.9 mb 0.00 in0.0 mm 0.00 in0.0 mm 0.00 in0.0 mm
12:08 AM -11.2°F-24.0°C -16.9°F-27.2°C 75% 3.0 mph WNW4.8 kmh WNW -- 30.59 in1035.9 mb 0.00 in0.0 mm 0.00 in0.0 mm 0.00 in0.0 mm
12:09 AM -11.2°F-24.0°C -16.9°F-27.2°C 75% 2.0 mph W3.2 kmh W -- 30.59 in1035.9 mb 0.00 in0.0 mm 0.00 in0.0 mm 0.00 in0.0 mm
12:10 AM -11.2°F-24.0°C -16.9°F-27.2°C 75% 4.0 mph W6.4 kmh W -- 30.59 in1035.9 mb 0.00 in0.0 mm 0.00 in0.0 mm 0.00 in0.0 mm
12:11 AM -11.0°F-23.9°C -16.8°F-27.1°C 75% 3.0 mph NW4.8 kmh NW -- 30.59 in1035.9 mb 0.00 in0.0 mm 0.00 in0.0 mm 0.00 in0.0 mm
12:12 AM -11.0°F-23.9°C -16.8°F-27.1°C 75% 3.0 mph W4.8 kmh W -- 30.59 in1035.9 mb 0.00 in0.0 mm 0.00 in0.0 mm 0.00 in0.0 mm
12:13 AM -10.8°F-23.8°C -16.6°F-27.0°C 75% 3.0 mph W4.8 kmh W -- 30.59 in1035.9 mb 0.00 in0.0 mm 0.00 in0.0 mm 0.00 in0.0 mm
12:17 AM -10.8°F-23.8°C -16.6°F-27.0°C 75% 2.0 mph W3.2 kmh W -- 30.59 in1035.9 mb 0.00 in0.0 mm 0.00 in0.0 mm 0.00 in0.0 mm
12:20 AM -10.8°F-23.8°C -16.6°F-27.0°C 75% 3.0 mph W4.8 kmh W -- 30.59 in1035.9 mb 0.00 in0.0 mm 0.00 in0.0 mm 0.00 in0.0 mm
12:23 AM -10.8°F-23.8°C -16.6°F-27.0°C 75% 5.0 mph W8.0 kmh W -- 30.59 in1035.9 mb 0.00 in0.0 mm 0.00 in0.0 mm 0.00 in0.0 mm
12:24 AM -10.8°F-23.8°C -16.6°F-27.0°C 75% 3.0 mph WNW4.8 kmh WNW -- 30.59 in1035.9 mb 0.00 in0.0 mm 0.00 in0.0 mm 0.00 in0.0 mm
12:25 AM -10.8°F-23.8°C -16.6°F-27.0°C 75% 4.0 mph W6.4 kmh W -- 30.59 in1035.9 mb 0.00 in0.0 mm 0.00 in0.0 mm 0.00 in0.0 mm
12:26 AM -10.6°F-23.7°C -16.4°F-26.9°C 75% 4.0 mph WNW6.4 kmh WNW -- 30.59 in1035.9 mb 0.00 in0.0 mm 0.00 in0.0 mm 0.00 in0.0 mm
12:27 AM -10.6°F-23.7°C -16.4°F-26.9°C 75% 3.0 mph W4.8 kmh W -- 30.59 in1035.9 mb 0.00 in0.0 mm 0.00 in0.0 mm 0.00 in0.0 mm
12:29 AM -10.6°F-23.7°C -16.4°F-26.9°C 75% 4.0 mph W6.4 kmh W -- 30.59 in1035.9 mb 0.00 in0.0 mm 0.00 in0.0 mm 0.00 in0.0 mm
12:30 AM -10.6°F-23.7°C -16.4°F-26.9°C 75% 4.0 mph WNW6.4 kmh WNW -- 30.59 in1035.9 mb 0.00 in0.0 mm 0.00 in0.0 mm 0.00 in0.0 mm
12:32 AM -10.6°F-23.7°C -16.4°F-26.9°C 75% 4.0 mph WNW6.4 kmh WNW -- 30.58 in1035.6 mb 0.00 in0.0 mm 0.00 in0.0 mm 0.00 in0.0 mm
12:33 AM -10.6°F-23.7°C -16.4°F-26.9°C 75% 3.0 mph W4.8 kmh W -- 30.59 in1035.9 mb 0.00 in0.0 mm 0.00 in0.0 mm 0.00 in0.0 mm
12:34 AM -10.6°F-23.7°C -16.4°F-26.9°C 75% 4.0 mph WNW6.4 kmh WNW -- 30.59 in1035.9 mb 0.00 in0.0 mm 0.00 in0.0 mm 0.00 in0.0 mm
12:35 AM -10.6°F-23.7°C -16.4°F-26.9°C 75% 4.0 mph W6.4 kmh W -- 30.59 in1035.9 mb 0.00 in0.0 mm 0.00 in0.0 mm 0.00 in0.0 mm
12:36 AM -10.4°F-23.6°C -16.3°F-26.8°C 75% 5.0 mph WNW8.0 kmh WNW -- 30.59 in1035.9 mb 0.00 in0.0 mm 0.00 in0.0 mm 0.00 in0.0 mm
12:38 AM -10.2°F-23.4°C -15.9°F-26.6°C 75% 5.0 mph WNW8.0 kmh WNW -- 30.59 in1035.9 mb 0.00 in0.0 mm 0.00 in0.0 mm 0.00 in0.0 mm
12:39 AM -10.2°F-23.4°C -15.9°F-26.6°C 75% 6.0 mph W9.7 kmh W -- 30.59 in1035.9 mb 0.00 in0.0 mm 0.00 in0.0 mm 0.00 in0.0 mm
12:40 AM -10.0°F-23.3°C -15.7°F-26.5°C 75% 3.0 mph WNW4.8 kmh WNW -- 30.59 in1035.9 mb 0.00 in0.0 mm 0.00 in0.0 mm 0.00 in0.0 mm
12:41 AM -10.0°F-23.3°C -15.7°F-26.5°C 75% 3.0 mph W4.8 kmh W -- 30.59 in1035.9 mb 0.00 in0.0 mm 0.00 in0.0 mm 0.00 in0.0 mm
12:42 AM -10.0°F-23.3°C -15.7°F-26.5°C 75% 4.0 mph WNW6.4 kmh WNW -- 30.59 in1035.9 mb 0.00 in0.0 mm 0.00 in0.0 mm 0.00 in0.0 mm
12:43 AM -10.0°F-23.3°C -15.7°F-26.5°C 75% 5.0 mph W8.0 kmh W -- 30.59 in1035.9 mb 0.00 in0.0 mm 0.00 in0.0 mm 0.00 in0.0 mm
12:44 AM -9.8°F-23.2°C -15.6°F-26.4°C 75% 3.0 mph W4.8 kmh W -- 30.59 in1035.9 mb 0.00 in0.0 mm 0.00 in0.0 mm 0.00 in0.0 mm
12:45 AM -9.8°F-23.2°C -15.6°F-26.4°C 75% 5.0 mph WNW8.0 kmh WNW -- 30.59 in1035.9 mb 0.00 in0.0 mm 0.00 in0.0 mm 0.00 in0.0 mm
12:46 AM -9.8°F-23.2°C -15.6°F-26.4°C 75% 4.0 mph WNW6.4 kmh WNW -- 30.59 in1035.9 mb 0.00 in0.0 mm 0.00 in0.0 mm 0.00 in0.0 mm
12:48 AM -9.8°F-23.2°C -15.6°F-26.4°C 75% 4.0 mph W6.4 kmh W -- 30.59 in1035.9 mb 0.00 in0.0 mm 0.00 in0.0 mm 0.00 in0.0 mm
12:49 AM -9.8°F-23.2°C -15.6°F-26.4°C 75% 3.0 mph W4.8 kmh W -- 30.59 in1035.9 mb 0.00 in0.0 mm 0.00 in0.0 mm 0.00 in0.0 mm
12:50 AM -9.8°F-23.2°C -15.6°F-26.4°C 75% 2.0 mph W3.2 kmh W -- 30.59 in1035.9 mb 0.00 in0.0 mm 0.00 in0.0 mm 0.00 in0.0 mm
12:51 AM -9.8°F-23.2°C -15.6°F-26.4°C 75% 3.0 mph W4.8 kmh W -- 30.59 in1035.9 mb 0.00 in0.0 mm 0.00 in0.0 mm 0.00 in0.0 mm
12:52 AM -9.8°F-23.2°C -15.6°F-26.4°C 75% 4.0 mph WNW6.4 kmh WNW -- 30.59 in1035.9 mb 0.00 in0.0 mm 0.00 in0.0 mm 0.00 in0.0 mm
12:53 AM -9.8°F-23.2°C -15.6°F-26.4°C 75% 4.0 mph WNW6.4 kmh WNW -- 30.58 in1035.6 mb 0.00 in0.0 mm 0.00 in0.0 mm 0.00 in0.0 mm
12:54 AM -9.8°F-23.2°C -15.6°F-26.4°C 75% 3.0 mph WNW4.8 kmh WNW -- 30.59 in1035.9 mb 0.00 in0.0 mm 0.00 in0.0 mm 0.00 in0.0 mm
12:55 AM -9.8°F-23.2°C -15.6°F-26.4°C 75% 3.0 mph W4.8 kmh W -- 30.58 in1035.6 mb 0.00 in0.0 mm 0.00 in0.0 mm 0.00 in0.0 mm
12:56 AM -9.8°F-23.2°C -15.6°F-26.4°C 75% 3.0 mph WNW4.8 kmh WNW -- 30.59 in1035.9 mb 0.00 in0.0 mm 0.00 in0.0 mm 0.00 in0.0 mm
12:57 AM -9.8°F-23.2°C -15.6°F-26.4°C 75% 5.0 mph NW8.0 kmh NW -- 30.58 in1035.6 mb 0.00 in0.0 mm 0.00 in0.0 mm 0.00 in0.0 mm
12:58 AM -9.8°F-23.2°C -15.6°F-26.4°C 75% 3.0 mph WNW4.8 kmh WNW -- 30.59 in1035.9 mb 0.00 in0.0 mm 0.00 in0.0 mm 0.00 in0.0 mm
01:00 AM -9.8°F-23.2°C -15.6°F-26.4°C 75% 4.0 mph WNW6.4 kmh WNW -- 30.59 in1035.9 mb 0.00 in0.0 mm 0.00 in0.0 mm 0.00 in0.0 mm
01:01 AM -9.8°F-23.2°C -15.6°F-26.4°C 75% 5.0 mph W8.0 kmh W -- 30.59 in1035.9 mb 0.00 in0.0 mm 0.00 in0.0 mm 0.00 in0.0 mm
01:02 AM -9.8°F-23.2°C -15.6°F-26.4°C 75% 4.0 mph W6.4 kmh W -- 30.59 in1035.9 mb 0.00 in0.0 mm 0.00 in0.0 mm 0.00 in0.0 mm
01:03 AM -9.8°F-23.2°C -15.6°F-26.4°C 75% 4.0 mph WNW6.4 kmh WNW -- 30.58 in1035.6 mb 0.00 in0.0 mm 0.00 in0.0 mm 0.00 in0.0 mm
01:04 AM -9.8°F-23.2°C -15.6°F-26.4°C 75% 3.0 mph W4.8 kmh W -- 30.58 in1035.6 mb 0.00 in0.0 mm 0.00 in0.0 mm 0.00 in0.0 mm
01:05 AM -9.8°F-23.2°C -15.6°F-26.4°C 75% 6.0 mph W9.7 kmh W -- 30.59 in1035.9 mb 0.00 in0.0 mm 0.00 in0.0 mm 0.00 in0.0 mm
01:06 AM -9.8°F-23.2°C -15.6°F-26.4°C 75% 4.0 mph WNW6.4 kmh WNW -- 30.58 in1035.6 mb 0.00 in0.0 mm 0.00 in0.0 mm 0.00 in0.0 mm
01:07 AM -9.8°F-23.2°C -15.6°F-26.4°C 75% 3.0 mph W4.8 kmh W -- 30.59 in1035.9 mb 0.00 in0.0 mm 0.00 in0.0 mm 0.00 in0.0 mm
01:08 AM -9.8°F-23.2°C -15.6°F-26.4°C 75% 5.0 mph WSW8.0 kmh WSW -- 30.59 in1035.9 mb 0.00 in0.0 mm 0.00 in0.0 mm 0.00 in0.0 mm
01:09 AM -9.8°F-23.2°C -15.6°F-26.4°C 75% 4.0 mph WNW6.4 kmh WNW -- 30.59 in1035.9 mb 0.00 in0.0 mm 0.00 in0.0 mm 0.00 in0.0 mm
01:10 AM -9.8°F-23.2°C -15.6°F-26.4°C 75% 4.0 mph W6.4 kmh W -- 30.58 in1035.6 mb 0.00 in0.0 mm 0.00 in0.0 mm 0.00 in0.0 mm
01:11 AM -9.8°F-23.2°C -15.6°F-26.4°C 75% 4.0 mph NW6.4 kmh NW -- 30.58 in1035.6 mb 0.00 in0.0 mm 0.00 in0.0 mm 0.00 in0.0 mm
01:12 AM -9.8°F-23.2°C -15.6°F-26.4°C 75% 3.0 mph W4.8 kmh W -- 30.59 in1035.9 mb 0.00 in0.0 mm 0.00 in0.0 mm 0.00 in0.0 mm
01:13 AM -9.8°F-23.2°C -15.8°F-26.6°C 74% 4.0 mph W6.4 kmh W -- 30.59 in1035.9 mb 0.00 in0.0 mm 0.00 in0.0 mm 0.00 in0.0 mm
01:15 AM -10.0°F-23.3°C -16.0°F-26.7°C 74% 3.0 mph WNW4.8 kmh WNW -- 30.59 in1035.9 mb 0.00 in0.0 mm 0.00 in0.0 mm 0.00 in0.0 mm
01:16 AM -10.0°F-23.3°C -16.0°F-26.7°C 74% 4.0 mph WNW6.4 kmh WNW -- 30.59 in1035.9 mb 0.00 in0.0 mm 0.00 in0.0 mm 0.00 in0.0 mm
01:17 AM -10.0°F-23.3°C -16.0°F-26.7°C 74% 3.0 mph WNW4.8 kmh WNW -- 30.59 in1035.9 mb 0.00 in0.0 mm 0.00 in0.0 mm 0.00 in0.0 mm
01:18 AM -10.2°F-23.4°C -16.2°F-26.8°C 74% 3.0 mph WNW4.8 kmh WNW -- 30.59 in1035.9 mb 0.00 in0.0 mm 0.00 in0.0 mm 0.00 in0.0 mm
01:19 AM -10.4°F-23.6°C -16.5°F-26.9°C 74% 4.0 mph WNW6.4 kmh WNW -- 30.59 in1035.9 mb 0.00 in0.0 mm 0.00 in0.0 mm 0.00 in0.0 mm
01:20 AM -10.4°F-23.6°C -16.5°F-26.9°C 74% 5.0 mph WNW8.0 kmh WNW -- 30.59 in1035.9 mb 0.00 in0.0 mm 0.00 in0.0 mm 0.00 in0.0 mm
01:21 AM -10.4°F-23.6°C -16.5°F-26.9°C 74% 4.0 mph NW6.4 kmh NW -- 30.58 in1035.6 mb 0.00 in0.0 mm 0.00 in0.0 mm 0.00 in0.0 mm
01:22 AM -10.6°F-23.7°C -16.7°F-27.1°C 74% 3.0 mph NW4.8 kmh NW -- 30.58 in1035.6 mb 0.00 in0.0 mm 0.00 in0.0 mm 0.00 in0.0 mm
01:24 AM -10.8°F-23.8°C -16.9°F-27.2°C 74% 4.0 mph NW6.4 kmh NW -- 30.58 in1035.6 mb 0.00 in0.0 mm 0.00 in0.0 mm 0.00 in0.0 mm
01:26 AM -10.8°F-23.8°C -16.9°F-27.2°C 74% 4.0 mph WNW6.4 kmh WNW -- 30.58 in1035.6 mb 0.00 in0.0 mm 0.00 in0.0 mm 0.00 in0.0 mm
01:27 AM -11.0°F-23.9°C -17.0°F-27.2°C 74% 3.0 mph WNW4.8 kmh WNW -- 30.58 in1035.6 mb 0.00 in0.0 mm 0.00 in0.0 mm 0.00 in0.0 mm
01:28 AM -11.0°F-23.9°C -17.0°F-27.2°C 74% 3.0 mph NW4.8 kmh NW -- 30.59 in1035.9 mb 0.00 in0.0 mm 0.00 in0.0 mm 0.00 in0.0 mm
01:29 AM -11.2°F-24.0°C -17.2°F-27.3°C 74% 4.0 mph NW6.4 kmh NW -- 30.58 in1035.6 mb 0.00 in0.0 mm 0.00 in0.0 mm 0.00 in0.0 mm
01:30 AM -11.2°F-24.0°C -17.2°F-27.3°C 74% 4.0 mph WNW6.4 kmh WNW -- 30.58 in1035.6 mb 0.00 in0.0 mm 0.00 in0.0 mm 0.00 in0.0 mm
01:32 AM -11.3°F-24.1°C -17.4°F-27.4°C 74% 4.0 mph NW6.4 kmh NW -- 30.58 in1035.6 mb 0.00 in0.0 mm 0.00 in0.0 mm 0.00 in0.0 mm
01:33 AM -11.6°F-24.2°C -17.6°F-27.6°C 74% 3.0 mph NW4.8 kmh NW -- 30.58 in1035.6 mb 0.00 in0.0 mm 0.00 in0.0 mm 0.00 in0.0 mm
01:35 AM -11.6°F-24.2°C -17.6°F-27.6°C 74% 4.0 mph NW6.4 kmh NW -- 30.58 in1035.6 mb 0.00 in0.0 mm 0.00 in0.0 mm 0.00 in0.0 mm
01:37 AM -11.6°F-24.2°C -17.3°F-27.4°C 75% 4.0 mph NW6.4 kmh NW -- 30.58 in1035.6 mb 0.00 in0.0 mm 0.00 in0.0 mm 0.00 in0.0 mm
01:38 AM -11.8°F-24.3°C -17.5°F-27.5°C 75% 3.0 mph WNW4.8 kmh WNW -- 30.59 in1035.9 mb 0.00 in0.0 mm 0.00 in0.0 mm 0.00 in0.0 mm
01:39 AM -11.8°F-24.3°C -17.5°F-27.5°C 75% 3.0 mph NW4.8 kmh NW -- 30.58 in1035.6 mb 0.00 in0.0 mm 0.00 in0.0 mm 0.00 in0.0 mm
01:40 AM -12.1°F-24.5°C -17.8°F-27.7°C 75% 4.0 mph WNW6.4 kmh WNW -- 30.58 in1035.6 mb 0.00 in0.0 mm 0.00 in0.0 mm 0.00 in0.0 mm
01:41 AM -12.1°F-24.5°C -17.8°F-27.7°C 75% 5.0 mph WNW8.0 kmh WNW -- 30.58 in1035.6 mb 0.00 in0.0 mm 0.00 in0.0 mm 0.00 in0.0 mm
01:42 AM -12.1°F-24.5°C -17.8°F-27.7°C 75% 3.0 mph NW4.8 kmh NW -- 30.58 in1035.6 mb 0.00 in0.0 mm 0.00 in0.0 mm 0.00 in0.0 mm
01:44 AM -12.3°F-24.6°C -18.0°F-27.8°C 75% 3.0 mph NW4.8 kmh NW -- 30.58 in1035.6 mb 0.00 in0.0 mm 0.00 in0.0 mm 0.00 in0.0 mm
01:45 AM -12.3°F-24.6°C -18.0°F-27.8°C 75% 3.0 mph WNW4.8 kmh WNW -- 30.58 in1035.6 mb 0.00 in0.0 mm 0.00 in0.0 mm 0.00 in0.0 mm
01:46 AM -12.3°F-24.6°C -18.0°F-27.8°C 75% 3.0 mph NW4.8 kmh NW -- 30.58 in1035.6 mb 0.00 in0.0 mm 0.00 in0.0 mm 0.00 in0.0 mm
01:47 AM -12.5°F-24.7°C -18.2°F-27.9°C 75% 3.0 mph NW4.8 kmh NW -- 30.58 in1035.6 mb 0.00 in0.0 mm 0.00 in0.0 mm 0.00 in0.0 mm
01:48 AM -12.5°F-24.7°C -18.2°F-27.9°C 75% 3.0 mph NW4.8 kmh NW -- 30.59 in1035.9 mb 0.00 in0.0 mm 0.00 in0.0 mm 0.00 in0.0 mm
01:49 AM -12.5°F-24.7°C -17.9°F-27.7°C 76% 3.0 mph NW4.8 kmh NW -- 30.58 in1035.6 mb 0.00 in0.0 mm 0.00 in0.0 mm 0.00 in0.0 mm
01:50 AM -12.5°F-24.7°C -17.9°F-27.7°C 76% 3.0 mph NW4.8 kmh NW -- 30.59 in1035.9 mb 0.00 in0.0 mm 0.00 in0.0 mm 0.00 in0.0 mm
01:51 AM -12.5°F-24.7°C -17.9°F-27.7°C 76% 3.0 mph WNW4.8 kmh WNW -- 30.59 in1035.9 mb 0.00 in0.0 mm 0.00 in0.0 mm 0.00 in0.0 mm
01:53 AM -12.5°F-24.7°C -17.9°F-27.7°C 76% 3.0 mph WNW4.8 kmh WNW -- 30.58 in1035.6 mb 0.00 in0.0 mm 0.00 in0.0 mm 0.00 in0.0 mm
01:54 AM -12.7°F-24.8°C -18.1°F-27.8°C 76% 3.0 mph NW4.8 kmh NW -- 30.58 in1035.6 mb 0.00 in0.0 mm 0.00 in0.0 mm 0.00 in0.0 mm
01:56 AM -12.7°F-24.8°C -18.1°F-27.8°C 76% 3.0 mph NNW4.8 kmh NNW -- 30.58 in1035.6 mb 0.00 in0.0 mm 0.00 in0.0 mm 0.00 in0.0 mm
01:57 AM -12.7°F-24.8°C -18.1°F-27.8°C 76% 4.0 mph NW6.4 kmh NW -- 30.58 in1035.6 mb 0.00 in0.0 mm 0.00 in0.0 mm 0.00 in0.0 mm
01:59 AM -12.7°F-24.8°C -18.1°F-27.8°C 76% 3.0 mph WNW4.8 kmh WNW -- 30.58 in1035.6 mb 0.00 in0.0 mm 0.00 in0.0 mm 0.00 in0.0 mm
02:00 AM -12.7°F-24.8°C -18.1°F-27.8°C 76% 4.0 mph NW6.4 kmh NW -- 30.58 in1035.6 mb 0.00 in0.0 mm 0.00 in0.0 mm 0.00 in0.0 mm
02:01 AM -12.5°F-24.7°C -17.9°F-27.7°C 76% 5.0 mph NW8.0 kmh NW -- 30.58 in1035.6 mb 0.00 in0.0 mm 0.00 in0.0 mm 0.00 in0.0 mm
02:02 AM -12.5°F-24.7°C -17.9°F-27.7°C 76% 4.0 mph NW6.4 kmh NW -- 30.58 in1035.6 mb 0.00 in0.0 mm 0.00 in0.0 mm 0.00 in0.0 mm
02:03 AM -12.3°F-24.6°C -17.7°F-27.6°C 76% 3.0 mph WNW4.8 kmh WNW -- 30.58 in1035.6 mb 0.00 in0.0 mm 0.00 in0.0 mm 0.00 in0.0 mm
02:04 AM -12.3°F-24.6°C -17.7°F-27.6°C 76% 4.0 mph NW6.4 kmh NW -- 30.58 in1035.6 mb 0.00 in0.0 mm 0.00 in0.0 mm 0.00 in0.0 mm
02:05 AM -12.3°F-24.6°C -17.7°F-27.6°C 76% 4.0 mph NNW6.4 kmh NNW -- 30.58 in1035.6 mb 0.00 in0.0 mm 0.00 in0.0 mm 0.00 in0.0 mm
02:06 AM -12.3°F-24.6°C -17.7°F-27.6°C 76% 4.0 mph NW6.4 kmh NW -- 30.58 in1035.6 mb 0.00 in0.0 mm 0.00 in0.0 mm 0.00 in0.0 mm
02:07 AM -12.3°F-24.6°C -17.7°F-27.6°C 76% 4.0 mph WNW6.4 kmh WNW -- 30.58 in1035.6 mb 0.00 in0.0 mm 0.00 in0.0 mm 0.00 in0.0 mm
02:08 AM -12.3°F-24.6°C -17.7°F-27.6°C 76% 3.0 mph NW4.8 kmh NW -- 30.58 in1035.6 mb 0.00 in0.0 mm 0.00 in0.0 mm 0.00 in0.0 mm
02:09 AM -12.3°F-24.6°C -17.7°F-27.6°C 76% 3.0 mph WNW4.8 kmh WNW -- 30.58 in1035.6 mb 0.00 in0.0 mm 0.00 in0.0 mm 0.00 in0.0 mm
02:10 AM -12.5°F-24.7°C -17.9°F-27.7°C 76% 3.0 mph WNW4.8 kmh WNW -- 30.58 in1035.6 mb 0.00 in0.0 mm 0.00 in0.0 mm 0.00 in0.0 mm
02:12 AM -12.5°F-24.7°C -17.9°F-27.7°C 76% 3.0 mph NW4.8 kmh NW -- 30.58 in1035.6 mb 0.00 in0.0 mm 0.00 in0.0 mm 0.00 in0.0 mm
02:13 AM -12.7°F-24.8°C -18.1°F-27.8°C 76% 3.0 mph WNW4.8 kmh WNW -- 30.58 in1035.6 mb 0.00 in0.0 mm 0.00 in0.0 mm 0.00 in0.0 mm
02:14 AM -12.5°F-24.7°C -17.9°F-27.7°C 76% 3.0 mph WNW4.8 kmh WNW -- 30.58 in1035.6 mb 0.00 in0.0 mm 0.00 in0.0 mm 0.00 in0.0 mm
02:16 AM -12.7°F-24.8°C -18.1°F-27.8°C 76% 4.0 mph WNW6.4 kmh WNW -- 30.58 in1035.6 mb 0.00 in0.0 mm 0.00 in0.0 mm 0.00 in0.0 mm
02:17 AM -12.7°F-24.8°C -18.1°F-27.8°C 76% 4.0 mph NW6.4 kmh NW -- 30.58 in1035.6 mb 0.00 in0.0 mm 0.00 in0.0 mm 0.00 in0.0 mm
02:18 AM -12.7°F-24.8°C -18.1°F-27.8°C 76% 3.0 mph W4.8 kmh W -- 30.58 in1035.6 mb 0.00 in0.0 mm 0.00 in0.0 mm 0.00 in0.0 mm
02:19 AM -12.7°F-24.8°C -18.1°F-27.8°C 76% 4.0 mph WNW6.4 kmh WNW -- 30.58 in1035.6 mb 0.00 in0.0 mm 0.00 in0.0 mm 0.00 in0.0 mm
02:20 AM -12.7°F-24.8°C -18.1°F-27.8°C 76% 4.0 mph W6.4 kmh W -- 30.58 in1035.6 mb 0.00 in0.0 mm 0.00 in0.0 mm 0.00 in0.0 mm
02:21 AM -12.7°F-24.8°C -18.1°F-27.8°C 76% 4.0 mph WNW6.4 kmh WNW -- 30.59 in1035.9 mb 0.00 in0.0 mm 0.00 in0.0 mm 0.00 in0.0 mm
02:22 AM -12.7°F-24.8°C -18.1°F-27.8°C 76% 3.0 mph NW4.8 kmh NW -- 30.58 in1035.6 mb 0.00 in0.0 mm 0.00 in0.0 mm 0.00 in0.0 mm
02:23 AM -12.7°F-24.8°C -18.1°F-27.8°C 76% 3.0 mph WNW4.8 kmh WNW -- 30.58 in1035.6 mb 0.00 in0.0 mm 0.00 in0.0 mm 0.00 in0.0 mm
02:24 AM -12.5°F-24.7°C -17.9°F-27.7°C 76% 4.0 mph WNW6.4 kmh WNW -- 30.58 in1035.6 mb 0.00 in0.0 mm 0.00 in0.0 mm 0.00 in0.0 mm
02:25 AM -12.5°F-24.7°C -17.9°F-27.7°C 76% 4.0 mph W6.4 kmh W -- 30.58 in1035.6 mb 0.00 in0.0 mm 0.00 in0.0 mm 0.00 in0.0 mm
02:26 AM -12.5°F-24.7°C -17.9°F-27.7°C 76% 4.0 mph WNW6.4 kmh WNW -- 30.58 in1035.6 mb 0.00 in0.0 mm 0.00 in0.0 mm 0.00 in0.0 mm
02:27 AM -12.5°F-24.7°C -17.9°F-27.7°C 76% 3.0 mph WNW4.8 kmh WNW -- 30.58 in1035.6 mb 0.00 in0.0 mm 0.00 in0.0 mm 0.00 in0.0 mm
02:29 AM -12.7°F-24.8°C -18.1°F-27.8°C 76% 4.0 mph WNW6.4 kmh WNW -- 30.58 in1035.6 mb 0.00 in0.0 mm 0.00 in0.0 mm 0.00 in0.0 mm
02:30 AM -12.7°F-24.8°C -18.1°F-27.8°C 76% 3.0 mph WNW4.8 kmh WNW -- 30.58 in1035.6 mb 0.00 in0.0 mm 0.00 in0.0 mm 0.00 in0.0 mm
02:31 AM -12.7°F-24.8°C -18.1°F-27.8°C 76% 4.0 mph WNW6.4 kmh WNW -- 30.58 in1035.6 mb 0.00 in0.0 mm 0.00 in0.0 mm 0.00 in0.0 mm
02:32 AM -12.7°F-24.8°C -18.1°F-27.8°C 76% 3.0 mph WNW4.8 kmh WNW -- 30.58 in1035.6 mb 0.00 in0.0 mm 0.00 in0.0 mm 0.00 in0.0 mm
02:33 AM -12.9°F-24.9°C -18.3°F-27.9°C 76% 3.0 mph WNW4.8 kmh WNW -- 30.58 in1035.6 mb 0.00 in0.0 mm 0.00 in0.0 mm 0.00 in0.0 mm
02:34 AM -12.9°F-24.9°C -18.3°F-27.9°C 76% 4.0 mph WNW6.4 kmh WNW -- 30.58 in1035.6 mb 0.00 in0.0 mm 0.00 in0.0 mm 0.00 in0.0 mm
02:36 AM -13.1°F-25.1°C -18.6°F-28.1°C 76% 3.0 mph NW4.8 kmh NW -- 30.58 in1035.6 mb 0.00 in0.0 mm 0.00 in0.0 mm 0.00 in0.0 mm
02:37 AM -13.1°F-25.1°C -18.6°F-28.1°C 76% 3.0 mph WNW4.8 kmh WNW -- 30.58 in1035.6 mb 0.00 in0.0 mm 0.00 in0.0 mm 0.00 in0.0 mm
02:38 AM -13.1°F-25.1°C -18.6°F-28.1°C 76% 4.0 mph WNW6.4 kmh WNW -- 30.58 in1035.6 mb 0.00 in0.0 mm 0.00 in0.0 mm 0.00 in0.0 mm
02:39 AM -13.3°F-25.2°C -18.8°F-28.2°C 76% 4.0 mph WNW6.4 kmh WNW -- 30.58 in1035.6 mb 0.00 in0.0 mm 0.00 in0.0 mm 0.00 in0.0 mm
02:41 AM -13.5°F-25.3°C -19.0°F-28.3°C 76% 4.0 mph WNW6.4 kmh WNW -- 30.58 in1035.6 mb 0.00 in0.0 mm 0.00 in0.0 mm 0.00 in0.0 mm
02:43 AM -13.5°F-25.3°C -19.0°F-28.3°C 76% 3.0 mph NW4.8 kmh NW -- 30.58 in1035.6 mb 0.00 in0.0 mm 0.00 in0.0 mm 0.00 in0.0 mm
02:44 AM -13.5°F-25.3°C -19.0°F-28.3°C 76% 4.0 mph WNW6.4 kmh WNW -- 30.58 in1035.6 mb 0.00 in0.0 mm 0.00 in0.0 mm 0.00 in0.0 mm
02:45 AM -13.6°F-25.3°C -19.0°F-28.3°C 76% 3.0 mph NW4.8 kmh NW -- 30.58 in1035.6 mb 0.00 in0.0 mm 0.00 in0.0 mm 0.00 in0.0 mm
02:46 AM -13.8°F-25.4°C -19.1°F-28.4°C 76% 2.0 mph NW3.2 kmh NW -- 30.59 in1035.9 mb 0.00 in0.0 mm 0.00 in0.0 mm 0.00 in0.0 mm
02:47 AM -13.8°F-25.4°C -19.1°F-28.4°C 76% 3.0 mph NW4.8 kmh NW -- 30.58 in1035.6 mb 0.00 in0.0 mm 0.00 in0.0 mm 0.00 in0.0 mm
02:48 AM -14.1°F-25.6°C -19.5°F-28.6°C 76% 3.0 mph WNW4.8 kmh WNW -- 30.59 in1035.9 mb 0.00 in0.0 mm 0.00 in0.0 mm 0.00 in0.0 mm
02:49 AM -14.1°F-25.6°C -19.0°F-28.3°C 78% 3.0 mph WNW4.8 kmh WNW -- 30.58 in1035.6 mb 0.00 in0.0 mm 0.00 in0.0 mm 0.00 in0.0 mm
02:51 AM -14.1°F-25.6°C -19.0°F-28.3°C 78% 4.0 mph WNW6.4 kmh WNW -- 30.58 in1035.6 mb 0.00 in0.0 mm 0.00 in0.0 mm 0.00 in0.0 mm
02:52 AM -14.1°F-25.6°C -19.0°F-28.3°C 78% 4.0 mph WNW6.4 kmh WNW -- 30.59 in1035.9 mb 0.00 in0.0 mm 0.00 in0.0 mm 0.00 in0.0 mm
02:53 AM -14.1°F-25.6°C -18.7°F-28.2°C 79% 4.0 mph WNW6.4 kmh WNW -- 30.58 in1035.6 mb 0.00 in0.0 mm 0.00 in0.0 mm 0.00 in0.0 mm
02:55 AM -14.1°F-25.6°C -18.7°F-28.2°C 79% 3.0 mph WNW4.8 kmh WNW -- 30.58 in1035.6 mb 0.00 in0.0 mm 0.00 in0.0 mm 0.00 in0.0 mm
02:59 AM -14.3°F-25.7°C -18.9°F-28.3°C 79% 2.0 mph NW3.2 kmh NW -- 30.58 in1035.6 mb 0.00 in0.0 mm 0.00 in0.0 mm 0.00 in0.0 mm
03:00 AM -14.3°F-25.7°C -18.9°F-28.3°C 79% 2.0 mph W3.2 kmh W -- 30.58 in1035.6 mb 0.00 in0.0 mm 0.00 in0.0 mm 0.00 in0.0 mm
03:02 AM -14.3°F-25.7°C -18.9°F-28.3°C 79% 3.0 mph WNW4.8 kmh WNW -- 30.58 in1035.6 mb 0.00 in0.0 mm 0.00 in0.0 mm 0.00 in0.0 mm
03:03 AM -14.3°F-25.7°C -18.9°F-28.3°C 79% 5.0 mph W8.0 kmh W -- 30.58 in1035.6 mb 0.00 in0.0 mm 0.00 in0.0 mm 0.00 in0.0 mm
03:04 AM -14.3°F-25.7°C -18.7°F-28.2°C 80% 5.0 mph WNW8.0 kmh WNW -- 30.58 in1035.6 mb 0.00 in0.0 mm 0.00 in0.0 mm 0.00 in0.0 mm
03:05 AM -14.3°F-25.7°C -18.7°F-28.2°C 80% 5.0 mph W8.0 kmh W -- 30.58 in1035.6 mb 0.00 in0.0 mm 0.00 in0.0 mm 0.00 in0.0 mm
03:06 AM -14.1°F-25.6°C -18.5°F-28.1°C 80% 4.0 mph W6.4 kmh W -- 30.58 in1035.6 mb 0.00 in0.0 mm 0.00 in0.0 mm 0.00 in0.0 mm
03:07 AM -14.1°F-25.6°C -18.2°F-27.9°C 81% 3.0 mph WNW4.8 kmh WNW -- 30.58 in1035.6 mb 0.00 in0.0 mm 0.00 in0.0 mm 0.00 in0.0 mm
03:08 AM -13.8°F-25.4°C -17.9°F-27.7°C 81% 3.0 mph NW4.8 kmh NW -- 30.58 in1035.6 mb 0.00 in0.0 mm 0.00 in0.0 mm 0.00 in0.0 mm
03:09 AM -13.8°F-25.4°C -17.9°F-27.7°C 81% 3.0 mph WNW4.8 kmh WNW -- 30.58 in1035.6 mb 0.00 in0.0 mm 0.00 in0.0 mm 0.00 in0.0 mm
03:10 AM -13.6°F-25.3°C -17.7°F-27.6°C 81% 4.0 mph W6.4 kmh W -- 30.57 in1035.2 mb 0.00 in0.0 mm 0.00 in0.0 mm 0.00 in0.0 mm
03:11 AM -13.6°F-25.3°C -17.7°F-27.6°C 81% 2.0 mph W3.2 kmh W -- 30.57 in1035.2 mb 0.00 in0.0 mm 0.00 in0.0 mm 0.00 in0.0 mm
03:12 AM -13.6°F-25.3°C -17.7°F-27.6°C 81% 4.0 mph W6.4 kmh W -- 30.57 in1035.2 mb 0.00 in0.0 mm 0.00 in0.0 mm 0.00 in0.0 mm
03:13 AM -13.6°F-25.3°C -17.7°F-27.6°C 81% 4.0 mph WNW6.4 kmh WNW -- 30.58 in1035.6 mb 0.00 in0.0 mm 0.00 in0.0 mm 0.00 in0.0 mm
03:14 AM -13.5°F-25.3°C -17.7°F-27.6°C 81% 4.0 mph W6.4 kmh W -- 30.57 in1035.2 mb 0.00 in0.0 mm 0.00 in0.0 mm 0.00 in0.0 mm
03:15 AM -13.5°F-25.3°C -17.7°F-27.6°C 81% 3.0 mph WNW4.8 kmh WNW -- 30.57 in1035.2 mb 0.00 in0.0 mm 0.00 in0.0 mm 0.00 in0.0 mm
03:16 AM -13.5°F-25.3°C -17.7°F-27.6°C 81% 6.0 mph NW9.7 kmh NW -- 30.57 in1035.2 mb 0.00 in0.0 mm 0.00 in0.0 mm 0.00 in0.0 mm
03:17 AM -13.5°F-25.3°C -17.7°F-27.6°C 81% 4.0 mph W6.4 kmh W -- 30.57 in1035.2 mb 0.00 in0.0 mm 0.00 in0.0 mm 0.00 in0.0 mm
03:18 AM -13.5°F-25.3°C -17.7°F-27.6°C 81% 3.0 mph W4.8 kmh W -- 30.57 in1035.2 mb 0.00 in0.0 mm 0.00 in0.0 mm 0.00 in0.0 mm
03:19 AM -13.5°F-25.3°C -18.0°F-27.8°C 80% 4.0 mph W6.4 kmh W -- 30.57 in1035.2 mb 0.00 in0.0 mm 0.00 in0.0 mm 0.00 in0.0 mm
03:20 AM -13.5°F-25.3°C -18.0°F-27.8°C 80% 3.0 mph W4.8 kmh W -- 30.57 in1035.2 mb 0.00 in0.0 mm 0.00 in0.0 mm 0.00 in0.0 mm
03:21 AM -13.5°F-25.3°C -18.0°F-27.8°C 80% 4.0 mph W6.4 kmh W -- 30.57 in1035.2 mb 0.00 in0.0 mm 0.00 in0.0 mm 0.00 in0.0 mm
03:23 AM -13.3°F-25.2°C -17.8°F-27.7°C 80% 3.0 mph W4.8 kmh W -- 30.57 in1035.2 mb 0.00 in0.0 mm 0.00 in0.0 mm 0.00 in0.0 mm
03:24 AM -13.1°F-25.1°C -17.6°F-27.6°C 80% 5.0 mph WSW8.0 kmh WSW -- 30.56 in1034.9 mb 0.00 in0.0 mm 0.00 in0.0 mm 0.00 in0.0 mm
03:25 AM -13.1°F-25.1°C -17.6°F-27.6°C 80% 4.0 mph NW6.4 kmh NW -- 30.57 in1035.2 mb 0.00 in0.0 mm 0.00 in0.0 mm 0.00 in0.0 mm
03:26 AM -12.9°F-24.9°C -17.3°F-27.4°C 80% 4.0 mph W6.4 kmh W -- 30.56 in1034.9 mb 0.00 in0.0 mm 0.00 in0.0 mm 0.00 in0.0 mm
03:27 AM -12.9°F-24.9°C -17.3°F-27.4°C 80% 4.0 mph WNW6.4 kmh WNW -- 30.57 in1035.2 mb 0.00 in0.0 mm 0.00 in0.0 mm 0.00 in0.0 mm
03:28 AM -12.9°F-24.9°C -17.3°F-27.4°C 80% 5.0 mph W8.0 kmh W -- 30.57 in1035.2 mb 0.00 in0.0 mm 0.00 in0.0 mm 0.00 in0.0 mm
03:29 AM -12.9°F-24.9°C -17.3°F-27.4°C 80% 4.0 mph WNW6.4 kmh WNW -- 30.57 in1035.2 mb 0.00 in0.0 mm 0.00 in0.0 mm 0.00 in0.0 mm
03:30 AM -12.5°F-24.7°C -16.9°F-27.2°C 80% 2.0 mph W3.2 kmh W -- 30.57 in1035.2 mb 0.00 in0.0 mm 0.00 in0.0 mm 0.00 in0.0 mm
03:31 AM -12.5°F-24.7°C -16.9°F-27.2°C 80% 5.0 mph W8.0 kmh W -- 30.57 in1035.2 mb 0.00 in0.0 mm 0.00 in0.0 mm 0.00 in0.0 mm
03:32 AM -12.3°F-24.6°C -17.0°F-27.2°C 79% 3.0 mph NW4.8 kmh NW -- 30.57 in1035.2 mb 0.00 in0.0 mm 0.00 in0.0 mm 0.00 in0.0 mm
03:33 AM -12.3°F-24.6°C -17.0°F-27.2°C 79% 4.0 mph W6.4 kmh W -- 30.57 in1035.2 mb 0.00 in0.0 mm 0.00 in0.0 mm 0.00 in0.0 mm
03:36 AM -12.3°F-24.6°C -17.0°F-27.2°C 79% 4.0 mph WNW6.4 kmh WNW -- 30.57 in1035.2 mb 0.00 in0.0 mm 0.00 in0.0 mm 0.00 in0.0 mm
03:37 AM -12.1°F-24.5°C -16.8°F-27.1°C 79% 3.0 mph W4.8 kmh W -- 30.57 in1035.2 mb 0.00 in0.0 mm 0.00 in0.0 mm 0.00 in0.0 mm
03:38 AM -12.1°F-24.5°C -16.8°F-27.1°C 79% 5.0 mph W8.0 kmh W -- 30.57 in1035.2 mb 0.00 in0.0 mm 0.00 in0.0 mm 0.00 in0.0 mm
03:39 AM -12.1°F-24.5°C -16.8°F-27.1°C 79% 4.0 mph W6.4 kmh W -- 30.57 in1035.2 mb 0.00 in0.0 mm 0.00 in0.0 mm 0.00 in0.0 mm
03:40 AM -12.1°F-24.5°C -17.1°F-27.3°C 78% 3.0 mph W4.8 kmh W -- 30.57 in1035.2 mb 0.00 in0.0 mm 0.00 in0.0 mm 0.00 in0.0 mm
03:41 AM -12.1°F-24.5°C -17.1°F-27.3°C 78% 4.0 mph WNW6.4 kmh WNW -- 30.57 in1035.2 mb 0.00 in0.0 mm 0.00 in0.0 mm 0.00 in0.0 mm
03:42 AM -12.1°F-24.5°C -17.1°F-27.3°C 78% 4.0 mph W6.4 kmh W -- 30.57 in1035.2 mb 0.00 in0.0 mm 0.00 in0.0 mm 0.00 in0.0 mm
03:44 AM -12.1°F-24.5°C -17.1°F-27.3°C 78% 3.0 mph NW4.8 kmh NW -- 30.57 in1035.2 mb 0.00 in0.0 mm 0.00 in0.0 mm 0.00 in0.0 mm
03:45 AM -12.1°F-24.5°C -17.1°F-27.3°C 78% 4.0 mph WNW6.4 kmh WNW -- 30.56 in1034.9 mb 0.00 in0.0 mm 0.00 in0.0 mm 0.00 in0.0 mm
03:46 AM -12.1°F-24.5°C -17.1°F-27.3°C 78% 3.0 mph W4.8 kmh W -- 30.57 in1035.2 mb 0.00 in0.0 mm 0.00 in0.0 mm 0.00 in0.0 mm
03:47 AM -12.1°F-24.5°C -17.1°F-27.3°C 78% 4.0 mph NW6.4 kmh NW -- 30.57 in1035.2 mb 0.00 in0.0 mm 0.00 in0.0 mm 0.00 in0.0 mm
03:48 AM -11.8°F-24.3°C -16.7°F-27.1°C 78% 4.0 mph SSW6.4 kmh SSW -- 30.57 in1035.2 mb 0.00 in0.0 mm 0.00 in0.0 mm 0.00 in0.0 mm
03:49 AM -11.8°F-24.3°C -16.7°F-27.1°C 78% 4.0 mph WNW6.4 kmh WNW -- 30.57 in1035.2 mb 0.00 in0.0 mm 0.00 in0.0 mm 0.00 in0.0 mm
03:50 AM -11.8°F-24.3°C -16.7°F-27.1°C 78% 6.0 mph WNW9.7 kmh WNW -- 30.56 in1034.9 mb 0.00 in0.0 mm 0.00 in0.0 mm 0.00 in0.0 mm
03:51 AM -11.6°F-24.2°C -16.5°F-26.9°C 78% 5.0 mph W8.0 kmh W -- 30.56 in1034.9 mb 0.00 in0.0 mm 0.00 in0.0 mm 0.00 in0.0 mm
03:52 AM -11.6°F-24.2°C -16.5°F-26.9°C 78% 5.0 mph NW8.0 kmh NW -- 30.56 in1034.9 mb 0.00 in0.0 mm 0.00 in0.0 mm 0.00 in0.0 mm
03:53 AM -11.6°F-24.2°C -16.5°F-26.9°C 78% 3.0 mph WNW4.8 kmh WNW -- 30.56 in1034.9 mb 0.00 in0.0 mm 0.00 in0.0 mm 0.00 in0.0 mm
03:54 AM -11.6°F-24.2°C -17.0°F-27.2°C 76% 5.0 mph WNW8.0 kmh WNW -- 30.57 in1035.2 mb 0.00 in0.0 mm 0.00 in0.0 mm 0.00 in0.0 mm
03:55 AM -11.6°F-24.2°C -17.0°F-27.2°C 76% 3.0 mph W4.8 kmh W -- 30.57 in1035.2 mb 0.00 in0.0 mm 0.00 in0.0 mm 0.00 in0.0 mm
03:56 AM -11.6°F-24.2°C -17.0°F-27.2°C 76% 6.0 mph W9.7 kmh W -- 30.57 in1035.2 mb 0.00 in0.0 mm 0.00 in0.0 mm 0.00 in0.0 mm
03:57 AM -11.6°F-24.2°C -17.0°F-27.2°C 76% 3.0 mph W4.8 kmh W -- 30.57 in1035.2 mb 0.00 in0.0 mm 0.00 in0.0 mm 0.00 in0.0 mm
03:58 AM -11.6°F-24.2°C -17.0°F-27.2°C 76% 3.0 mph W4.8 kmh W -- 30.56 in1034.9 mb 0.00 in0.0 mm 0.00 in0.0 mm 0.00 in0.0 mm
03:59 AM -11.6°F-24.2°C -17.0°F-27.2°C 76% 3.0 mph WNW4.8 kmh WNW -- 30.56 in1034.9 mb 0.00 in0.0 mm 0.00 in0.0 mm 0.00 in0.0 mm
04:00 AM -11.8°F-24.3°C -17.2°F-27.3°C 76% 2.0 mph W3.2 kmh W -- 30.57 in1035.2 mb 0.00 in0.0 mm 0.00 in0.0 mm 0.00 in0.0 mm
04:01 AM -11.8°F-24.3°C -17.2°F-27.3°C 76% 4.0 mph W6.4 kmh W -- 30.57 in1035.2 mb 0.00 in0.0 mm 0.00 in0.0 mm 0.00 in0.0 mm
04:02 AM -12.1°F-24.5°C -17.6°F-27.6°C 76% 6.0 mph WNW9.7 kmh WNW -- 30.56 in1034.9 mb 0.00 in0.0 mm 0.00 in0.0 mm 0.00 in0.0 mm
04:03 AM -11.8°F-24.3°C -17.2°F-27.3°C 76% 7.0 mph W11.3 kmh W -- 30.56 in1034.9 mb 0.00 in0.0 mm 0.00 in0.0 mm 0.00 in0.0 mm
04:04 AM -11.8°F-24.3°C -17.2°F-27.3°C 76% 5.0 mph WNW8.0 kmh WNW -- 30.57 in1035.2 mb 0.00 in0.0 mm 0.00 in0.0 mm 0.00 in0.0 mm
04:05 AM -11.8°F-24.3°C -17.2°F-27.3°C 76% 7.0 mph WNW11.3 kmh WNW -- 30.56 in1034.9 mb 0.00 in0.0 mm 0.00 in0.0 mm 0.00 in0.0 mm
04:06 AM -11.8°F-24.3°C -17.2°F-27.3°C 76% 6.0 mph W9.7 kmh W -- 30.57 in1035.2 mb 0.00 in0.0 mm 0.00 in0.0 mm 0.00 in0.0 mm
04:07 AM -11.6°F-24.2°C -17.0°F-27.2°C 76% 4.0 mph W6.4 kmh W -- 30.56 in1034.9 mb 0.00 in0.0 mm 0.00 in0.0 mm 0.00 in0.0 mm
04:08 AM -11.6°F-24.2°C -17.0°F-27.2°C 76% 6.0 mph W9.7 kmh W -- 30.57 in1035.2 mb 0.00 in0.0 mm 0.00 in0.0 mm 0.00 in0.0 mm
04:09 AM -11.6°F-24.2°C -17.0°F-27.2°C 76% 5.0 mph W8.0 kmh W -- 30.57 in1035.2 mb 0.00 in0.0 mm 0.00 in0.0 mm 0.00 in0.0 mm
04:10 AM -11.6°F-24.2°C -17.3°F-27.4°C 75% 6.0 mph W9.7 kmh W -- 30.57 in1035.2 mb 0.00 in0.0 mm 0.00 in0.0 mm 0.00 in0.0 mm
04:11 AM -11.6°F-24.2°C -17.3°F-27.4°C 75% 6.0 mph WNW9.7 kmh WNW -- 30.56 in1034.9 mb 0.00 in0.0 mm 0.00 in0.0 mm 0.00 in0.0 mm
04:12 AM -11.6°F-24.2°C -17.3°F-27.4°C 75% 4.0 mph W6.4 kmh W -- 30.56 in1034.9 mb 0.00 in0.0 mm 0.00 in0.0 mm 0.00 in0.0 mm
04:13 AM -11.6°F-24.2°C -17.3°F-27.4°C 75% 7.0 mph W11.3 kmh W -- 30.56 in1034.9 mb 0.00 in0.0 mm 0.00 in0.0 mm 0.00 in0.0 mm
04:14 AM -11.6°F-24.2°C -17.3°F-27.4°C 75% 7.0 mph W11.3 kmh W -- 30.57 in1035.2 mb 0.00 in0.0 mm 0.00 in0.0 mm 0.00 in0.0 mm
04:15 AM -11.6°F-24.2°C -17.3°F-27.4°C 75% 6.0 mph W9.7 kmh W -- 30.56 in1034.9 mb 0.00 in0.0 mm 0.00 in0.0 mm 0.00 in0.0 mm
04:16 AM -11.6°F-24.2°C -17.3°F-27.4°C 75% 5.0 mph W8.0 kmh W -- 30.56 in1034.9 mb 0.00 in0.0 mm 0.00 in0.0 mm 0.00 in0.0 mm
04:17 AM -11.6°F-24.2°C -17.3°F-27.4°C 75% 7.0 mph W11.3 kmh W -- 30.56 in1034.9 mb 0.00 in0.0 mm 0.00 in0.0 mm 0.00 in0.0 mm
04:18 AM -11.6°F-24.2°C -17.3°F-27.4°C 75% 3.0 mph W4.8 kmh W -- 30.57 in1035.2 mb 0.00 in0.0 mm 0.00 in0.0 mm 0.00 in0.0 mm
04:19 AM -11.6°F-24.2°C -17.3°F-27.4°C 75% 7.0 mph WNW11.3 kmh WNW -- 30.57 in1035.2 mb 0.00 in0.0 mm 0.00 in0.0 mm 0.00 in0.0 mm
04:20 AM -11.6°F-24.2°C -17.3°F-27.4°C 75% 6.0 mph WNW9.7 kmh WNW -- 30.57 in1035.2 mb 0.00 in0.0 mm 0.00 in0.0 mm 0.00 in0.0 mm
04:21 AM -11.6°F-24.2°C -17.3°F-27.4°C 75% 6.0 mph W9.7 kmh W -- 30.57 in1035.2 mb 0.00 in0.0 mm 0.00 in0.0 mm 0.00 in0.0 mm
04:23 AM -11.6°F-24.2°C -17.3°F-27.4°C 75% 4.0 mph W6.4 kmh W -- 30.57 in1035.2 mb 0.00 in0.0 mm 0.00 in0.0 mm 0.00 in0.0 mm
04:24 AM -11.6°F-24.2°C -17.3°F-27.4°C 75% 5.0 mph WNW8.0 kmh WNW -- 30.56 in1034.9 mb 0.00 in0.0 mm 0.00 in0.0 mm 0.00 in0.0 mm
04:25 AM -11.6°F-24.2°C -17.3°F-27.4°C 75% 6.0 mph W9.7 kmh W -- 30.57 in1035.2 mb 0.00 in0.0 mm 0.00 in0.0 mm 0.00 in0.0 mm
04:27 AM -11.6°F-24.2°C -17.3°F-27.4°C 75% 5.0 mph W8.0 kmh W -- 30.57 in1035.2 mb 0.00 in0.0 mm 0.00 in0.0 mm 0.00 in0.0 mm
04:28 AM -11.6°F-24.2°C -17.3°F-27.4°C 75% 6.0 mph WNW9.7 kmh WNW -- 30.56 in1034.9 mb 0.00 in0.0 mm 0.00 in0.0 mm 0.00 in0.0 mm
04:29 AM -11.6°F-24.2°C -17.3°F-27.4°C 75% 5.0 mph W8.0 kmh W -- 30.57 in1035.2 mb 0.00 in0.0 mm 0.00 in0.0 mm 0.00 in0.0 mm
04:30 AM -11.6°F-24.2°C -17.3°F-27.4°C 75% 7.0 mph W11.3 kmh W -- 30.57 in1035.2 mb 0.00 in0.0 mm 0.00 in0.0 mm 0.00 in0.0 mm
04:31 AM -11.6°F-24.2°C -17.3°F-27.4°C 75% 5.0 mph W8.0 kmh W -- 30.57 in1035.2 mb 0.00 in0.0 mm 0.00 in0.0 mm 0.00 in0.0 mm
04:32 AM -11.6°F-24.2°C -17.3°F-27.4°C 75% 8.0 mph W12.9 kmh W -- 30.56 in1034.9 mb 0.00 in0.0 mm 0.00 in0.0 mm 0.00 in0.0 mm
04:33 AM -11.6°F-24.2°C -17.3°F-27.4°C 75% 4.0 mph W6.4 kmh W -- 30.56 in1034.9 mb 0.00 in0.0 mm 0.00 in0.0 mm 0.00 in0.0 mm
04:34 AM -11.6°F-24.2°C -17.3°F-27.4°C 75% 9.0 mph W14.5 kmh W -- 30.56 in1034.9 mb 0.00 in0.0 mm 0.00 in0.0 mm 0.00 in0.0 mm
04:35 AM -11.3°F-24.1°C -17.1°F-27.3°C 75% 5.0 mph W8.0 kmh W -- 30.57 in1035.2 mb 0.00 in0.0 mm 0.00 in0.0 mm 0.00 in0.0 mm
04:36 AM -11.3°F-24.1°C -17.1°F-27.3°C 75% 7.0 mph WNW11.3 kmh WNW -- 30.56 in1034.9 mb 0.00 in0.0 mm 0.00 in0.0 mm 0.00 in0.0 mm
04:37 AM -11.2°F-24.0°C -16.9°F-27.2°C 75% 6.0 mph NW9.7 kmh NW -- 30.57 in1035.2 mb 0.00 in0.0 mm 0.00 in0.0 mm 0.00 in0.0 mm
04:38 AM -11.2°F-24.0°C -16.9°F-27.2°C 75% 7.0 mph W11.3 kmh W -- 30.57 in1035.2 mb 0.00 in0.0 mm 0.00 in0.0 mm 0.00 in0.0 mm
04:39 AM -11.2°F-24.0°C -16.9°F-27.2°C 75% 8.0 mph W12.9 kmh W -- 30.56 in1034.9 mb 0.00 in0.0 mm 0.00 in0.0 mm 0.00 in0.0 mm
04:40 AM -11.2°F-24.0°C -16.9°F-27.2°C 75% 7.0 mph W11.3 kmh W -- 30.57 in1035.2 mb 0.00 in0.0 mm 0.00 in0.0 mm 0.00 in0.0 mm
04:41 AM -11.2°F-24.0°C -16.9°F-27.2°C 75% 5.0 mph W8.0 kmh W -- 30.56 in1034.9 mb 0.00 in0.0 mm 0.00 in0.0 mm 0.00 in0.0 mm
04:42 AM -11.0°F-23.9°C -16.8°F-27.1°C 75% 4.0 mph W6.4 kmh W -- 30.56 in1034.9 mb 0.00 in0.0 mm 0.00 in0.0 mm 0.00 in0.0 mm
04:43 AM -11.0°F-23.9°C -16.8°F-27.1°C 75% 6.0 mph W9.7 kmh W -- 30.56 in1034.9 mb 0.00 in0.0 mm 0.00 in0.0 mm 0.00 in0.0 mm
04:44 AM -10.8°F-23.8°C -16.6°F-27.0°C 75% 6.0 mph WNW9.7 kmh WNW -- 30.57 in1035.2 mb 0.00 in0.0 mm 0.00 in0.0 mm 0.00 in0.0 mm
04:45 AM -10.8°F-23.8°C -16.6°F-27.0°C 75% 8.0 mph W12.9 kmh W -- 30.56 in1034.9 mb 0.00 in0.0 mm 0.00 in0.0 mm 0.00 in0.0 mm
04:46 AM -10.8°F-23.8°C -16.6°F-27.0°C 75% 7.0 mph WNW11.3 kmh WNW -- 30.57 in1035.2 mb 0.00 in0.0 mm 0.00 in0.0 mm 0.00 in0.0 mm
04:47 AM -10.6°F-23.7°C -16.4°F-26.9°C 75% 6.0 mph NW9.7 kmh NW -- 30.56 in1034.9 mb 0.00 in0.0 mm 0.00 in0.0 mm 0.00 in0.0 mm
04:48 AM -10.6°F-23.7°C -16.4°F-26.9°C 75% 7.0 mph WNW11.3 kmh WNW -- 30.57 in1035.2 mb 0.00 in0.0 mm 0.00 in0.0 mm 0.00 in0.0 mm
04:49 AM -10.6°F-23.7°C -16.4°F-26.9°C 75% 6.0 mph WNW9.7 kmh WNW -- 30.56 in1034.9 mb 0.00 in0.0 mm 0.00 in0.0 mm 0.00 in0.0 mm
04:50 AM -10.4°F-23.6°C -16.3°F-26.8°C 75% 9.0 mph W14.5 kmh W -- 30.57 in1035.2 mb 0.00 in0.0 mm 0.00 in0.0 mm 0.00 in0.0 mm
04:51 AM -10.4°F-23.6°C -16.3°F-26.8°C 75% 5.0 mph WNW8.0 kmh WNW -- 30.56 in1034.9 mb 0.00 in0.0 mm 0.00 in0.0 mm 0.00 in0.0 mm
04:52 AM -10.4°F-23.6°C -16.3°F-26.8°C 75% 8.0 mph WNW12.9 kmh WNW -- 30.57 in1035.2 mb 0.00 in0.0 mm 0.00 in0.0 mm 0.00 in0.0 mm
04:53 AM -10.4°F-23.6°C -16.3°F-26.8°C 75% 5.0 mph W8.0 kmh W -- 30.56 in1034.9 mb 0.00 in0.0 mm 0.00 in0.0 mm 0.00 in0.0 mm
04:54 AM -10.4°F-23.6°C -16.3°F-26.8°C 75% 7.0 mph WNW11.3 kmh WNW -- 30.57 in1035.2 mb 0.00 in0.0 mm 0.00 in0.0 mm 0.00 in0.0 mm
04:55 AM -10.4°F-23.6°C -16.3°F-26.8°C 75% 8.0 mph WNW12.9 kmh WNW -- 30.57 in1035.2 mb 0.00 in0.0 mm 0.00 in0.0 mm 0.00 in0.0 mm
04:56 AM -10.4°F-23.6°C -16.3°F-26.8°C 75% 6.0 mph WNW9.7 kmh WNW -- 30.57 in1035.2 mb 0.00 in0.0 mm 0.00 in0.0 mm 0.00 in0.0 mm
04:57 AM -10.4°F-23.6°C -16.3°F-26.8°C 75% 8.0 mph S12.9 kmh S -- 30.56 in1034.9 mb 0.00 in0.0 mm 0.00 in0.0 mm 0.00 in0.0 mm
04:58 AM -10.4°F-23.6°C -16.3°F-26.8°C 75% 6.0 mph NNW9.7 kmh NNW -- 30.56 in1034.9 mb 0.00 in0.0 mm 0.00 in0.0 mm 0.00 in0.0 mm
04:59 AM -10.4°F-23.6°C -16.3°F-26.8°C 75% 4.0 mph WNW6.4 kmh WNW -- 30.56 in1034.9 mb 0.00 in0.0 mm 0.00 in0.0 mm 0.00 in0.0 mm
05:00 AM -10.4°F-23.6°C -16.3°F-26.8°C 75% 6.0 mph NW9.7 kmh NW -- 30.57 in1035.2 mb 0.00 in0.0 mm 0.00 in0.0 mm 0.00 in0.0 mm
05:01 AM -10.4°F-23.6°C -16.3°F-26.8°C 75% 6.0 mph WNW9.7 kmh WNW -- 30.56 in1034.9 mb 0.00 in0.0 mm 0.00 in0.0 mm 0.00 in0.0 mm
05:02 AM -10.4°F-23.6°C -16.3°F-26.8°C 75% 5.0 mph W8.0 kmh W -- 30.56 in1034.9 mb 0.00 in0.0 mm 0.00 in0.0 mm 0.00 in0.0 mm
05:03 AM -10.4°F-23.6°C -16.3°F-26.8°C 75% 6.0 mph NW9.7 kmh NW -- 30.56 in1034.9 mb 0.00 in0.0 mm 0.00 in0.0 mm 0.00 in0.0 mm
05:04 AM -10.4°F-23.6°C -16.3°F-26.8°C 75% 6.0 mph WNW9.7 kmh WNW -- 30.56 in1034.9 mb 0.00 in0.0 mm 0.00 in0.0 mm 0.00 in0.0 mm
05:05 AM -10.4°F-23.6°C -16.3°F-26.8°C 75% 5.0 mph WNW8.0 kmh WNW -- 30.56 in1034.9 mb 0.00 in0.0 mm 0.00 in0.0 mm 0.00 in0.0 mm
05:06 AM -10.4°F-23.6°C -16.3°F-26.8°C 75% 4.0 mph W6.4 kmh W -- 30.56 in1034.9 mb 0.00 in0.0 mm 0.00 in0.0 mm 0.00 in0.0 mm
05:07 AM -10.5°F-23.6°C -16.3°F-26.8°C 75% 4.0 mph W6.4 kmh W -- 30.56 in1034.9 mb 0.00 in0.0 mm 0.00 in0.0 mm 0.00 in0.0 mm
05:08 AM -10.6°F-23.7°C -16.4°F-26.9°C 75% 4.0 mph WNW6.4 kmh WNW -- 30.56 in1034.9 mb 0.00 in0.0 mm 0.00 in0.0 mm 0.00 in0.0 mm
05:09 AM -10.6°F-23.7°C -16.4°F-26.9°C 75% 4.0 mph W6.4 kmh W -- 30.56 in1034.9 mb 0.00 in0.0 mm 0.00 in0.0 mm 0.00 in0.0 mm
05:11 AM -10.6°F-23.7°C -16.4°F-26.9°C 75% 3.0 mph W4.8 kmh W -- 30.56 in1034.9 mb 0.00 in0.0 mm 0.00 in0.0 mm 0.00 in0.0 mm
05:13 AM -10.6°F-23.7°C -16.4°F-26.9°C 75% 4.0 mph WNW6.4 kmh WNW -- 30.56 in1034.9 mb 0.00 in0.0 mm 0.00 in0.0 mm 0.00 in0.0 mm
05:14 AM -10.6°F-23.7°C -16.4°F-26.9°C 75% 3.0 mph W4.8 kmh W -- 30.56 in1034.9 mb 0.00 in0.0 mm 0.00 in0.0 mm 0.00 in0.0 mm
05:15 AM -10.6°F-23.7°C -16.4°F-26.9°C 75% 4.0 mph W6.4 kmh W -- 30.56 in1034.9 mb 0.00 in0.0 mm 0.00 in0.0 mm 0.00 in0.0 mm
05:16 AM -10.6°F-23.7°C -16.4°F-26.9°C 75% 3.0 mph W4.8 kmh W -- 30.56 in1034.9 mb 0.00 in0.0 mm 0.00 in0.0 mm 0.00 in0.0 mm
05:17 AM -10.6°F-23.7°C -16.4°F-26.9°C 75% 4.0 mph W6.4 kmh W -- 30.57 in1035.2 mb 0.00 in0.0 mm 0.00 in0.0 mm 0.00 in0.0 mm
05:18 AM -10.6°F-23.7°C -16.4°F-26.9°C 75% 4.0 mph W6.4 kmh W -- 30.56 in1034.9 mb 0.00 in0.0 mm 0.00 in0.0 mm 0.00 in0.0 mm
05:19 AM -11.0°F-23.9°C -16.8°F-27.1°C 75% 3.0 mph W4.8 kmh W -- 30.57 in1035.2 mb 0.00 in0.0 mm 0.00 in0.0 mm 0.00 in0.0 mm
05:20 AM -11.0°F-23.9°C -16.8°F-27.1°C 75% 4.0 mph W6.4 kmh W -- 30.56 in1034.9 mb 0.00 in0.0 mm 0.00 in0.0 mm 0.00 in0.0 mm
05:21 AM -11.0°F-23.9°C -16.8°F-27.1°C 75% 3.0 mph W4.8 kmh W -- 30.56 in1034.9 mb 0.00 in0.0 mm 0.00 in0.0 mm 0.00 in0.0 mm
05:22 AM -11.2°F-24.0°C -16.9°F-27.2°C 75% 3.0 mph WNW4.8 kmh WNW -- 30.56 in1034.9 mb 0.00 in0.0 mm 0.00 in0.0 mm 0.00 in0.0 mm
05:23 AM -11.2°F-24.0°C -16.9°F-27.2°C 75% 4.0 mph W6.4 kmh W -- 30.56 in1034.9 mb 0.00 in0.0 mm 0.00 in0.0 mm 0.00 in0.0 mm
05:25 AM -11.3°F-24.1°C -17.1°F-27.3°C 75% 3.0 mph W4.8 kmh W -- 30.56 in1034.9 mb 0.00 in0.0 mm 0.00 in0.0 mm 0.00 in0.0 mm
05:26 AM -11.3°F-24.1°C -17.1°F-27.3°C 75% 4.0 mph W6.4 kmh W -- 30.56 in1034.9 mb 0.00 in0.0 mm 0.00 in0.0 mm 0.00 in0.0 mm
05:28 AM -11.3°F-24.1°C -17.1°F-27.3°C 75% 4.0 mph W6.4 kmh W -- 30.55 in1034.5 mb 0.00 in0.0 mm 0.00 in0.0 mm 0.00 in0.0 mm
05:30 AM -11.3°F-24.1°C -17.1°F-27.3°C 75% 4.0 mph WNW6.4 kmh WNW -- 30.56 in1034.9 mb 0.00 in0.0 mm 0.00 in0.0 mm 0.00 in0.0 mm
05:31 AM -11.3°F-24.1°C -17.1°F-27.3°C 75% 4.0 mph W6.4 kmh W -- 30.55 in1034.5 mb 0.00 in0.0 mm 0.00 in0.0 mm 0.00 in0.0 mm
05:32 AM -11.3°F-24.1°C -17.1°F-27.3°C 75% 3.0 mph W4.8 kmh W -- 30.56 in1034.9 mb 0.00 in0.0 mm 0.00 in0.0 mm 0.00 in0.0 mm
05:33 AM -11.3°F-24.1°C -17.1°F-27.3°C 75% 3.0 mph W4.8 kmh W -- 30.55 in1034.5 mb 0.00 in0.0 mm 0.00 in0.0 mm 0.00 in0.0 mm
05:34 AM -11.3°F-24.1°C -17.1°F-27.3°C 75% 4.0 mph W6.4 kmh W -- 30.56 in1034.9 mb 0.00 in0.0 mm 0.00 in0.0 mm 0.00 in0.0 mm
05:35 AM -11.3°F-24.1°C -17.1°F-27.3°C 75% 3.0 mph W4.8 kmh W -- 30.55 in1034.5 mb 0.00 in0.0 mm 0.00 in0.0 mm 0.00 in0.0 mm
05:36 AM -11.3°F-24.1°C -17.1°F-27.3°C 75% 3.0 mph W4.8 kmh W -- 30.56 in1034.9 mb 0.00 in0.0 mm 0.00 in0.0 mm 0.00 in0.0 mm
05:37 AM -11.3°F-24.1°C -17.1°F-27.3°C 75% 4.0 mph W6.4 kmh W -- 30.55 in1034.5 mb 0.00 in0.0 mm 0.00 in0.0 mm 0.00 in0.0 mm
05:38 AM -11.3°F-24.1°C -17.1°F-27.3°C 75% 4.0 mph W6.4 kmh W -- 30.56 in1034.9 mb 0.00 in0.0 mm 0.00 in0.0 mm 0.00 in0.0 mm
05:39 AM -11.3°F-24.1°C -17.1°F-27.3°C 75% 4.0 mph WNW6.4 kmh WNW -- 30.56 in1034.9 mb 0.00 in0.0 mm 0.00 in0.0 mm 0.00 in0.0 mm
05:40 AM -11.3°F-24.1°C -16.9°F-27.2°C 76% 4.0 mph W6.4 kmh W -- 30.56 in1034.9 mb 0.00 in0.0 mm 0.00 in0.0 mm 0.00 in0.0 mm
05:41 AM -11.2°F-24.0°C -16.7°F-27.1°C 76% 7.0 mph W11.3 kmh W -- 30.55 in1034.5 mb 0.00 in0.0 mm 0.00 in0.0 mm 0.00 in0.0 mm
05:42 AM -11.0°F-23.9°C -16.5°F-26.9°C 76% 5.0 mph WSW8.0 kmh WSW -- 30.56 in1034.9 mb 0.00 in0.0 mm 0.00 in0.0 mm 0.00 in0.0 mm
05:43 AM -11.0°F-23.9°C -16.5°F-26.9°C 76% 4.0 mph NW6.4 kmh NW -- 30.55 in1034.5 mb 0.00 in0.0 mm 0.00 in0.0 mm 0.00 in0.0 mm
05:44 AM -11.0°F-23.9°C -16.5°F-26.9°C 76% 5.0 mph NW8.0 kmh NW -- 30.56 in1034.9 mb 0.00 in0.0 mm 0.00 in0.0 mm 0.00 in0.0 mm
05:45 AM -10.8°F-23.8°C -16.3°F-26.8°C 76% 5.0 mph WNW8.0 kmh WNW -- 30.55 in1034.5 mb 0.00 in0.0 mm 0.00 in0.0 mm 0.00 in0.0 mm
05:46 AM -10.8°F-23.8°C -16.3°F-26.8°C 76% 5.0 mph W8.0 kmh W -- 30.56 in1034.9 mb 0.00 in0.0 mm 0.00 in0.0 mm 0.00 in0.0 mm
05:47 AM -10.6°F-23.7°C -16.2°F-26.8°C 76% 6.0 mph W9.7 kmh W -- 30.56 in1034.9 mb 0.00 in0.0 mm 0.00 in0.0 mm 0.00 in0.0 mm
05:48 AM -10.6°F-23.7°C -16.2°F-26.8°C 76% 4.0 mph W6.4 kmh W -- 30.56 in1034.9 mb 0.00 in0.0 mm 0.00 in0.0 mm 0.00 in0.0 mm
05:49 AM -10.4°F-23.6°C -16.3°F-26.8°C 75% 6.0 mph W9.7 kmh W -- 30.56 in1034.9 mb 0.00 in0.0 mm 0.00 in0.0 mm 0.00 in0.0 mm
05:50 AM -10.4°F-23.6°C -16.3°F-26.8°C 75% 4.0 mph W6.4 kmh W -- 30.56 in1034.9 mb 0.00 in0.0 mm 0.00 in0.0 mm 0.00 in0.0 mm
05:51 AM -10.4°F-23.6°C -16.3°F-26.8°C 75% 5.0 mph W8.0 kmh W -- 30.55 in1034.5 mb 0.00 in0.0 mm 0.00 in0.0 mm 0.00 in0.0 mm
05:52 AM -10.4°F-23.6°C -16.3°F-26.8°C 75% 8.0 mph WNW12.9 kmh WNW -- 30.55 in1034.5 mb 0.00 in0.0 mm 0.00 in0.0 mm 0.00 in0.0 mm
05:53 AM -10.2°F-23.4°C -15.9°F-26.6°C 75% 5.0 mph WNW8.0 kmh WNW -- 30.55 in1034.5 mb 0.00 in0.0 mm 0.00 in0.0 mm 0.00 in0.0 mm
05:54 AM -10.2°F-23.4°C -15.9°F-26.6°C 75% 6.0 mph W9.7 kmh W -- 30.56 in1034.9 mb 0.00 in0.0 mm 0.00 in0.0 mm 0.00 in0.0 mm
05:55 AM -10.2°F-23.4°C -15.9°F-26.6°C 75% 8.0 mph W12.9 kmh W -- 30.55 in1034.5 mb 0.00 in0.0 mm 0.00 in0.0 mm 0.00 in0.0 mm
05:56 AM -10.2°F-23.4°C -15.9°F-26.6°C 75% 5.0 mph WNW8.0 kmh WNW -- 30.56 in1034.9 mb 0.00 in0.0 mm 0.00 in0.0 mm 0.00 in0.0 mm
05:57 AM -10.2°F-23.4°C -15.9°F-26.6°C 75% 6.0 mph W9.7 kmh W -- 30.56 in1034.9 mb 0.00 in0.0 mm 0.00 in0.0 mm 0.00 in0.0 mm
05:58 AM -10.2°F-23.4°C -15.9°F-26.6°C 75% 5.0 mph W8.0 kmh W -- 30.56 in1034.9 mb 0.00 in0.0 mm 0.00 in0.0 mm 0.00 in0.0 mm
06:00 AM -10.2°F-23.4°C -15.9°F-26.6°C 75% 4.0 mph WNW6.4 kmh WNW -- 30.55 in1034.5 mb 0.00 in0.0 mm 0.00 in0.0 mm 0.00 in0.0 mm
06:01 AM -10.4°F-23.6°C -16.3°F-26.8°C 75% 5.0 mph WNW8.0 kmh WNW -- 30.55 in1034.5 mb 0.00 in0.0 mm 0.00 in0.0 mm 0.00 in0.0 mm
06:02 AM -10.4°F-23.6°C -16.3°F-26.8°C 75% 4.0 mph WNW6.4 kmh WNW -- 30.55 in1034.5 mb 0.00 in0.0 mm 0.00 in0.0 mm 0.00 in0.0 mm
06:03 AM -10.4°F-23.6°C -16.3°F-26.8°C 75% 4.0 mph WSW6.4 kmh WSW -- 30.56 in1034.9 mb 0.00 in0.0 mm 0.00 in0.0 mm 0.00 in0.0 mm
06:04 AM -10.6°F-23.7°C -16.4°F-26.9°C 75% 3.0 mph W4.8 kmh W -- 30.55 in1034.5 mb 0.00 in0.0 mm 0.00 in0.0 mm 0.00 in0.0 mm
06:05 AM -10.8°F-23.8°C -16.6°F-27.0°C 75% 3.0 mph W4.8 kmh W -- 30.56 in1034.9 mb 0.00 in0.0 mm 0.00 in0.0 mm 0.00 in0.0 mm
06:06 AM -11.0°F-23.9°C -16.8°F-27.1°C 75% 4.0 mph W6.4 kmh W -- 30.55 in1034.5 mb 0.00 in0.0 mm 0.00 in0.0 mm 0.00 in0.0 mm
06:07 AM -11.0°F-23.9°C -16.8°F-27.1°C 75% 4.0 mph WNW6.4 kmh WNW -- 30.56 in1034.9 mb 0.00 in0.0 mm 0.00 in0.0 mm 0.00 in0.0 mm
06:08 AM -11.0°F-23.9°C -16.8°F-27.1°C 75% 4.0 mph NNW6.4 kmh NNW -- 30.55 in1034.5 mb 0.00 in0.0 mm 0.00 in0.0 mm 0.00 in0.0 mm
06:09 AM -11.2°F-24.0°C -16.9°F-27.2°C 75% 4.0 mph WNW6.4 kmh WNW -- 30.56 in1034.9 mb 0.00 in0.0 mm 0.00 in0.0 mm 0.00 in0.0 mm
06:10 AM -11.2°F-24.0°C -16.9°F-27.2°C 75% 4.0 mph WNW6.4 kmh WNW -- 30.55 in1034.5 mb 0.00 in0.0 mm 0.00 in0.0 mm 0.00 in0.0 mm
06:11 AM -11.2°F-24.0°C -16.9°F-27.2°C 75% 3.0 mph WNW4.8 kmh WNW -- 30.56 in1034.9 mb 0.00 in0.0 mm 0.00 in0.0 mm 0.00 in0.0 mm
06:12 AM -11.2°F-24.0°C -16.9°F-27.2°C 75% 3.0 mph WNW4.8 kmh WNW -- 30.55 in1034.5 mb 0.00 in0.0 mm 0.00 in0.0 mm 0.00 in0.0 mm
06:13 AM -11.3°F-24.1°C -17.1°F-27.3°C 75% 5.0 mph W8.0 kmh W -- 30.56 in1034.9 mb 0.00 in0.0 mm 0.00 in0.0 mm 0.00 in0.0 mm
06:14 AM -11.3°F-24.1°C -17.1°F-27.3°C 75% 4.0 mph W6.4 kmh W -- 30.55 in1034.5 mb 0.00 in0.0 mm 0.00 in0.0 mm 0.00 in0.0 mm
06:15 AM -11.3°F-24.1°C -17.1°F-27.3°C 75% 4.0 mph W6.4 kmh W -- 30.56 in1034.9 mb 0.00 in0.0 mm 0.00 in0.0 mm 0.00 in0.0 mm
06:16 AM -11.3°F-24.1°C -17.1°F-27.3°C 75% 4.0 mph W6.4 kmh W -- 30.55 in1034.5 mb 0.00 in0.0 mm 0.00 in0.0 mm 0.00 in0.0 mm
06:17 AM -11.3°F-24.1°C -17.1°F-27.3°C 75% 4.0 mph W6.4 kmh W -- 30.56 in1034.9 mb 0.00 in0.0 mm 0.00 in0.0 mm 0.00 in0.0 mm
06:18 AM -11.3°F-24.1°C -17.1°F-27.3°C 75% 5.0 mph NW8.0 kmh NW -- 30.55 in1034.5 mb 0.00 in0.0 mm 0.00 in0.0 mm 0.00 in0.0 mm
06:19 AM -11.3°F-24.1°C -17.1°F-27.3°C 75% 4.0 mph W6.4 kmh W -- 30.56 in1034.9 mb 0.00 in0.0 mm 0.00 in0.0 mm 0.00 in0.0 mm
06:20 AM -11.2°F-24.0°C -16.9°F-27.2°C 75% 7.0 mph W11.3 kmh W -- 30.55 in1034.5 mb 0.00 in0.0 mm 0.00 in0.0 mm 0.00 in0.0 mm
06:21 AM -11.2°F-24.0°C -16.9°F-27.2°C 75% 6.0 mph W9.7 kmh W -- 30.55 in1034.5 mb 0.00 in0.0 mm 0.00 in0.0 mm 0.00 in0.0 mm
06:22 AM -11.2°F-24.0°C -16.7°F-27.1°C 76% 6.0 mph W9.7 kmh W -- 30.55 in1034.5 mb 0.00 in0.0 mm 0.00 in0.0 mm 0.00 in0.0 mm
06:23 AM -11.0°F-23.9°C -16.8°F-27.1°C 75% 5.0 mph W8.0 kmh W -- 30.55 in1034.5 mb 0.00 in0.0 mm 0.00 in0.0 mm 0.00 in0.0 mm
06:24 AM -11.0°F-23.9°C -16.8°F-27.1°C 75% 7.0 mph W11.3 kmh W -- 30.56 in1034.9 mb 0.00 in0.0 mm 0.00 in0.0 mm 0.00 in0.0 mm
06:25 AM -11.0°F-23.9°C -16.8°F-27.1°C 75% 5.0 mph WNW8.0 kmh WNW -- 30.56 in1034.9 mb 0.00 in0.0 mm 0.00 in0.0 mm 0.00 in0.0 mm
06:26 AM -11.0°F-23.9°C -16.8°F-27.1°C 75% 6.0 mph WNW9.7 kmh WNW -- 30.56 in1034.9 mb 0.00 in0.0 mm 0.00 in0.0 mm 0.00 in0.0 mm
06:27 AM -11.0°F-23.9°C -16.8°F-27.1°C 75% 4.0 mph WNW6.4 kmh WNW -- 30.56 in1034.9 mb 0.00 in0.0 mm 0.00 in0.0 mm 0.00 in0.0 mm
06:28 AM -11.0°F-23.9°C -16.8°F-27.1°C 75% 7.0 mph WSW11.3 kmh WSW -- 30.56 in1034.9 mb 0.00 in0.0 mm 0.00 in0.0 mm 0.00 in0.0 mm
06:29 AM -11.0°F-23.9°C -16.8°F-27.1°C 75% 3.0 mph W4.8 kmh W -- 30.56 in1034.9 mb 0.00 in0.0 mm 0.00 in0.0 mm 0.00 in0.0 mm
06:30 AM -11.0°F-23.9°C -16.8°F-27.1°C 75% 5.0 mph W8.0 kmh W -- 30.56 in1034.9 mb 0.00 in0.0 mm 0.00 in0.0 mm 0.00 in0.0 mm
06:31 AM -11.0°F-23.9°C -16.8°F-27.1°C 75% 6.0 mph W9.7 kmh W -- 30.56 in1034.9 mb 0.00 in0.0 mm 0.00 in0.0 mm 0.00 in0.0 mm
06:32 AM -11.0°F-23.9°C -16.8°F-27.1°C 75% 4.0 mph WNW6.4 kmh WNW -- 30.57 in1035.2 mb 0.00 in0.0 mm 0.00 in0.0 mm 0.00 in0.0 mm
06:33 AM -11.0°F-23.9°C -16.8°F-27.1°C 75% 7.0 mph W11.3 kmh W -- 30.56 in1034.9 mb 0.00 in0.0 mm 0.00 in0.0 mm 0.00 in0.0 mm
06:34 AM -11.0°F-23.9°C -16.8°F-27.1°C 75% 5.0 mph W8.0 kmh W -- 30.56 in1034.9 mb 0.00 in0.0 mm 0.00 in0.0 mm 0.00 in0.0 mm
06:35 AM -11.0°F-23.9°C -16.8°F-27.1°C 75% 4.0 mph WNW6.4 kmh WNW -- 30.56 in1034.9 mb 0.00 in0.0 mm 0.00 in0.0 mm 0.00 in0.0 mm
06:36 AM -11.0°F-23.9°C -16.8°F-27.1°C 75% 7.0 mph WNW11.3 kmh WNW -- 30.56 in1034.9 mb 0.00 in0.0 mm 0.00 in0.0 mm 0.00 in0.0 mm
06:37 AM -11.0°F-23.9°C -16.8°F-27.1°C 75% 4.0 mph WNW6.4 kmh WNW -- 30.56 in1034.9 mb 0.00 in0.0 mm 0.00 in0.0 mm 0.00 in0.0 mm
06:38 AM -11.0°F-23.9°C -16.8°F-27.1°C 75% 4.0 mph WSW6.4 kmh WSW -- 30.56 in1034.9 mb 0.00 in0.0 mm 0.00 in0.0 mm 0.00 in0.0 mm
06:39 AM -11.2°F-24.0°C -16.9°F-27.2°C 75% 4.0 mph W6.4 kmh W -- 30.56 in1034.9 mb 0.00 in0.0 mm 0.00 in0.0 mm 0.00 in0.0 mm
06:40 AM -11.2°F-24.0°C -16.9°F-27.2°C 75% 4.0 mph WNW6.4 kmh WNW -- 30.56 in1034.9 mb 0.00 in0.0 mm 0.00 in0.0 mm 0.00 in0.0 mm
06:41 AM -11.3°F-24.1°C -17.1°F-27.3°C 75% 4.0 mph WNW6.4 kmh WNW -- 30.56 in1034.9 mb 0.00 in0.0 mm 0.00 in0.0 mm 0.00 in0.0 mm
06:42 AM -11.6°F-24.2°C -17.3°F-27.4°C 75% 3.0 mph WNW4.8 kmh WNW -- 30.56 in1034.9 mb 0.00 in0.0 mm 0.00 in0.0 mm 0.00 in0.0 mm
06:43 AM -11.6°F-24.2°C -17.3°F-27.4°C 75% 4.0 mph NW6.4 kmh NW -- 30.56 in1034.9 mb 0.00 in0.0 mm 0.00 in0.0 mm 0.00 in0.0 mm
06:44 AM -11.6°F-24.2°C -17.3°F-27.4°C 75% 5.0 mph WNW8.0 kmh WNW -- 30.56 in1034.9 mb 0.00 in0.0 mm 0.00 in0.0 mm 0.00 in0.0 mm
06:45 AM -11.6°F-24.2°C -17.3°F-27.4°C 75% 3.0 mph WSW4.8 kmh WSW -- 30.56 in1034.9 mb 0.00 in0.0 mm 0.00 in0.0 mm 0.00 in0.0 mm
06:46 AM -11.6°F-24.2°C -17.3°F-27.4°C 75% 3.0 mph WNW4.8 kmh WNW -- 30.56 in1034.9 mb 0.00 in0.0 mm 0.00 in0.0 mm 0.00 in0.0 mm
06:47 AM -11.6°F-24.2°C -17.3°F-27.4°C 75% 4.0 mph WNW6.4 kmh WNW -- 30.57 in1035.2 mb 0.00 in0.0 mm 0.00 in0.0 mm 0.00 in0.0 mm
06:48 AM -11.8°F-24.3°C -17.5°F-27.5°C 75% 3.0 mph WNW4.8 kmh WNW -- 30.56 in1034.9 mb 0.00 in0.0 mm 0.00 in0.0 mm 0.00 in0.0 mm
06:49 AM -12.1°F-24.5°C -17.8°F-27.7°C 75% 3.0 mph WNW4.8 kmh WNW -- 30.56 in1034.9 mb 0.00 in0.0 mm 0.00 in0.0 mm 0.00 in0.0 mm
06:51 AM -12.5°F-24.7°C -18.2°F-27.9°C 75% 3.0 mph NW4.8 kmh NW -- 30.56 in1034.9 mb 0.00 in0.0 mm 0.00 in0.0 mm 0.00 in0.0 mm
06:53 AM -12.7°F-24.8°C -18.3°F-27.9°C 75% 2.0 mph WNW3.2 kmh WNW -- 30.56 in1034.9 mb 0.00 in0.0 mm 0.00 in0.0 mm 0.00 in0.0 mm
06:54 AM -12.7°F-24.8°C -18.3°F-27.9°C 75% 3.0 mph WNW4.8 kmh WNW -- 30.56 in1034.9 mb 0.00 in0.0 mm 0.00 in0.0 mm 0.00 in0.0 mm
06:55 AM -12.7°F-24.8°C -18.3°F-27.9°C 75% 2.0 mph W3.2 kmh W -- 30.56 in1034.9 mb 0.00 in0.0 mm 0.00 in0.0 mm 0.00 in0.0 mm
06:56 AM -12.7°F-24.8°C -18.3°F-27.9°C 75% 4.0 mph W6.4 kmh W -- 30.56 in1034.9 mb 0.00 in0.0 mm 0.00 in0.0 mm 0.00 in0.0 mm
06:57 AM -12.7°F-24.8°C -18.1°F-27.8°C 76% 5.0 mph W8.0 kmh W -- 30.56 in1034.9 mb 0.00 in0.0 mm 0.00 in0.0 mm 0.00 in0.0 mm
06:58 AM -12.7°F-24.8°C -18.1°F-27.8°C 76% 2.0 mph WSW3.2 kmh WSW -- 30.56 in1034.9 mb 0.00 in0.0 mm 0.00 in0.0 mm 0.00 in0.0 mm
06:59 AM -12.7°F-24.8°C -18.1°F-27.8°C 76% 5.0 mph WSW8.0 kmh WSW -- 30.56 in1034.9 mb 0.00 in0.0 mm 0.00 in0.0 mm 0.00 in0.0 mm
07:00 AM -12.7°F-24.8°C -18.1°F-27.8°C 76% 5.0 mph NW8.0 kmh NW -- 30.56 in1034.9 mb 0.00 in0.0 mm 0.00 in0.0 mm 0.00 in0.0 mm
07:01 AM -12.7°F-24.8°C -18.1°F-27.8°C 76% 7.0 mph W11.3 kmh W -- 30.56 in1034.9 mb 0.00 in0.0 mm 0.00 in0.0 mm 0.00 in0.0 mm
07:02 AM -12.7°F-24.8°C -18.1°F-27.8°C 76% 6.0 mph WNW9.7 kmh WNW -- 30.56 in1034.9 mb 0.00 in0.0 mm 0.00 in0.0 mm 0.00 in0.0 mm
07:03 AM -12.5°F-24.7°C -17.9°F-27.7°C 76% 5.0 mph NW8.0 kmh NW -- 30.56 in1034.9 mb 0.00 in0.0 mm 0.00 in0.0 mm 0.00 in0.0 mm
07:04 AM -12.5°F-24.7°C -17.9°F-27.7°C 76% 3.0 mph W4.8 kmh W -- 30.56 in1034.9 mb 0.00 in0.0 mm 0.00 in0.0 mm 0.00 in0.0 mm
07:05 AM -12.5°F-24.7°C -17.9°F-27.7°C 76% 4.0 mph W6.4 kmh W -- 30.56 in1034.9 mb 0.00 in0.0 mm 0.00 in0.0 mm 0.00 in0.0 mm
07:06 AM -12.5°F-24.7°C -17.9°F-27.7°C 76% 3.0 mph W4.8 kmh W -- 30.56 in1034.9 mb 0.00 in0.0 mm 0.00 in0.0 mm 0.00 in0.0 mm
07:07 AM -12.5°F-24.7°C -17.9°F-27.7°C 76% 4.0 mph W6.4 kmh W -- 30.56 in1034.9 mb 0.00 in0.0 mm 0.00 in0.0 mm 0.00 in0.0 mm
07:08 AM -12.7°F-24.8°C -18.1°F-27.8°C 76% 3.0 mph W4.8 kmh W -- 30.56 in1034.9 mb 0.00 in0.0 mm 0.00 in0.0 mm 0.00 in0.0 mm
07:12 AM -12.7°F-24.8°C -18.1°F-27.8°C 76% 3.0 mph WNW4.8 kmh WNW -- 30.57 in1035.2 mb 0.00 in0.0 mm 0.00 in0.0 mm 0.00 in0.0 mm
07:13 AM -12.7°F-24.8°C -18.1°F-27.8°C 76% 3.0 mph W4.8 kmh W -- 30.57 in1035.2 mb 0.00 in0.0 mm 0.00 in0.0 mm 0.00 in0.0 mm
07:14 AM -12.7°F-24.8°C -18.1°F-27.8°C 76% 3.0 mph WNW4.8 kmh WNW -- 30.57 in1035.2 mb 0.00 in0.0 mm 0.00 in0.0 mm 0.00 in0.0 mm
07:15 AM -12.7°F-24.8°C -18.1°F-27.8°C 76% 3.0 mph W4.8 kmh W -- 30.57 in1035.2 mb 0.00 in0.0 mm 0.00 in0.0 mm 0.00 in0.0 mm
07:16 AM -12.7°F-24.8°C -18.1°F-27.8°C 76% 4.0 mph W6.4 kmh W -- 30.57 in1035.2 mb 0.00 in0.0 mm 0.00 in0.0 mm 0.00 in0.0 mm
07:17 AM -12.7°F-24.8°C -18.1°F-27.8°C 76% 5.0 mph W8.0 kmh W -- 30.57 in1035.2 mb 0.00 in0.0 mm 0.00 in0.0 mm 0.00 in0.0 mm
07:18 AM -12.7°F-24.8°C -18.1°F-27.8°C 76% 4.0 mph W6.4 kmh W -- 30.57 in1035.2 mb 0.00 in0.0 mm 0.00 in0.0 mm 0.00 in0.0 mm
07:19 AM -12.7°F-24.8°C -18.1°F-27.8°C 76% 3.0 mph W4.8 kmh W -- 30.57 in1035.2 mb 0.00 in0.0 mm 0.00 in0.0 mm 0.00 in0.0 mm
07:20 AM -12.7°F-24.8°C -18.1°F-27.8°C 76% 4.0 mph W6.4 kmh W -- 30.57 in1035.2 mb 0.00 in0.0 mm 0.00 in0.0 mm 0.00 in0.0 mm
07:21 AM -12.7°F-24.8°C -18.1°F-27.8°C 76% 5.0 mph W8.0 kmh W -- 30.57 in1035.2 mb 0.00 in0.0 mm 0.00 in0.0 mm 0.00 in0.0 mm
07:22 AM -12.7°F-24.8°C -18.1°F-27.8°C 76% 4.0 mph W6.4 kmh W -- 30.57 in1035.2 mb 0.00 in0.0 mm 0.00 in0.0 mm 0.00 in0.0 mm
07:23 AM -12.7°F-24.8°C -18.1°F-27.8°C 76% 4.0 mph W6.4 kmh W -- 30.56 in1034.9 mb 0.00 in0.0 mm 0.00 in0.0 mm 0.00 in0.0 mm
07:24 AM -12.7°F-24.8°C -18.1°F-27.8°C 76% 6.0 mph W9.7 kmh W -- 30.57 in1035.2 mb 0.00 in0.0 mm 0.00 in0.0 mm 0.00 in0.0 mm
07:25 AM -12.7°F-24.8°C -18.1°F-27.8°C 76% 4.0 mph W6.4 kmh W -- 30.57 in1035.2 mb 0.00 in0.0 mm 0.00 in0.0 mm 0.00 in0.0 mm
07:26 AM -12.7°F-24.8°C -18.1°F-27.8°C 76% 4.0 mph WNW6.4 kmh WNW -- 30.57 in1035.2 mb 0.00 in0.0 mm 0.00 in0.0 mm 0.00 in0.0 mm
07:27 AM -12.7°F-24.8°C -18.1°F-27.8°C 76% 4.0 mph WNW6.4 kmh WNW -- 30.56 in1034.9 mb 0.00 in0.0 mm 0.00 in0.0 mm 0.00 in0.0 mm
07:28 AM -12.9°F-24.9°C -18.3°F-27.9°C 76% 4.0 mph W6.4 kmh W -- 30.56 in1034.9 mb 0.00 in0.0 mm 0.00 in0.0 mm 0.00 in0.0 mm
07:30 AM -13.1°F-25.1°C -18.6°F-28.1°C 76% 3.0 mph W4.8 kmh W -- 30.56 in1034.9 mb 0.00 in0.0 mm 0.00 in0.0 mm 0.00 in0.0 mm
07:31 AM -13.1°F-25.1°C -18.6°F-28.1°C 76% 4.0 mph W6.4 kmh W -- 30.55 in1034.5 mb 0.00 in0.0 mm 0.00 in0.0 mm 0.00 in0.0 mm
07:32 AM -13.3°F-25.2°C -18.8°F-28.2°C 76% 4.0 mph W6.4 kmh W -- 30.55 in1034.5 mb 0.00 in0.0 mm 0.00 in0.0 mm 0.00 in0.0 mm
07:33 AM -13.3°F-25.2°C -18.8°F-28.2°C 76% 5.0 mph W8.0 kmh W -- 30.56 in1034.9 mb 0.00 in0.0 mm 0.00 in0.0 mm 0.00 in0.0 mm
07:34 AM -13.3°F-25.2°C -18.8°F-28.2°C 76% 4.0 mph W6.4 kmh W -- 30.56 in1034.9 mb 0.00 in0.0 mm 0.00 in0.0 mm 0.00 in0.0 mm
07:35 AM -13.5°F-25.3°C -19.0°F-28.3°C 76% 4.0 mph W6.4 kmh W -- 30.55 in1034.5 mb 0.00 in0.0 mm 0.00 in0.0 mm 0.00 in0.0 mm
07:36 AM -13.5°F-25.3°C -19.0°F-28.3°C 76% 4.0 mph W6.4 kmh W -- 30.56 in1034.9 mb 0.00 in0.0 mm 0.00 in0.0 mm 0.00 in0.0 mm
07:37 AM -13.5°F-25.3°C -19.0°F-28.3°C 76% 4.0 mph W6.4 kmh W -- 30.55 in1034.5 mb 0.00 in0.0 mm 0.00 in0.0 mm 0.00 in0.0 mm
07:39 AM -13.6°F-25.3°C -19.0°F-28.3°C 76% 5.0 mph W8.0 kmh W -- 30.55 in1034.5 mb 0.00 in0.0 mm 0.00 in0.0 mm 0.00 in0.0 mm
07:41 AM -13.6°F-25.3°C -18.5°F-28.1°C 78% 5.0 mph W8.0 kmh W -- 30.55 in1034.5 mb 0.00 in0.0 mm 0.00 in0.0 mm 0.00 in0.0 mm
07:42 AM -13.6°F-25.3°C -18.5°F-28.1°C 78% 4.0 mph W6.4 kmh W -- 30.55 in1034.5 mb 0.00 in0.0 mm 0.00 in0.0 mm 0.00 in0.0 mm
07:43 AM -13.6°F-25.3°C -18.5°F-28.1°C 78% 5.0 mph W8.0 kmh W -- 30.55 in1034.5 mb 0.00 in0.0 mm 0.00 in0.0 mm 0.00 in0.0 mm
07:46 AM -13.6°F-25.3°C -18.5°F-28.1°C 78% 4.0 mph W6.4 kmh W -- 30.55 in1034.5 mb 0.00 in0.0 mm 0.00 in0.0 mm 0.00 in0.0 mm
07:47 AM -13.6°F-25.3°C -18.5°F-28.1°C 78% 5.0 mph W8.0 kmh W -- 30.55 in1034.5 mb 0.00 in0.0 mm 0.00 in0.0 mm 0.00 in0.0 mm
07:48 AM -13.6°F-25.3°C -18.5°F-28.1°C 78% 6.0 mph W9.7 kmh W -- 30.55 in1034.5 mb 0.00 in0.0 mm 0.00 in0.0 mm 0.00 in0.0 mm
07:49 AM -13.8°F-25.4°C -18.6°F-28.1°C 78% 6.0 mph W9.7 kmh W -- 30.55 in1034.5 mb 0.00 in0.0 mm 0.00 in0.0 mm 0.00 in0.0 mm
07:50 AM -14.1°F-25.6°C -19.0°F-28.3°C 78% 5.0 mph W8.0 kmh W -- 30.55 in1034.5 mb 0.00 in0.0 mm 0.00 in0.0 mm 0.00 in0.0 mm
07:51 AM -14.3°F-25.7°C -19.2°F-28.4°C 78% 5.0 mph W8.0 kmh W -- 30.55 in1034.5 mb 0.00 in0.0 mm 0.00 in0.0 mm 0.00 in0.0 mm
07:53 AM -14.3°F-25.7°C -19.2°F-28.4°C 78% 4.0 mph W6.4 kmh W -- 30.55 in1034.5 mb 0.00 in0.0 mm 0.00 in0.0 mm 0.00 in0.0 mm
07:54 AM -14.6°F-25.9°C -19.5°F-28.6°C 78% 4.0 mph W6.4 kmh W -- 30.55 in1034.5 mb 0.00 in0.0 mm 0.00 in0.0 mm 0.00 in0.0 mm
07:55 AM -14.8°F-26.0°C -19.7°F-28.7°C 78% 4.0 mph W6.4 kmh W -- 30.55 in1034.5 mb 0.00 in0.0 mm 0.00 in0.0 mm 0.00 in0.0 mm
07:56 AM -14.8°F-26.0°C -19.7°F-28.7°C 78% 5.0 mph W8.0 kmh W -- 30.55 in1034.5 mb 0.00 in0.0 mm 0.00 in0.0 mm 0.00 in0.0 mm
07:57 AM -15.0°F-26.1°C -19.9°F-28.8°C 78% 5.0 mph W8.0 kmh W -- 30.55 in1034.5 mb 0.00 in0.0 mm 0.00 in0.0 mm 0.00 in0.0 mm
07:59 AM -15.0°F-26.1°C -19.9°F-28.8°C 78% 4.0 mph W6.4 kmh W -- 30.55 in1034.5 mb 0.00 in0.0 mm 0.00 in0.0 mm 0.00 in0.0 mm
08:01 AM -15.0°F-26.1°C -19.9°F-28.8°C 78% 3.0 mph W4.8 kmh W -- 30.55 in1034.5 mb 0.00 in0.0 mm 0.00 in0.0 mm 0.00 in0.0 mm
08:02 AM -15.1°F-26.2°C -20.0°F-28.9°C 78% 4.0 mph W6.4 kmh W -- 30.55 in1034.5 mb 0.00 in0.0 mm 0.00 in0.0 mm 0.00 in0.0 mm
08:04 AM -15.2°F-26.2°C -20.0°F-28.9°C 78% 3.0 mph W4.8 kmh W -- 30.55 in1034.5 mb 0.00 in0.0 mm 0.00 in0.0 mm 0.00 in0.0 mm
08:06 AM -15.4°F-26.3°C -20.2°F-29.0°C 78% 4.0 mph W6.4 kmh W -- 30.55 in1034.5 mb 0.00 in0.0 mm 0.00 in0.0 mm 0.00 in0.0 mm
08:07 AM -15.4°F-26.3°C -20.2°F-29.0°C 78% 3.0 mph W4.8 kmh W -- 30.55 in1034.5 mb 0.00 in0.0 mm 0.00 in0.0 mm 0.00 in0.0 mm
08:08 AM -15.4°F-26.3°C -20.2°F-29.0°C 78% 4.0 mph W6.4 kmh W -- 30.55 in1034.5 mb 0.00 in0.0 mm 0.00 in0.0 mm 0.00 in0.0 mm
08:10 AM -15.4°F-26.3°C -20.0°F-28.9°C 79% 4.0 mph W6.4 kmh W -- 30.55 in1034.5 mb 0.00 in0.0 mm 0.00 in0.0 mm 0.00 in0.0 mm
08:11 AM -15.4°F-26.3°C -20.0°F-28.9°C 79% 3.0 mph W4.8 kmh W -- 30.54 in1034.2 mb 0.00 in0.0 mm 0.00 in0.0 mm 0.00 in0.0 mm
08:12 AM -15.4°F-26.3°C -20.0°F-28.9°C 79% 3.0 mph W4.8 kmh W -- 30.55 in1034.5 mb 0.00 in0.0 mm 0.00 in0.0 mm 0.00 in0.0 mm
08:13 AM -15.4°F-26.3°C -20.0°F-28.9°C 79% 3.0 mph W4.8 kmh W -- 30.54 in1034.2 mb 0.00 in0.0 mm 0.00 in0.0 mm 0.00 in0.0 mm
08:14 AM -15.4°F-26.3°C -20.0°F-28.9°C 79% 3.0 mph W4.8 kmh W -- 30.55 in1034.5 mb 0.00 in0.0 mm 0.00 in0.0 mm 0.00 in0.0 mm
08:15 AM -15.4°F-26.3°C -20.0°F-28.9°C 79% 3.0 mph WNW4.8 kmh WNW -- 30.55 in1034.5 mb 0.00 in0.0 mm 0.00 in0.0 mm 0.00 in0.0 mm
08:16 AM -15.4°F-26.3°C -20.0°F-28.9°C 79% 3.0 mph W4.8 kmh W -- 30.55 in1034.5 mb 0.00 in0.0 mm 0.00 in0.0 mm 0.00 in0.0 mm
08:17 AM -15.5°F-26.4°C -20.1°F-28.9°C 79% 2.0 mph W3.2 kmh W -- 30.55 in1034.5 mb 0.00 in0.0 mm 0.00 in0.0 mm 0.00 in0.0 mm
08:18 AM -15.4°F-26.3°C -19.7°F-28.7°C 80% 2.0 mph W3.2 kmh W -- 30.55 in1034.5 mb 0.00 in0.0 mm 0.00 in0.0 mm 0.00 in0.0 mm
08:19 AM -15.4°F-26.3°C -19.7°F-28.7°C 80% 1.0 mph W1.6 kmh W -- 30.54 in1034.2 mb 0.00 in0.0 mm 0.00 in0.0 mm 0.00 in0.0 mm
08:20 AM -15.4°F-26.3°C -19.7°F-28.7°C 80% 1.0 mph W1.6 kmh W -- 30.55 in1034.5 mb 0.00 in0.0 mm 0.00 in0.0 mm 0.00 in0.0 mm
08:22 AM -15.4°F-26.3°C -19.7°F-28.7°C 80% 2.0 mph W3.2 kmh W -- 30.55 in1034.5 mb 0.00 in0.0 mm 0.00 in0.0 mm 0.00 in0.0 mm
08:25 AM -15.2°F-26.2°C -19.3°F-28.5°C 81% 2.0 mph W3.2 kmh W -- 30.55 in1034.5 mb 0.00 in0.0 mm 0.00 in0.0 mm 0.00 in0.0 mm
08:26 AM -15.2°F-26.2°C -19.3°F-28.5°C 81% 4.0 mph W6.4 kmh W -- 30.55 in1034.5 mb 0.00 in0.0 mm 0.00 in0.0 mm 0.00 in0.0 mm
08:27 AM -15.1°F-26.2°C -19.3°F-28.5°C 81% 4.0 mph W6.4 kmh W -- 30.54 in1034.2 mb 0.00 in0.0 mm 0.00 in0.0 mm 0.00 in0.0 mm
08:28 AM -15.0°F-26.1°C -19.1°F-28.4°C 81% 4.0 mph W6.4 kmh W -- 30.54 in1034.2 mb 0.00 in0.0 mm 0.00 in0.0 mm 0.00 in0.0 mm
08:29 AM -14.8°F-26.0°C -18.9°F-28.3°C 81% 4.0 mph W6.4 kmh W -- 30.55 in1034.5 mb 0.00 in0.0 mm 0.00 in0.0 mm 0.00 in0.0 mm
08:30 AM -14.8°F-26.0°C -18.9°F-28.3°C 81% 3.0 mph W4.8 kmh W -- 30.55 in1034.5 mb 0.00 in0.0 mm 0.00 in0.0 mm 0.00 in0.0 mm
08:31 AM -14.6°F-25.9°C -18.8°F-28.2°C 81% 4.0 mph W6.4 kmh W -- 30.55 in1034.5 mb 0.00 in0.0 mm 0.00 in0.0 mm 0.00 in0.0 mm
08:33 AM -14.3°F-25.7°C -18.4°F-28.0°C 81% 4.0 mph W6.4 kmh W -- 30.55 in1034.5 mb 0.00 in0.0 mm 0.00 in0.0 mm 0.00 in0.0 mm
08:34 AM -14.3°F-25.7°C -18.7°F-28.2°C 80% 4.0 mph W6.4 kmh W -- 30.54 in1034.2 mb 0.00 in0.0 mm 0.00 in0.0 mm 0.00 in0.0 mm
08:35 AM -14.3°F-25.7°C -18.7°F-28.2°C 80% 4.0 mph W6.4 kmh W -- 30.55 in1034.5 mb 0.00 in0.0 mm 0.00 in0.0 mm 0.00 in0.0 mm
08:36 AM -14.3°F-25.7°C -18.7°F-28.2°C 80% 4.0 mph W6.4 kmh W -- 30.54 in1034.2 mb 0.00 in0.0 mm 0.00 in0.0 mm 0.00 in0.0 mm
08:37 AM -14.3°F-25.7°C -18.9°F-28.3°C 79% 4.0 mph WSW6.4 kmh WSW -- 30.55 in1034.5 mb 0.00 in0.0 mm 0.00 in0.0 mm 0.00 in0.0 mm
08:38 AM -14.3°F-25.7°C -19.2°F-28.4°C 78% 4.0 mph W6.4 kmh W -- 30.54 in1034.2 mb 0.00 in0.0 mm 0.00 in0.0 mm 0.00 in0.0 mm
08:39 AM -14.6°F-25.9°C -19.5°F-28.6°C 78% 4.0 mph WSW6.4 kmh WSW -- 30.55 in1034.5 mb 0.00 in0.0 mm 0.00 in0.0 mm 0.00 in0.0 mm
08:40 AM -14.6°F-25.9°C -19.5°F-28.6°C 78% 4.0 mph W6.4 kmh W -- 30.54 in1034.2 mb 0.00 in0.0 mm 0.00 in0.0 mm 0.00 in0.0 mm
08:41 AM -14.6°F-25.9°C -19.5°F-28.6°C 78% 4.0 mph WSW6.4 kmh WSW -- 30.55 in1034.5 mb 0.00 in0.0 mm 0.00 in0.0 mm 0.00 in0.0 mm
08:42 AM -14.6°F-25.9°C -19.5°F-28.6°C 78% 4.0 mph W6.4 kmh W -- 30.54 in1034.2 mb 0.00 in0.0 mm 0.00 in0.0 mm 0.00 in0.0 mm
08:43 AM -14.6°F-25.9°C -19.5°F-28.6°C 78% 4.0 mph W6.4 kmh W -- 30.55 in1034.5 mb 0.00 in0.0 mm 0.00 in0.0 mm 0.00 in0.0 mm
08:44 AM -14.3°F-25.7°C -19.2°F-28.4°C 78% 4.0 mph W6.4 kmh W -- 30.54 in1034.2 mb 0.00 in0.0 mm 0.00 in0.0 mm 0.00 in0.0 mm
08:45 AM -14.3°F-25.7°C -19.2°F-28.4°C 78% 5.0 mph W8.0 kmh W -- 30.55 in1034.5 mb 0.00 in0.0 mm 0.00 in0.0 mm 0.00 in0.0 mm
08:46 AM -14.3°F-25.7°C -19.2°F-28.4°C 78% 5.0 mph W8.0 kmh W -- 30.54 in1034.2 mb 0.00 in0.0 mm 0.00 in0.0 mm 0.00 in0.0 mm
08:47 AM -14.1°F-25.6°C -19.0°F-28.3°C 78% 4.0 mph W6.4 kmh W -- 30.55 in1034.5 mb 0.00 in0.0 mm 0.00 in0.0 mm 0.00 in0.0 mm
08:48 AM -14.1°F-25.6°C -19.0°F-28.3°C 78% 5.0 mph W8.0 kmh W -- 30.54 in1034.2 mb 0.00 in0.0 mm 0.00 in0.0 mm 0.00 in0.0 mm
08:49 AM -13.8°F-25.4°C -18.6°F-28.1°C 78% 4.0 mph W6.4 kmh W -- 30.55 in1034.5 mb 0.00 in0.0 mm 0.00 in0.0 mm 0.00 in0.0 mm
08:50 AM -13.8°F-25.4°C -18.6°F-28.1°C 78% 5.0 mph W8.0 kmh W -- 30.54 in1034.2 mb 0.00 in0.0 mm 0.00 in0.0 mm 0.00 in0.0 mm
08:51 AM -13.6°F-25.3°C -18.5°F-28.1°C 78% 4.0 mph W6.4 kmh W -- 30.55 in1034.5 mb 0.00 in0.0 mm 0.00 in0.0 mm 0.00 in0.0 mm
08:52 AM -13.5°F-25.3°C -18.5°F-28.1°C 78% 5.0 mph W8.0 kmh W -- 30.54 in1034.2 mb 0.00 in0.0 mm 0.00 in0.0 mm 0.00 in0.0 mm
08:53 AM -13.5°F-25.3°C -18.5°F-28.1°C 78% 4.0 mph W6.4 kmh W -- 30.55 in1034.5 mb 0.00 in0.0 mm 0.00 in0.0 mm 0.00 in0.0 mm
08:54 AM -13.3°F-25.2°C -18.8°F-28.2°C 76% 4.0 mph W6.4 kmh W -- 30.54 in1034.2 mb 0.00 in0.0 mm 0.00 in0.0 mm 0.00 in0.0 mm
08:59 AM -13.1°F-25.1°C -18.6°F-28.1°C 76% 4.0 mph W6.4 kmh W -- 30.54 in1034.2 mb 0.00 in0.0 mm 0.00 in0.0 mm 0.00 in0.0 mm
09:00 AM -12.9°F-24.9°C -18.3°F-27.9°C 76% 4.0 mph W6.4 kmh W -- 30.54 in1034.2 mb 0.00 in0.0 mm 0.00 in0.0 mm 0.00 in0.0 mm
09:01 AM -12.9°F-24.9°C -18.5°F-28.1°C 75% 3.0 mph W4.8 kmh W -- 30.54 in1034.2 mb 0.00 in0.0 mm 0.00 in0.0 mm 0.00 in0.0 mm
09:03 AM -13.1°F-25.1°C -18.9°F-28.3°C 75% 3.0 mph WSW4.8 kmh WSW -- 30.54 in1034.2 mb 0.00 in0.0 mm 0.00 in0.0 mm 0.00 in0.0 mm
09:04 AM -13.3°F-25.2°C -19.0°F-28.3°C 75% 3.0 mph WSW4.8 kmh WSW -- 30.54 in1034.2 mb 0.00 in0.0 mm 0.00 in0.0 mm 0.00 in0.0 mm
09:05 AM -13.3°F-25.2°C -19.0°F-28.3°C 75% 2.0 mph W3.2 kmh W -- 30.53 in1033.9 mb 0.00 in0.0 mm 0.00 in0.0 mm 0.00 in0.0 mm
09:06 AM -13.5°F-25.3°C -19.2°F-28.4°C 75% 2.0 mph W3.2 kmh W -- 30.54 in1034.2 mb 0.00 in0.0 mm 0.00 in0.0 mm 0.00 in0.0 mm
09:07 AM -13.6°F-25.3°C -19.2°F-28.4°C 75% 2.0 mph W3.2 kmh W -- 30.54 in1034.2 mb 0.00 in0.0 mm 0.00 in0.0 mm 0.00 in0.0 mm
09:08 AM -13.8°F-25.4°C -19.4°F-28.6°C 75% 2.0 mph WSW3.2 kmh WSW -- 30.54 in1034.2 mb 0.00 in0.0 mm 0.00 in0.0 mm 0.00 in0.0 mm
09:09 AM -13.8°F-25.4°C -19.4°F-28.6°C 75% 2.0 mph W3.2 kmh W -- 30.54 in1034.2 mb 0.00 in0.0 mm 0.00 in0.0 mm 0.00 in0.0 mm
09:11 AM -13.6°F-25.3°C -19.2°F-28.4°C 75% 1.0 mph W1.6 kmh W -- 30.54 in1034.2 mb 0.00 in0.0 mm 0.00 in0.0 mm 0.00 in0.0 mm
09:12 AM -13.6°F-25.3°C -19.2°F-28.4°C 75% Calm Calm -- 30.54 in1034.2 mb 0.00 in0.0 mm 0.00 in0.0 mm 0.00 in0.0 mm
09:13 AM -13.1°F-25.1°C -18.9°F-28.3°C 75% Calm Calm -- 30.53 in1033.9 mb 0.00 in0.0 mm 0.00 in0.0 mm 0.00 in0.0 mm
09:14 AM -12.9°F-24.9°C -18.5°F-28.1°C 75% Calm Calm -- 30.54 in1034.2 mb 0.00 in0.0 mm 0.00 in0.0 mm 0.00 in0.0 mm
09:15 AM -12.5°F-24.7°C -18.4°F-28.0°C 74% Calm Calm -- 30.54 in1034.2 mb 0.00 in0.0 mm 0.00 in0.0 mm 0.00 in0.0 mm
09:16 AM -11.6°F-24.2°C -17.8°F-27.7°C 73% Calm Calm -- 30.54 in1034.2 mb 0.00 in0.0 mm 0.00 in0.0 mm 0.00 in0.0 mm
09:17 AM -11.6°F-24.2°C -17.8°F-27.7°C 73% Calm Calm -- 30.54 in1034.2 mb 0.00 in0.0 mm 0.00 in0.0 mm 0.00 in0.0 mm
09:20 AM -11.3°F-24.1°C -17.7°F-27.6°C 73% Calm Calm -- 30.55 in1034.5 mb 0.00 in0.0 mm 0.00 in0.0 mm 0.00 in0.0 mm
09:21 AM -11.6°F-24.2°C -17.8°F-27.7°C 73% Calm Calm -- 30.53 in1033.9 mb 0.00 in0.0 mm 0.00 in0.0 mm 0.00 in0.0 mm
09:22 AM -11.6°F-24.2°C -17.8°F-27.7°C 73% Calm Calm -- 30.54 in1034.2 mb 0.00 in0.0 mm 0.00 in0.0 mm 0.00 in0.0 mm
09:23 AM -11.2°F-24.0°C -17.5°F-27.5°C 73% Calm Calm -- 30.54 in1034.2 mb 0.00 in0.0 mm 0.00 in0.0 mm 0.00 in0.0 mm
09:24 AM -10.8°F-23.8°C -17.1°F-27.3°C 73% 1.0 mph NW1.6 kmh NW -- 30.54 in1034.2 mb 0.00 in0.0 mm 0.00 in0.0 mm 0.00 in0.0 mm
09:25 AM -10.6°F-23.7°C -17.0°F-27.2°C 73% 2.0 mph NW3.2 kmh NW -- 30.54 in1034.2 mb 0.00 in0.0 mm 0.00 in0.0 mm 0.00 in0.0 mm
09:26 AM -10.4°F-23.6°C -17.3°F-27.4°C 71% 2.0 mph NW3.2 kmh NW -- 30.54 in1034.2 mb 0.00 in0.0 mm 0.00 in0.0 mm 0.00 in0.0 mm
09:27 AM -10.0°F-23.3°C -16.8°F-27.1°C 71% 2.0 mph NW3.2 kmh NW -- 30.54 in1034.2 mb 0.00 in0.0 mm 0.00 in0.0 mm 0.00 in0.0 mm
09:28 AM -9.8°F-23.2°C -16.9°F-27.2°C 70% 2.0 mph NW3.2 kmh NW -- 30.54 in1034.2 mb 0.00 in0.0 mm 0.00 in0.0 mm 0.00 in0.0 mm
09:29 AM -9.8°F-23.2°C -16.9°F-27.2°C 70% 2.0 mph WNW3.2 kmh WNW -- 30.54 in1034.2 mb 0.00 in0.0 mm 0.00 in0.0 mm 0.00 in0.0 mm
09:30 AM -9.8°F-23.2°C -16.9°F-27.2°C 70% 3.0 mph WNW4.8 kmh WNW -- 30.55 in1034.5 mb 0.00 in0.0 mm 0.00 in0.0 mm 0.00 in0.0 mm
09:31 AM -9.6°F-23.1°C -16.7°F-27.1°C 70% 4.0 mph WNW6.4 kmh WNW -- 30.54 in1034.2 mb 0.00 in0.0 mm 0.00 in0.0 mm 0.00 in0.0 mm
09:32 AM -9.6°F-23.1°C -16.5°F-26.9°C 71% 2.0 mph W3.2 kmh W -- 30.54 in1034.2 mb 0.00 in0.0 mm 0.00 in0.0 mm 0.00 in0.0 mm
09:33 AM -9.6°F-23.1°C -16.7°F-27.1°C 70% 4.0 mph W6.4 kmh W -- 30.54 in1034.2 mb 0.00 in0.0 mm 0.00 in0.0 mm 0.00 in0.0 mm
09:34 AM -9.3°F-22.9°C -16.4°F-26.9°C 70% 4.0 mph WNW6.4 kmh WNW -- 30.54 in1034.2 mb 0.00 in0.0 mm 0.00 in0.0 mm 0.00 in0.0 mm
09:35 AM -9.1°F-22.8°C -16.2°F-26.8°C 70% 3.0 mph WNW4.8 kmh WNW -- 30.54 in1034.2 mb 0.00 in0.0 mm 0.00 in0.0 mm 0.00 in0.0 mm
09:36 AM -9.1°F-22.8°C -16.2°F-26.8°C 70% 2.0 mph W3.2 kmh W -- 30.54 in1034.2 mb 0.00 in0.0 mm 0.00 in0.0 mm 0.00 in0.0 mm
09:37 AM -9.1°F-22.8°C -16.2°F-26.8°C 70% 3.0 mph W4.8 kmh W -- 30.54 in1034.2 mb 0.00 in0.0 mm 0.00 in0.0 mm 0.00 in0.0 mm
09:39 AM -9.1°F-22.8°C -16.2°F-26.8°C 70% 2.0 mph W3.2 kmh W -- 30.54 in1034.2 mb 0.00 in0.0 mm 0.00 in0.0 mm 0.00 in0.0 mm
09:41 AM -9.1°F-22.8°C -16.2°F-26.8°C 70% 3.0 mph W4.8 kmh W -- 30.54 in1034.2 mb 0.00 in0.0 mm 0.00 in0.0 mm 0.00 in0.0 mm
09:42 AM -9.0°F-22.8°C -16.2°F-26.8°C 70% 2.0 mph WNW3.2 kmh WNW -- 30.53 in1033.9 mb 0.00 in0.0 mm 0.00 in0.0 mm 0.00 in0.0 mm
09:43 AM -8.8°F-22.7°C -16.0°F-26.7°C 70% 2.0 mph WNW3.2 kmh WNW -- 30.54 in1034.2 mb 0.00 in0.0 mm 0.00 in0.0 mm 0.00 in0.0 mm
09:44 AM -8.6°F-22.6°C -15.9°F-26.6°C 70% 2.0 mph WNW3.2 kmh WNW -- 30.54 in1034.2 mb 0.00 in0.0 mm 0.00 in0.0 mm 0.00 in0.0 mm
09:45 AM -8.5°F-22.5°C -15.7°F-26.5°C 70% 2.0 mph WNW3.2 kmh WNW -- 30.54 in1034.2 mb 0.00 in0.0 mm 0.00 in0.0 mm 0.00 in0.0 mm
09:46 AM -8.5°F-22.5°C -15.7°F-26.5°C 70% 3.0 mph W4.8 kmh W -- 30.54 in1034.2 mb 0.00 in0.0 mm 0.00 in0.0 mm 0.00 in0.0 mm
09:47 AM -8.3°F-22.4°C -15.5°F-26.4°C 70% 4.0 mph WNW6.4 kmh WNW -- 30.54 in1034.2 mb 0.00 in0.0 mm 0.00 in0.0 mm 0.00 in0.0 mm
09:48 AM -8.0°F-22.2°C -15.5°F-26.4°C 69% 5.0 mph W8.0 kmh W -- 30.54 in1034.2 mb 0.00 in0.0 mm 0.00 in0.0 mm 0.00 in0.0 mm
09:49 AM -8.0°F-22.2°C -15.5°F-26.4°C 69% 4.0 mph W6.4 kmh W -- 30.53 in1033.9 mb 0.00 in0.0 mm 0.00 in0.0 mm 0.00 in0.0 mm
09:50 AM -8.0°F-22.2°C -15.5°F-26.4°C 69% 4.0 mph WNW6.4 kmh WNW -- 30.54 in1034.2 mb 0.00 in0.0 mm 0.00 in0.0 mm 0.00 in0.0 mm
09:51 AM -8.0°F-22.2°C -15.8°F-26.6°C 68% 2.0 mph W3.2 kmh W -- 30.53 in1033.9 mb 0.00 in0.0 mm 0.00 in0.0 mm 0.00 in0.0 mm
09:52 AM -8.0°F-22.2°C -15.8°F-26.6°C 68% 4.0 mph W6.4 kmh W -- 30.54 in1034.2 mb 0.00 in0.0 mm 0.00 in0.0 mm 0.00 in0.0 mm
09:53 AM -7.5°F-21.9°C -15.2°F-26.2°C 68% 4.0 mph NW6.4 kmh NW -- 30.53 in1033.9 mb 0.00 in0.0 mm 0.00 in0.0 mm 0.00 in0.0 mm
09:54 AM -7.5°F-21.9°C -15.2°F-26.2°C 68% 3.0 mph W4.8 kmh W -- 30.54 in1034.2 mb 0.00 in0.0 mm 0.00 in0.0 mm 0.00 in0.0 mm
09:55 AM -7.5°F-21.9°C -15.2°F-26.2°C 68% 2.0 mph NW3.2 kmh NW -- 30.54 in1034.2 mb 0.00 in0.0 mm 0.00 in0.0 mm 0.00 in0.0 mm
09:56 AM -7.5°F-21.9°C -15.2°F-26.2°C 68% 2.0 mph W3.2 kmh W -- 30.54 in1034.2 mb 0.00 in0.0 mm 0.00 in0.0 mm 0.00 in0.0 mm
09:57 AM -7.5°F-21.9°C -15.2°F-26.2°C 68% 3.0 mph W4.8 kmh W -- 30.54 in1034.2 mb 0.00 in0.0 mm 0.00 in0.0 mm 0.00 in0.0 mm
09:58 AM -7.5°F-21.9°C -15.2°F-26.2°C 68% 3.0 mph WNW4.8 kmh WNW -- 30.54 in1034.2 mb 0.00 in0.0 mm 0.00 in0.0 mm 0.00 in0.0 mm
09:59 AM -7.5°F-21.9°C -15.2°F-26.2°C 68% 2.0 mph WNW3.2 kmh WNW -- 30.54 in1034.2 mb 0.00 in0.0 mm 0.00 in0.0 mm 0.00 in0.0 mm
10:00 AM -7.0°F-21.7°C -14.9°F-26.1°C 68% 2.0 mph NNW3.2 kmh NNW -- 30.53 in1033.9 mb 0.00 in0.0 mm 0.00 in0.0 mm 0.00 in0.0 mm
10:01 AM -6.9°F-21.6°C -15.3°F-26.3°C 66% 2.0 mph NW3.2 kmh NW -- 30.53 in1033.9 mb 0.00 in0.0 mm 0.00 in0.0 mm 0.00 in0.0 mm
10:02 AM -6.9°F-21.6°C -15.6°F-26.4°C 65% 2.0 mph NW3.2 kmh NW -- 30.53 in1033.9 mb 0.00 in0.0 mm 0.00 in0.0 mm 0.00 in0.0 mm
10:03 AM -6.6°F-21.4°C -15.3°F-26.3°C 65% 2.0 mph NW3.2 kmh NW -- 30.53 in1033.9 mb 0.00 in0.0 mm 0.00 in0.0 mm 0.00 in0.0 mm
10:04 AM -6.9°F-21.6°C -15.6°F-26.4°C 65% 1.0 mph WNW1.6 kmh WNW -- 30.53 in1033.9 mb 0.00 in0.0 mm 0.00 in0.0 mm 0.00 in0.0 mm
10:05 AM -6.6°F-21.4°C -15.3°F-26.3°C 65% 3.0 mph NW4.8 kmh NW -- 30.53 in1033.9 mb 0.00 in0.0 mm 0.00 in0.0 mm 0.00 in0.0 mm
10:06 AM -6.9°F-21.6°C -15.6°F-26.4°C 65% 2.0 mph WNW3.2 kmh WNW -- 30.53 in1033.9 mb 0.00 in0.0 mm 0.00 in0.0 mm 0.00 in0.0 mm
10:07 AM -7.0°F-21.7°C -15.8°F-26.6°C 65% 2.0 mph W3.2 kmh W -- 30.53 in1033.9 mb 0.00 in0.0 mm 0.00 in0.0 mm 0.00 in0.0 mm
10:08 AM -7.0°F-21.7°C -14.9°F-26.1°C 68% 3.0 mph W4.8 kmh W -- 30.54 in1034.2 mb 0.00 in0.0 mm 0.00 in0.0 mm 0.00 in0.0 mm
10:09 AM -7.1°F-21.7°C -14.9°F-26.1°C 68% 4.0 mph W6.4 kmh W -- 30.53 in1033.9 mb 0.00 in0.0 mm 0.00 in0.0 mm 0.00 in0.0 mm
10:10 AM -7.1°F-21.7°C -14.9°F-26.1°C 68% 4.0 mph NW6.4 kmh NW -- 30.53 in1033.9 mb 0.00 in0.0 mm 0.00 in0.0 mm 0.00 in0.0 mm
10:11 AM -7.4°F-21.9°C -15.2°F-26.2°C 68% 3.0 mph WNW4.8 kmh WNW -- 30.53 in1033.9 mb 0.00 in0.0 mm 0.00 in0.0 mm 0.00 in0.0 mm
10:12 AM -7.1°F-21.7°C -14.9°F-26.1°C 68% 3.0 mph WNW4.8 kmh WNW -- 30.54 in1034.2 mb 0.00 in0.0 mm 0.00 in0.0 mm 0.00 in0.0 mm
10:13 AM -7.1°F-21.7°C -14.9°F-26.1°C 68% 4.0 mph WNW6.4 kmh WNW -- 30.54 in1034.2 mb 0.00 in0.0 mm 0.00 in0.0 mm 0.00 in0.0 mm
10:14 AM -6.6°F-21.4°C -15.0°F-26.1°C 66% 3.0 mph W4.8 kmh W -- 30.54 in1034.2 mb 0.00 in0.0 mm 0.00 in0.0 mm 0.00 in0.0 mm
10:15 AM -6.5°F-21.4°C -15.3°F-26.3°C 65% 3.0 mph W4.8 kmh W -- 30.54 in1034.2 mb 0.00 in0.0 mm 0.00 in0.0 mm 0.00 in0.0 mm
10:16 AM -6.5°F-21.4°C -15.3°F-26.3°C 65% 2.0 mph WNW3.2 kmh WNW -- 30.53 in1033.9 mb 0.00 in0.0 mm 0.00 in0.0 mm 0.00 in0.0 mm
10:17 AM -6.5°F-21.4°C -15.3°F-26.3°C 65% 3.0 mph W4.8 kmh W -- 30.54 in1034.2 mb 0.00 in0.0 mm 0.00 in0.0 mm 0.00 in0.0 mm
10:18 AM -6.5°F-21.4°C -15.3°F-26.3°C 65% 4.0 mph W6.4 kmh W -- 30.54 in1034.2 mb 0.00 in0.0 mm 0.00 in0.0 mm 0.00 in0.0 mm
10:19 AM -6.3°F-21.3°C -15.1°F-26.2°C 65% 2.0 mph W3.2 kmh W -- 30.54 in1034.2 mb 0.00 in0.0 mm 0.00 in0.0 mm 0.00 in0.0 mm
10:20 AM -6.5°F-21.4°C -15.3°F-26.3°C 65% 3.0 mph WNW4.8 kmh WNW -- 30.54 in1034.2 mb 0.00 in0.0 mm 0.00 in0.0 mm 0.00 in0.0 mm
10:21 AM -6.5°F-21.4°C -15.3°F-26.3°C 65% 3.0 mph W4.8 kmh W -- 30.54 in1034.2 mb 0.00 in0.0 mm 0.00 in0.0 mm 0.00 in0.0 mm
10:22 AM -6.5°F-21.4°C -15.3°F-26.3°C 65% 2.0 mph W3.2 kmh W -- 30.53 in1033.9 mb 0.00 in0.0 mm 0.00 in0.0 mm 0.00 in0.0 mm
10:23 AM -6.6°F-21.4°C -15.3°F-26.3°C 65% 2.0 mph WNW3.2 kmh WNW -- 30.54 in1034.2 mb 0.00 in0.0 mm 0.00 in0.0 mm 0.00 in0.0 mm
10:24 AM -6.6°F-21.4°C -15.3°F-26.3°C 65% 3.0 mph W4.8 kmh W -- 30.54 in1034.2 mb 0.00 in0.0 mm 0.00 in0.0 mm 0.00 in0.0 mm
10:25 AM -6.6°F-21.4°C -15.0°F-26.1°C 66% 4.0 mph W6.4 kmh W -- 30.54 in1034.2 mb 0.00 in0.0 mm 0.00 in0.0 mm 0.00 in0.0 mm
10:26 AM -6.9°F-21.6°C -15.3°F-26.3°C 66% 4.0 mph W6.4 kmh W -- 30.54 in1034.2 mb 0.00 in0.0 mm 0.00 in0.0 mm 0.00 in0.0 mm
10:27 AM -6.9°F-21.6°C -15.3°F-26.3°C 66% 3.0 mph W4.8 kmh W -- 30.54 in1034.2 mb 0.00 in0.0 mm 0.00 in0.0 mm 0.00 in0.0 mm
10:28 AM -7.0°F-21.7°C -15.5°F-26.4°C 66% 3.0 mph WNW4.8 kmh WNW -- 30.53 in1033.9 mb 0.00 in0.0 mm 0.00 in0.0 mm 0.00 in0.0 mm
10:30 AM -7.0°F-21.7°C -15.5°F-26.4°C 66% 2.0 mph W3.2 kmh W -- 30.53 in1033.9 mb 0.00 in0.0 mm 0.00 in0.0 mm 0.00 in0.0 mm
10:31 AM -7.1°F-21.7°C -15.5°F-26.4°C 66% 2.0 mph WSW3.2 kmh WSW -- 30.54 in1034.2 mb 0.00 in0.0 mm 0.00 in0.0 mm 0.00 in0.0 mm
10:32 AM -7.1°F-21.7°C -15.5°F-26.4°C 66% 2.0 mph WNW3.2 kmh WNW -- 30.54 in1034.2 mb 0.00 in0.0 mm 0.00 in0.0 mm 0.00 in0.0 mm
10:33 AM -7.1°F-21.7°C -15.5°F-26.4°C 66% 3.0 mph W4.8 kmh W -- 30.54 in1034.2 mb 0.00 in0.0 mm 0.00 in0.0 mm 0.00 in0.0 mm
10:34 AM -7.1°F-21.7°C -14.9°F-26.1°C 68% 2.0 mph WNW3.2 kmh WNW -- 30.53 in1033.9 mb 0.00 in0.0 mm 0.00 in0.0 mm 0.00 in0.0 mm
10:35 AM -7.1°F-21.7°C -14.9°F-26.1°C 68% 3.0 mph W4.8 kmh W -- 30.53 in1033.9 mb 0.00 in0.0 mm 0.00 in0.0 mm 0.00 in0.0 mm
10:36 AM -7.1°F-21.7°C -14.9°F-26.1°C 68% 4.0 mph W6.4 kmh W -- 30.53 in1033.9 mb 0.00 in0.0 mm 0.00 in0.0 mm 0.00 in0.0 mm
10:37 AM -7.0°F-21.7°C -14.9°F-26.1°C 68% 4.0 mph W6.4 kmh W -- 30.53 in1033.9 mb 0.00 in0.0 mm 0.00 in0.0 mm 0.00 in0.0 mm
10:39 AM -7.0°F-21.7°C -14.9°F-26.1°C 68% 3.0 mph WSW4.8 kmh WSW -- 30.53 in1033.9 mb 0.00 in0.0 mm 0.00 in0.0 mm 0.00 in0.0 mm
10:40 AM -7.0°F-21.7°C -14.9°F-26.1°C 68% 3.0 mph W4.8 kmh W -- 30.54 in1034.2 mb 0.00 in0.0 mm 0.00 in0.0 mm 0.00 in0.0 mm
10:41 AM -7.0°F-21.7°C -14.9°F-26.1°C 68% 4.0 mph W6.4 kmh W -- 30.54 in1034.2 mb 0.00 in0.0 mm 0.00 in0.0 mm 0.00 in0.0 mm
10:42 AM -7.1°F-21.7°C -14.9°F-26.1°C 68% 3.0 mph W4.8 kmh W -- 30.54 in1034.2 mb 0.00 in0.0 mm 0.00 in0.0 mm 0.00 in0.0 mm
10:43 AM -7.0°F-21.7°C -14.9°F-26.1°C 68% 4.0 mph W6.4 kmh W -- 30.54 in1034.2 mb 0.00 in0.0 mm 0.00 in0.0 mm 0.00 in0.0 mm
10:44 AM -7.0°F-21.7°C -14.9°F-26.1°C 68% 3.0 mph W4.8 kmh W -- 30.54 in1034.2 mb 0.00 in0.0 mm 0.00 in0.0 mm 0.00 in0.0 mm
10:45 AM -7.0°F-21.7°C -14.9°F-26.1°C 68% 3.0 mph WNW4.8 kmh WNW -- 30.54 in1034.2 mb 0.00 in0.0 mm 0.00 in0.0 mm 0.00 in0.0 mm
10:46 AM -7.0°F-21.7°C -14.9°F-26.1°C 68% 3.0 mph WNW4.8 kmh WNW -- 30.53 in1033.9 mb 0.00 in0.0 mm 0.00 in0.0 mm 0.00 in0.0 mm
10:47 AM -6.9°F-21.6°C -14.7°F-25.9°C 68% 3.0 mph W4.8 kmh W -- 30.54 in1034.2 mb 0.00 in0.0 mm 0.00 in0.0 mm 0.00 in0.0 mm
10:48 AM -6.9°F-21.6°C -14.7°F-25.9°C 68% 3.0 mph W4.8 kmh W -- 30.53 in1033.9 mb 0.00 in0.0 mm 0.00 in0.0 mm 0.00 in0.0 mm
10:49 AM -6.6°F-21.4°C -14.4°F-25.8°C 68% 3.0 mph W4.8 kmh W -- 30.53 in1033.9 mb 0.00 in0.0 mm 0.00 in0.0 mm 0.00 in0.0 mm
10:50 AM -6.5°F-21.4°C -14.4°F-25.8°C 68% 3.0 mph W4.8 kmh W -- 30.54 in1034.2 mb 0.00 in0.0 mm 0.00 in0.0 mm 0.00 in0.0 mm
10:51 AM -6.6°F-21.4°C -14.4°F-25.8°C 68% 2.0 mph W3.2 kmh W -- 30.54 in1034.2 mb 0.00 in0.0 mm 0.00 in0.0 mm 0.00 in0.0 mm
10:52 AM -6.6°F-21.4°C -14.4°F-25.8°C 68% 4.0 mph W6.4 kmh W -- 30.53 in1033.9 mb 0.00 in0.0 mm 0.00 in0.0 mm 0.00 in0.0 mm
10:53 AM -6.6°F-21.4°C -14.4°F-25.8°C 68% 3.0 mph W4.8 kmh W -- 30.54 in1034.2 mb 0.00 in0.0 mm 0.00 in0.0 mm 0.00 in0.0 mm
10:54 AM -6.5°F-21.4°C -14.4°F-25.8°C 68% 2.0 mph WNW3.2 kmh WNW -- 30.53 in1033.9 mb 0.00 in0.0 mm 0.00 in0.0 mm 0.00 in0.0 mm
10:55 AM -6.5°F-21.4°C -14.4°F-25.8°C 68% 4.0 mph W6.4 kmh W -- 30.53 in1033.9 mb 0.00 in0.0 mm 0.00 in0.0 mm 0.00 in0.0 mm
10:56 AM -6.3°F-21.3°C -14.2°F-25.7°C 68% 3.0 mph W4.8 kmh W -- 30.54 in1034.2 mb 0.00 in0.0 mm 0.00 in0.0 mm 0.00 in0.0 mm
10:57 AM -6.1°F-21.2°C -14.0°F-25.6°C 68% 3.0 mph W4.8 kmh W -- 30.53 in1033.9 mb 0.00 in0.0 mm 0.00 in0.0 mm 0.00 in0.0 mm
10:58 AM -6.1°F-21.2°C -14.0°F-25.6°C 68% 2.0 mph WNW3.2 kmh WNW -- 30.53 in1033.9 mb 0.00 in0.0 mm 0.00 in0.0 mm 0.00 in0.0 mm
10:59 AM -5.8°F-21.0°C -13.7°F-25.4°C 68% 3.0 mph W4.8 kmh W -- 30.53 in1033.9 mb 0.00 in0.0 mm 0.00 in0.0 mm 0.00 in0.0 mm
11:00 AM -5.4°F-20.8°C -13.3°F-25.2°C 68% 3.0 mph WSW4.8 kmh WSW -- 30.53 in1033.9 mb 0.00 in0.0 mm 0.00 in0.0 mm 0.00 in0.0 mm
11:01 AM -5.3°F-20.7°C -13.2°F-25.1°C 68% 3.0 mph W4.8 kmh W -- 30.53 in1033.9 mb 0.00 in0.0 mm 0.00 in0.0 mm 0.00 in0.0 mm
11:02 AM -4.9°F-20.5°C -13.4°F-25.2°C 66% 5.0 mph W8.0 kmh W -- 30.53 in1033.9 mb 0.00 in0.0 mm 0.00 in0.0 mm 0.00 in0.0 mm
11:03 AM -4.6°F-20.3°C -13.4°F-25.2°C 65% 4.0 mph W6.4 kmh W -- 30.53 in1033.9 mb 0.00 in0.0 mm 0.00 in0.0 mm 0.00 in0.0 mm
11:04 AM -4.5°F-20.3°C -13.4°F-25.2°C 65% 4.0 mph W6.4 kmh W -- 30.53 in1033.9 mb 0.00 in0.0 mm 0.00 in0.0 mm 0.00 in0.0 mm
11:05 AM -4.6°F-20.3°C -13.4°F-25.2°C 65% 4.0 mph W6.4 kmh W -- 30.54 in1034.2 mb 0.00 in0.0 mm 0.00 in0.0 mm 0.00 in0.0 mm
11:06 AM -4.5°F-20.3°C -13.4°F-25.2°C 65% 3.0 mph W4.8 kmh W -- 30.53 in1033.9 mb 0.00 in0.0 mm 0.00 in0.0 mm 0.00 in0.0 mm
11:07 AM -4.1°F-20.1°C -13.0°F-25.0°C 65% 4.0 mph W6.4 kmh W -- 30.53 in1033.9 mb 0.00 in0.0 mm 0.00 in0.0 mm 0.00 in0.0 mm
11:08 AM -4.1°F-20.1°C -13.0°F-25.0°C 65% 4.0 mph WNW6.4 kmh WNW -- 30.53 in1033.9 mb 0.00 in0.0 mm 0.00 in0.0 mm 0.00 in0.0 mm
11:09 AM -3.7°F-19.8°C -13.2°F-25.1°C 63% 3.0 mph W4.8 kmh W -- 30.53 in1033.9 mb 0.00 in0.0 mm 0.00 in0.0 mm 0.00 in0.0 mm
11:10 AM -3.7°F-19.8°C -13.2°F-25.1°C 63% 4.0 mph WNW6.4 kmh WNW -- 30.53 in1033.9 mb 0.00 in0.0 mm 0.00 in0.0 mm 0.00 in0.0 mm
11:11 AM -3.7°F-19.8°C -13.2°F-25.1°C 63% 4.0 mph W6.4 kmh W -- 30.53 in1033.9 mb 0.00 in0.0 mm 0.00 in0.0 mm 0.00 in0.0 mm
11:12 AM -3.8°F-19.9°C -13.0°F-25.0°C 64% 4.0 mph W6.4 kmh W -- 30.53 in1033.9 mb 0.00 in0.0 mm 0.00 in0.0 mm 0.00 in0.0 mm
11:13 AM -3.5°F-19.7°C -13.0°F-25.0°C 63% 4.0 mph WNW6.4 kmh WNW -- 30.53 in1033.9 mb 0.00 in0.0 mm 0.00 in0.0 mm 0.00 in0.0 mm
11:14 AM -3.5°F-19.7°C -13.0°F-25.0°C 63% 4.0 mph W6.4 kmh W -- 30.53 in1033.9 mb 0.00 in0.0 mm 0.00 in0.0 mm 0.00 in0.0 mm
11:15 AM -3.5°F-19.7°C -13.0°F-25.0°C 63% 3.0 mph WNW4.8 kmh WNW -- 30.53 in1033.9 mb 0.00 in0.0 mm 0.00 in0.0 mm 0.00 in0.0 mm
11:17 AM -3.0°F-19.4°C -12.5°F-24.7°C 63% 5.0 mph WNW8.0 kmh WNW -- 30.53 in1033.9 mb 0.00 in0.0 mm 0.00 in0.0 mm 0.00 in0.0 mm
11:18 AM -2.9°F-19.4°C -12.5°F-24.7°C 63% 4.0 mph W6.4 kmh W -- 30.53 in1033.9 mb 0.00 in0.0 mm 0.00 in0.0 mm 0.00 in0.0 mm
11:20 AM -2.9°F-19.4°C -12.5°F-24.7°C 63% 2.0 mph WNW3.2 kmh WNW -- 30.53 in1033.9 mb 0.00 in0.0 mm 0.00 in0.0 mm 0.00 in0.0 mm
11:21 AM -2.5°F-19.2°C -12.1°F-24.5°C 63% 3.0 mph W4.8 kmh W -- 30.53 in1033.9 mb 0.00 in0.0 mm 0.00 in0.0 mm 0.00 in0.0 mm
11:22 AM -2.5°F-19.2°C -12.1°F-24.5°C 63% 2.0 mph W3.2 kmh W -- 30.53 in1033.9 mb 0.00 in0.0 mm 0.00 in0.0 mm 0.00 in0.0 mm
11:23 AM -2.5°F-19.2°C -12.1°F-24.5°C 63% 3.0 mph W4.8 kmh W -- 30.53 in1033.9 mb 0.00 in0.0 mm 0.00 in0.0 mm 0.00 in0.0 mm
11:24 AM -2.0°F-18.9°C -11.6°F-24.2°C 63% 3.0 mph W4.8 kmh W -- 30.53 in1033.9 mb 0.00 in0.0 mm 0.00 in0.0 mm 0.00 in0.0 mm
11:25 AM -1.7°F-18.7°C -11.9°F-24.4°C 61% 5.0 mph W8.0 kmh W -- 30.53 in1033.9 mb 0.00 in0.0 mm 0.00 in0.0 mm 0.00 in0.0 mm
11:26 AM -1.1°F-18.4°C -11.4°F-24.1°C 61% 4.0 mph W6.4 kmh W -- 30.53 in1033.9 mb 0.00 in0.0 mm 0.00 in0.0 mm 0.00 in0.0 mm
11:27 AM -1.2°F-18.4°C -11.4°F-24.1°C 61% 4.0 mph W6.4 kmh W -- 30.53 in1033.9 mb 0.00 in0.0 mm 0.00 in0.0 mm 0.00 in0.0 mm
11:28 AM -0.8°F-18.2°C -11.1°F-23.9°C 61% 4.0 mph W6.4 kmh W -- 30.53 in1033.9 mb 0.00 in0.0 mm 0.00 in0.0 mm 0.00 in0.0 mm
11:29 AM -0.4°F-18.0°C -10.7°F-23.7°C 61% 6.0 mph W9.7 kmh W -- 30.53 in1033.9 mb 0.00 in0.0 mm 0.00 in0.0 mm 0.00 in0.0 mm
11:30 AM -0.4°F-18.0°C -11.1°F-23.9°C 60% 4.0 mph WNW6.4 kmh WNW -- 30.53 in1033.9 mb 0.00 in0.0 mm 0.00 in0.0 mm 0.00 in0.0 mm
11:31 AM -0.2°F-17.9°C -10.9°F-23.8°C 60% 5.0 mph W8.0 kmh W -- 30.53 in1033.9 mb 0.00 in0.0 mm 0.00 in0.0 mm 0.00 in0.0 mm
11:32 AM -0.2°F-17.9°C -11.2°F-24.0°C 59% 3.0 mph WNW4.8 kmh WNW -- 30.53 in1033.9 mb 0.00 in0.0 mm 0.00 in0.0 mm 0.00 in0.0 mm
11:33 AM -0.2°F-17.9°C -11.2°F-24.0°C 59% 5.0 mph W8.0 kmh W -- 30.53 in1033.9 mb 0.00 in0.0 mm 0.00 in0.0 mm 0.00 in0.0 mm
11:34 AM -0.2°F-17.9°C -11.2°F-24.0°C 59% 4.0 mph W6.4 kmh W -- 30.53 in1033.9 mb 0.00 in0.0 mm 0.00 in0.0 mm 0.00 in0.0 mm
11:35 AM 0.0°F-17.8°C -11.1°F-23.9°C 59% 4.0 mph W6.4 kmh W -- 30.53 in1033.9 mb 0.00 in0.0 mm 0.00 in0.0 mm 0.00 in0.0 mm
11:36 AM 0.0°F-17.8°C -11.1°F-23.9°C 59% 4.0 mph W6.4 kmh W -- 30.54 in1034.2 mb 0.00 in0.0 mm 0.00 in0.0 mm 0.00 in0.0 mm
11:37 AM 0.0°F-17.8°C -11.1°F-23.9°C 59% 5.0 mph WNW8.0 kmh WNW -- 30.53 in1033.9 mb 0.00 in0.0 mm 0.00 in0.0 mm 0.00 in0.0 mm
11:38 AM 0.0°F-17.8°C -11.1°F-23.9°C 59% 6.0 mph W9.7 kmh W -- 30.53 in1033.9 mb 0.00 in0.0 mm 0.00 in0.0 mm 0.00 in0.0 mm
11:39 AM -0.2°F-17.9°C -11.2°F-24.0°C 59% 5.0 mph W8.0 kmh W -- 30.53 in1033.9 mb 0.00 in0.0 mm 0.00 in0.0 mm 0.00 in0.0 mm
11:40 AM 0.0°F-17.8°C -11.1°F-23.9°C 59% 4.0 mph WNW6.4 kmh WNW -- 30.53 in1033.9 mb 0.00 in0.0 mm 0.00 in0.0 mm 0.00 in0.0 mm
11:41 AM 0.0°F-17.8°C -11.1°F-23.9°C 59% 4.0 mph W6.4 kmh W -- 30.53 in1033.9 mb 0.00 in0.0 mm 0.00 in0.0 mm 0.00 in0.0 mm
11:42 AM 0.1°F-17.7°C -10.9°F-23.8°C 59% 4.0 mph WNW6.4 kmh WNW -- 30.53 in1033.9 mb 0.00 in0.0 mm 0.00 in0.0 mm 0.00 in0.0 mm
11:43 AM -0.2°F-17.9°C -11.2°F-24.0°C 59% 4.0 mph W6.4 kmh W -- 30.53 in1033.9 mb 0.00 in0.0 mm 0.00 in0.0 mm 0.00 in0.0 mm
11:44 AM 0.0°F-17.8°C -10.4°F-23.6°C 61% 4.0 mph W6.4 kmh W -- 30.54 in1034.2 mb 0.00 in0.0 mm 0.00 in0.0 mm 0.00 in0.0 mm
11:45 AM 0.0°F-17.8°C -10.4°F-23.6°C 61% 3.0 mph W4.8 kmh W -- 30.54 in1034.2 mb 0.00 in0.0 mm 0.00 in0.0 mm 0.00 in0.0 mm
11:46 AM -0.2°F-17.9°C -10.6°F-23.7°C 61% 3.0 mph W4.8 kmh W -- 30.53 in1033.9 mb 0.00 in0.0 mm 0.00 in0.0 mm 0.00 in0.0 mm
11:47 AM -0.6°F-18.1°C -10.9°F-23.8°C 61% 3.0 mph W4.8 kmh W -- 30.53 in1033.9 mb 0.00 in0.0 mm 0.00 in0.0 mm 0.00 in0.0 mm
11:48 AM -0.6°F-18.1°C -10.9°F-23.8°C 61% 4.0 mph W6.4 kmh W -- 30.54 in1034.2 mb 0.00 in0.0 mm 0.00 in0.0 mm 0.00 in0.0 mm
11:49 AM 0.0°F-17.8°C -10.4°F-23.6°C 61% 3.0 mph WNW4.8 kmh WNW -- 30.53 in1033.9 mb 0.00 in0.0 mm 0.00 in0.0 mm 0.00 in0.0 mm
11:50 AM 0.1°F-17.7°C -10.2°F-23.4°C 61% 4.0 mph WNW6.4 kmh WNW -- 30.53 in1033.9 mb 0.00 in0.0 mm 0.00 in0.0 mm 0.00 in0.0 mm
11:51 AM 0.3°F-17.6°C -10.1°F-23.4°C 61% 6.0 mph W9.7 kmh W -- 30.53 in1033.9 mb 0.00 in0.0 mm 0.00 in0.0 mm 0.00 in0.0 mm
11:52 AM 0.7°F-17.4°C -10.0°F-23.3°C 60% 4.0 mph W6.4 kmh W -- 30.53 in1033.9 mb 0.00 in0.0 mm 0.00 in0.0 mm 0.00 in0.0 mm
11:53 AM 0.7°F-17.4°C -10.0°F-23.3°C 60% 3.0 mph W4.8 kmh W -- 30.53 in1033.9 mb 0.00 in0.0 mm 0.00 in0.0 mm 0.00 in0.0 mm
11:54 AM 1.0°F-17.2°C -9.7°F-23.2°C 60% 6.0 mph W9.7 kmh W -- 30.53 in1033.9 mb 0.00 in0.0 mm 0.00 in0.0 mm 0.00 in0.0 mm
11:55 AM 1.2°F-17.1°C -9.9°F-23.3°C 59% 5.0 mph W8.0 kmh W -- 30.53 in1033.9 mb 0.00 in0.0 mm 0.00 in0.0 mm 0.00 in0.0 mm
11:56 AM 1.3°F-17.1°C -9.9°F-23.3°C 59% 5.0 mph WNW8.0 kmh WNW -- 30.53 in1033.9 mb 0.00 in0.0 mm 0.00 in0.0 mm 0.00 in0.0 mm
11:57 AM 1.2°F-17.1°C -10.2°F-23.4°C 58% 5.0 mph WNW8.0 kmh WNW -- 30.53 in1033.9 mb 0.00 in0.0 mm 0.00 in0.0 mm 0.00 in0.0 mm
11:58 AM 1.2°F-17.1°C -10.2°F-23.4°C 58% 3.0 mph W4.8 kmh W -- 30.53 in1033.9 mb 0.00 in0.0 mm 0.00 in0.0 mm 0.00 in0.0 mm
11:59 AM 1.5°F-16.9°C -9.5°F-23.1°C 59% 6.0 mph W9.7 kmh W -- 30.54 in1034.2 mb 0.00 in0.0 mm 0.00 in0.0 mm 0.00 in0.0 mm
12:00 PM 1.7°F-16.8°C -9.7°F-23.2°C 58% 5.0 mph W8.0 kmh W -- 30.53 in1033.9 mb 0.00 in0.0 mm 0.00 in0.0 mm 0.00 in0.0 mm
12:02 PM 1.8°F-16.8°C -9.7°F-23.2°C 58% 4.0 mph W6.4 kmh W -- 30.53 in1033.9 mb 0.00 in0.0 mm 0.00 in0.0 mm 0.00 in0.0 mm
12:03 PM 1.7°F-16.8°C -9.7°F-23.2°C 58% 5.0 mph W8.0 kmh W -- 30.53 in1033.9 mb 0.00 in0.0 mm 0.00 in0.0 mm 0.00 in0.0 mm
12:04 PM 1.5°F-16.9°C -9.9°F-23.3°C 58% 5.0 mph W8.0 kmh W -- 30.53 in1033.9 mb 0.00 in0.0 mm 0.00 in0.0 mm 0.00 in0.0 mm
12:05 PM 1.5°F-16.9°C -9.9°F-23.3°C 58% 4.0 mph W6.4 kmh W -- 30.53 in1033.9 mb 0.00 in0.0 mm 0.00 in0.0 mm 0.00 in0.0 mm
12:06 PM 2.0°F-16.7°C -9.5°F-23.1°C 58% 5.0 mph W8.0 kmh W -- 30.53 in1033.9 mb 0.00 in0.0 mm 0.00 in0.0 mm 0.00 in0.0 mm
12:07 PM 2.0°F-16.7°C -9.5°F-23.1°C 58% 6.0 mph W9.7 kmh W -- 30.53 in1033.9 mb 0.00 in0.0 mm 0.00 in0.0 mm 0.00 in0.0 mm
12:08 PM 2.2°F-16.6°C -9.4°F-23.0°C 58% 6.0 mph W9.7 kmh W -- 30.53 in1033.9 mb 0.00 in0.0 mm 0.00 in0.0 mm 0.00 in0.0 mm
12:09 PM 2.2°F-16.6°C -10.1°F-23.4°C 56% 5.0 mph W8.0 kmh W -- 30.53 in1033.9 mb 0.00 in0.0 mm 0.00 in0.0 mm 0.00 in0.0 mm
12:10 PM 2.2°F-16.6°C -10.1°F-23.4°C 56% 7.0 mph W11.3 kmh W -- 30.53 in1033.9 mb 0.00 in0.0 mm 0.00 in0.0 mm 0.00 in0.0 mm
12:11 PM 1.9°F-16.7°C -10.3°F-23.5°C 56% 5.0 mph W8.0 kmh W -- 30.53 in1033.9 mb 0.00 in0.0 mm 0.00 in0.0 mm 0.00 in0.0 mm
12:12 PM 1.9°F-16.7°C -9.9°F-23.3°C 57% 4.0 mph W6.4 kmh W -- 30.53 in1033.9 mb 0.00 in0.0 mm 0.00 in0.0 mm 0.00 in0.0 mm
12:13 PM 2.2°F-16.6°C -9.0°F-22.8°C 59% 6.0 mph W9.7 kmh W -- 30.53 in1033.9 mb 0.00 in0.0 mm 0.00 in0.0 mm 0.00 in0.0 mm
12:14 PM 2.5°F-16.4°C -8.7°F-22.6°C 59% 4.0 mph W6.4 kmh W -- 30.53 in1033.9 mb 0.00 in0.0 mm 0.00 in0.0 mm 0.00 in0.0 mm
12:15 PM 2.5°F-16.4°C -9.0°F-22.8°C 58% 4.0 mph W6.4 kmh W -- 30.53 in1033.9 mb 0.00 in0.0 mm 0.00 in0.0 mm 0.00 in0.0 mm
12:16 PM 2.5°F-16.4°C -9.0°F-22.8°C 58% 5.0 mph W8.0 kmh W -- 30.52 in1033.5 mb 0.00 in0.0 mm 0.00 in0.0 mm 0.00 in0.0 mm
12:17 PM 2.5°F-16.4°C -9.0°F-22.8°C 58% 4.0 mph W6.4 kmh W -- 30.52 in1033.5 mb 0.00 in0.0 mm 0.00 in0.0 mm 0.00 in0.0 mm
12:18 PM 2.7°F-16.3°C -8.9°F-22.7°C 58% 6.0 mph W9.7 kmh W -- 30.52 in1033.5 mb 0.00 in0.0 mm 0.00 in0.0 mm 0.00 in0.0 mm
12:20 PM 2.5°F-16.4°C -9.0°F-22.8°C 58% 5.0 mph W8.0 kmh W -- 30.53 in1033.9 mb 0.00 in0.0 mm 0.00 in0.0 mm 0.00 in0.0 mm
12:21 PM 2.7°F-16.3°C -8.9°F-22.7°C 58% 6.0 mph WNW9.7 kmh WNW -- 30.53 in1033.9 mb 0.00 in0.0 mm 0.00 in0.0 mm 0.00 in0.0 mm
12:22 PM 2.7°F-16.3°C -8.9°F-22.7°C 58% 6.0 mph W9.7 kmh W -- 30.52 in1033.5 mb 0.00 in0.0 mm 0.00 in0.0 mm 0.00 in0.0 mm
12:24 PM 3.0°F-16.1°C -9.3°F-22.9°C 56% 6.0 mph W9.7 kmh W -- 30.52 in1033.5 mb 0.00 in0.0 mm 0.00 in0.0 mm 0.00 in0.0 mm
12:25 PM 3.0°F-16.1°C -9.3°F-22.9°C 56% 5.0 mph W8.0 kmh W -- 30.52 in1033.5 mb 0.00 in0.0 mm 0.00 in0.0 mm 0.00 in0.0 mm
12:27 PM 3.0°F-16.1°C -8.5°F-22.5°C 58% 8.0 mph W12.9 kmh W -- 30.52 in1033.5 mb 0.00 in0.0 mm 0.00 in0.0 mm 0.00 in0.0 mm
12:28 PM 3.0°F-16.1°C -8.5°F-22.5°C 58% 8.0 mph WNW12.9 kmh WNW -- 30.52 in1033.5 mb 0.00 in0.0 mm 0.00 in0.0 mm 0.00 in0.0 mm
12:29 PM 3.0°F-16.1°C -8.5°F-22.5°C 58% 8.0 mph W12.9 kmh W -- 30.53 in1033.9 mb 0.00 in0.0 mm 0.00 in0.0 mm 0.00 in0.0 mm
12:30 PM 2.7°F-16.3°C -9.6°F-23.1°C 56% 8.0 mph WNW12.9 kmh WNW -- 30.52 in1033.5 mb 0.00 in0.0 mm 0.00 in0.0 mm 0.00 in0.0 mm
12:31 PM 2.7°F-16.3°C -9.6°F-23.1°C 56% 9.0 mph W14.5 kmh W -- 30.53 in1033.9 mb 0.00 in0.0 mm 0.00 in0.0 mm 0.00 in0.0 mm
12:32 PM 2.7°F-16.3°C -9.2°F-22.9°C 57% 10.0 mph WNW16.1 kmh WNW -- 30.52 in1033.5 mb 0.00 in0.0 mm 0.00 in0.0 mm 0.00 in0.0 mm
12:33 PM 2.7°F-16.3°C -9.6°F-23.1°C 56% 8.0 mph W12.9 kmh W -- 30.52 in1033.5 mb 0.00 in0.0 mm 0.00 in0.0 mm 0.00 in0.0 mm
12:34 PM 2.7°F-16.3°C -9.6°F-23.1°C 56% 6.0 mph W9.7 kmh W -- 30.52 in1033.5 mb 0.00 in0.0 mm 0.00 in0.0 mm 0.00 in0.0 mm
12:35 PM 2.7°F-16.3°C -9.6°F-23.1°C 56% 7.0 mph WNW11.3 kmh WNW -- 30.52 in1033.5 mb 0.00 in0.0 mm 0.00 in0.0 mm 0.00 in0.0 mm
12:36 PM 2.7°F-16.3°C -9.6°F-23.1°C 56% 7.0 mph NW11.3 kmh NW -- 30.52 in1033.5 mb 0.00 in0.0 mm 0.00 in0.0 mm 0.00 in0.0 mm
12:37 PM 2.7°F-16.3°C -9.2°F-22.9°C 57% 4.0 mph W6.4 kmh W -- 30.52 in1033.5 mb 0.00 in0.0 mm 0.00 in0.0 mm 0.00 in0.0 mm
12:38 PM 2.7°F-16.3°C -9.6°F-23.1°C 56% 6.0 mph WNW9.7 kmh WNW -- 30.52 in1033.5 mb 0.00 in0.0 mm 0.00 in0.0 mm 0.00 in0.0 mm
12:39 PM 3.1°F-16.1°C -8.5°F-22.5°C 58% 4.0 mph W6.4 kmh W -- 30.52 in1033.5 mb 0.00 in0.0 mm 0.00 in0.0 mm 0.00 in0.0 mm
12:40 PM 3.4°F-15.9°C -8.2°F-22.3°C 58% 6.0 mph W9.7 kmh W -- 30.52 in1033.5 mb 0.00 in0.0 mm 0.00 in0.0 mm 0.00 in0.0 mm
12:41 PM 3.7°F-15.7°C -7.9°F-22.2°C 58% 5.0 mph W8.0 kmh W -- 30.53 in1033.9 mb 0.00 in0.0 mm 0.00 in0.0 mm 0.00 in0.0 mm
12:42 PM 3.9°F-15.6°C -7.7°F-22.1°C 58% 7.0 mph W11.3 kmh W -- 30.53 in1033.9 mb 0.00 in0.0 mm 0.00 in0.0 mm 0.00 in0.0 mm
12:43 PM 3.9°F-15.6°C -7.7°F-22.1°C 58% 5.0 mph W8.0 kmh W -- 30.52 in1033.5 mb 0.00 in0.0 mm 0.00 in0.0 mm 0.00 in0.0 mm
12:44 PM 4.0°F-15.6°C -7.7°F-22.1°C 58% 5.0 mph W8.0 kmh W -- 30.52 in1033.5 mb 0.00 in0.0 mm 0.00 in0.0 mm 0.00 in0.0 mm
12:45 PM 4.0°F-15.6°C -7.7°F-22.1°C 58% 7.0 mph WSW11.3 kmh WSW -- 30.52 in1033.5 mb 0.00 in0.0 mm 0.00 in0.0 mm 0.00 in0.0 mm
12:46 PM 4.0°F-15.6°C -7.7°F-22.1°C 58% 6.0 mph W9.7 kmh W -- 30.52 in1033.5 mb 0.00 in0.0 mm 0.00 in0.0 mm 0.00 in0.0 mm
12:47 PM 4.0°F-15.6°C -7.7°F-22.1°C 58% 5.0 mph W8.0 kmh W -- 30.52 in1033.5 mb 0.00 in0.0 mm 0.00 in0.0 mm 0.00 in0.0 mm
12:48 PM 4.0°F-15.6°C -7.7°F-22.1°C 58% 6.0 mph W9.7 kmh W -- 30.52 in1033.5 mb 0.00 in0.0 mm 0.00 in0.0 mm 0.00 in0.0 mm
12:50 PM 4.3°F-15.4°C -8.1°F-22.3°C 56% 6.0 mph W9.7 kmh W -- 30.52 in1033.5 mb 0.00 in0.0 mm 0.00 in0.0 mm 0.00 in0.0 mm
12:51 PM 4.3°F-15.4°C -8.1°F-22.3°C 56% 8.0 mph W12.9 kmh W -- 30.52 in1033.5 mb 0.00 in0.0 mm 0.00 in0.0 mm 0.00 in0.0 mm
12:52 PM 4.3°F-15.4°C -8.1°F-22.3°C 56% 6.0 mph W9.7 kmh W -- 30.52 in1033.5 mb 0.00 in0.0 mm 0.00 in0.0 mm 0.00 in0.0 mm
12:53 PM 4.0°F-15.6°C -8.8°F-22.7°C 55% 6.0 mph W9.7 kmh W -- 30.52 in1033.5 mb 0.00 in0.0 mm 0.00 in0.0 mm 0.00 in0.0 mm
12:54 PM 4.0°F-15.6°C -8.8°F-22.7°C 55% 7.0 mph W11.3 kmh W -- 30.52 in1033.5 mb 0.00 in0.0 mm 0.00 in0.0 mm 0.00 in0.0 mm
12:55 PM 4.0°F-15.6°C -8.4°F-22.4°C 56% 4.0 mph W6.4 kmh W -- 30.52 in1033.5 mb 0.00 in0.0 mm 0.00 in0.0 mm 0.00 in0.0 mm
12:56 PM 4.5°F-15.3°C -7.2°F-21.8°C 58% 9.0 mph W14.5 kmh W -- 30.52 in1033.5 mb 0.00 in0.0 mm 0.00 in0.0 mm 0.00 in0.0 mm
12:57 PM 4.5°F-15.3°C -7.2°F-21.8°C 58% 7.0 mph WNW11.3 kmh WNW -- 30.52 in1033.5 mb 0.00 in0.0 mm 0.00 in0.0 mm 0.00 in0.0 mm
12:58 PM 4.5°F-15.3°C -7.9°F-22.2°C 56% 5.0 mph W8.0 kmh W -- 30.52 in1033.5 mb 0.00 in0.0 mm 0.00 in0.0 mm 0.00 in0.0 mm
12:59 PM 4.5°F-15.3°C -7.9°F-22.2°C 56% 6.0 mph W9.7 kmh W -- 30.52 in1033.5 mb 0.00 in0.0 mm 0.00 in0.0 mm 0.00 in0.0 mm
01:00 PM 4.5°F-15.3°C -7.9°F-22.2°C 56% 7.0 mph W11.3 kmh W -- 30.52 in1033.5 mb 0.00 in0.0 mm 0.00 in0.0 mm 0.00 in0.0 mm
01:01 PM 4.5°F-15.3°C -8.3°F-22.4°C 55% 7.0 mph W11.3 kmh W -- 30.52 in1033.5 mb 0.00 in0.0 mm 0.00 in0.0 mm 0.00 in0.0 mm
01:02 PM 4.5°F-15.3°C -8.3°F-22.4°C 55% 8.0 mph W12.9 kmh W -- 30.52 in1033.5 mb 0.00 in0.0 mm 0.00 in0.0 mm 0.00 in0.0 mm
01:03 PM 4.5°F-15.3°C -8.3°F-22.4°C 55% 5.0 mph W8.0 kmh W -- 30.52 in1033.5 mb 0.00 in0.0 mm 0.00 in0.0 mm 0.00 in0.0 mm
01:04 PM 4.5°F-15.3°C -7.9°F-22.2°C 56% 6.0 mph WNW9.7 kmh WNW -- 30.52 in1033.5 mb 0.00 in0.0 mm 0.00 in0.0 mm 0.00 in0.0 mm
01:05 PM 4.8°F-15.1°C -7.6°F-22.0°C 56% 4.0 mph NNW6.4 kmh NNW -- 30.52 in1033.5 mb 0.00 in0.0 mm 0.00 in0.0 mm 0.00 in0.0 mm
01:06 PM 4.5°F-15.3°C -7.9°F-22.2°C 56% 5.0 mph W8.0 kmh W -- 30.52 in1033.5 mb 0.00 in0.0 mm 0.00 in0.0 mm 0.00 in0.0 mm
01:07 PM 4.8°F-15.1°C -7.6°F-22.0°C 56% 6.0 mph WSW9.7 kmh WSW -- 30.52 in1033.5 mb 0.00 in0.0 mm 0.00 in0.0 mm 0.00 in0.0 mm
01:08 PM 4.8°F-15.1°C -7.6°F-22.0°C 56% 7.0 mph WNW11.3 kmh WNW -- 30.52 in1033.5 mb 0.00 in0.0 mm 0.00 in0.0 mm 0.00 in0.0 mm
01:09 PM 4.8°F-15.1°C -7.9°F-22.2°C 55% 4.0 mph W6.4 kmh W -- 30.51 in1033.2 mb 0.00 in0.0 mm 0.00 in0.0 mm 0.00 in0.0 mm
01:10 PM 4.8°F-15.1°C -7.9°F-22.2°C 55% 5.0 mph W8.0 kmh W -- 30.51 in1033.2 mb 0.00 in0.0 mm 0.00 in0.0 mm 0.00 in0.0 mm
01:11 PM 4.8°F-15.1°C -7.6°F-22.0°C 56% 8.0 mph W12.9 kmh W -- 30.52 in1033.5 mb 0.00 in0.0 mm 0.00 in0.0 mm 0.00 in0.0 mm
01:12 PM 5.0°F-15.0°C -7.4°F-21.9°C 56% 8.0 mph W12.9 kmh W -- 30.52 in1033.5 mb 0.00 in0.0 mm 0.00 in0.0 mm 0.00 in0.0 mm
01:13 PM 5.0°F-15.0°C -7.8°F-22.1°C 55% 6.0 mph WNW9.7 kmh WNW -- 30.52 in1033.5 mb 0.00 in0.0 mm 0.00 in0.0 mm 0.00 in0.0 mm
01:14 PM 5.0°F-15.0°C -7.8°F-22.1°C 55% 7.0 mph W11.3 kmh W -- 30.52 in1033.5 mb 0.00 in0.0 mm 0.00 in0.0 mm 0.00 in0.0 mm
01:15 PM 5.0°F-15.0°C -7.8°F-22.1°C 55% 5.0 mph W8.0 kmh W -- 30.52 in1033.5 mb 0.00 in0.0 mm 0.00 in0.0 mm 0.00 in0.0 mm
01:16 PM 5.0°F-15.0°C -7.8°F-22.1°C 55% 7.0 mph W11.3 kmh W -- 30.51 in1033.2 mb 0.00 in0.0 mm 0.00 in0.0 mm 0.00 in0.0 mm
01:17 PM 5.0°F-15.0°C -7.8°F-22.1°C 55% 6.0 mph WNW9.7 kmh WNW -- 30.51 in1033.2 mb 0.00 in0.0 mm 0.00 in0.0 mm 0.00 in0.0 mm
01:18 PM 5.0°F-15.0°C -7.8°F-22.1°C 55% 5.0 mph W8.0 kmh W -- 30.51 in1033.2 mb 0.00 in0.0 mm 0.00 in0.0 mm 0.00 in0.0 mm
01:19 PM 5.0°F-15.0°C -7.4°F-21.9°C 56% 5.0 mph W8.0 kmh W -- 30.51 in1033.2 mb 0.00 in0.0 mm 0.00 in0.0 mm 0.00 in0.0 mm
01:20 PM 5.4°F-14.8°C -7.1°F-21.7°C 56% 6.0 mph W9.7 kmh W -- 30.51 in1033.2 mb 0.00 in0.0 mm 0.00 in0.0 mm 0.00 in0.0 mm
01:21 PM 5.5°F-14.7°C -6.9°F-21.6°C 56% 7.0 mph W11.3 kmh W -- 30.51 in1033.2 mb 0.00 in0.0 mm 0.00 in0.0 mm 0.00 in0.0 mm
01:22 PM 5.5°F-14.7°C -6.9°F-21.6°C 56% 6.0 mph W9.7 kmh W -- 30.51 in1033.2 mb 0.00 in0.0 mm 0.00 in0.0 mm 0.00 in0.0 mm
01:23 PM 5.5°F-14.7°C -6.9°F-21.6°C 56% 5.0 mph W8.0 kmh W -- 30.51 in1033.2 mb 0.00 in0.0 mm 0.00 in0.0 mm 0.00 in0.0 mm
01:24 PM 5.5°F-14.7°C -6.9°F-21.6°C 56% 5.0 mph SSW8.0 kmh SSW -- 30.51 in1033.2 mb 0.00 in0.0 mm 0.00 in0.0 mm 0.00 in0.0 mm
01:25 PM 5.6°F-14.7°C -6.9°F-21.6°C 56% 5.0 mph W8.0 kmh W -- 30.51 in1033.2 mb 0.00 in0.0 mm 0.00 in0.0 mm 0.00 in0.0 mm
01:26 PM 5.6°F-14.7°C -6.9°F-21.6°C 56% 9.0 mph W14.5 kmh W -- 30.51 in1033.2 mb 0.00 in0.0 mm 0.00 in0.0 mm 0.00 in0.0 mm
01:27 PM 5.6°F-14.7°C -6.9°F-21.6°C 56% 6.0 mph W9.7 kmh W -- 30.51 in1033.2 mb 0.00 in0.0 mm 0.00 in0.0 mm 0.00 in0.0 mm
01:28 PM 5.9°F-14.5°C -6.6°F-21.4°C 56% 8.0 mph WSW12.9 kmh WSW -- 30.51 in1033.2 mb 0.00 in0.0 mm 0.00 in0.0 mm 0.00 in0.0 mm
01:29 PM 5.6°F-14.7°C -7.3°F-21.8°C 55% 8.0 mph W12.9 kmh W -- 30.51 in1033.2 mb 0.00 in0.0 mm 0.00 in0.0 mm 0.00 in0.0 mm
01:30 PM 5.6°F-14.7°C -7.3°F-21.8°C 55% 8.0 mph W12.9 kmh W -- 30.50 in1032.8 mb 0.00 in0.0 mm 0.00 in0.0 mm 0.00 in0.0 mm
01:31 PM 5.6°F-14.7°C -7.3°F-21.8°C 55% 7.0 mph WNW11.3 kmh WNW -- 30.51 in1033.2 mb 0.00 in0.0 mm 0.00 in0.0 mm 0.00 in0.0 mm
01:32 PM 5.6°F-14.7°C -6.9°F-21.6°C 56% 6.0 mph W9.7 kmh W -- 30.50 in1032.8 mb 0.00 in0.0 mm 0.00 in0.0 mm 0.00 in0.0 mm
01:33 PM 5.6°F-14.7°C -6.9°F-21.6°C 56% 8.0 mph W12.9 kmh W -- 30.50 in1032.8 mb 0.00 in0.0 mm 0.00 in0.0 mm 0.00 in0.0 mm
01:34 PM 5.6°F-14.7°C -6.9°F-21.6°C 56% 5.0 mph W8.0 kmh W -- 30.50 in1032.8 mb 0.00 in0.0 mm 0.00 in0.0 mm 0.00 in0.0 mm
01:35 PM 5.9°F-14.5°C -5.8°F-21.0°C 58% 6.0 mph W9.7 kmh W -- 30.51 in1033.2 mb 0.00 in0.0 mm 0.00 in0.0 mm 0.00 in0.0 mm
01:36 PM 6.1°F-14.4°C -5.3°F-20.7°C 59% 6.0 mph W9.7 kmh W -- 30.51 in1033.2 mb 0.00 in0.0 mm 0.00 in0.0 mm 0.00 in0.0 mm
01:37 PM 6.1°F-14.4°C -5.3°F-20.7°C 59% 8.0 mph W12.9 kmh W -- 30.51 in1033.2 mb 0.00 in0.0 mm 0.00 in0.0 mm 0.00 in0.0 mm
01:38 PM 6.1°F-14.4°C -5.7°F-20.9°C 58% 6.0 mph W9.7 kmh W -- 30.51 in1033.2 mb 0.00 in0.0 mm 0.00 in0.0 mm 0.00 in0.0 mm
01:39 PM 6.1°F-14.4°C -6.4°F-21.3°C 56% 7.0 mph W11.3 kmh W -- 30.50 in1032.8 mb 0.00 in0.0 mm 0.00 in0.0 mm 0.00 in0.0 mm
01:40 PM 6.1°F-14.4°C -6.8°F-21.6°C 55% 7.0 mph W11.3 kmh W -- 30.50 in1032.8 mb 0.00 in0.0 mm 0.00 in0.0 mm 0.00 in0.0 mm
01:41 PM 6.3°F-14.3°C -6.6°F-21.4°C 55% 6.0 mph W9.7 kmh W -- 30.50 in1032.8 mb 0.00 in0.0 mm 0.00 in0.0 mm 0.00 in0.0 mm
01:42 PM 6.3°F-14.3°C -6.2°F-21.2°C 56% 8.0 mph W12.9 kmh W -- 30.50 in1032.8 mb 0.00 in0.0 mm 0.00 in0.0 mm 0.00 in0.0 mm
01:43 PM 6.3°F-14.3°C -6.6°F-21.4°C 55% 8.0 mph W12.9 kmh W -- 30.50 in1032.8 mb 0.00 in0.0 mm 0.00 in0.0 mm 0.00 in0.0 mm
01:44 PM 6.1°F-14.4°C -6.8°F-21.6°C 55% 5.0 mph W8.0 kmh W -- 30.51 in1033.2 mb 0.00 in0.0 mm 0.00 in0.0 mm 0.00 in0.0 mm
01:45 PM 6.3°F-14.3°C -6.6°F-21.4°C 55% 6.0 mph W9.7 kmh W -- 30.50 in1032.8 mb 0.00 in0.0 mm 0.00 in0.0 mm 0.00 in0.0 mm
01:46 PM 6.3°F-14.3°C -6.2°F-21.2°C 56% 6.0 mph W9.7 kmh W -- 30.50 in1032.8 mb 0.00 in0.0 mm 0.00 in0.0 mm 0.00 in0.0 mm
01:47 PM 6.3°F-14.3°C -6.2°F-21.2°C 56% 6.0 mph W9.7 kmh W -- 30.51 in1033.2 mb 0.00 in0.0 mm 0.00 in0.0 mm 0.00 in0.0 mm
01:48 PM 6.5°F-14.2°C -6.0°F-21.1°C 56% 6.0 mph W9.7 kmh W -- 30.51 in1033.2 mb 0.00 in0.0 mm 0.00 in0.0 mm 0.00 in0.0 mm
01:49 PM 6.8°F-14.0°C -6.1°F-21.2°C 55% 8.0 mph W12.9 kmh W -- 30.50 in1032.8 mb 0.00 in0.0 mm 0.00 in0.0 mm 0.00 in0.0 mm
01:50 PM 6.8°F-14.0°C -6.1°F-21.2°C 55% 7.0 mph W11.3 kmh W -- 30.51 in1033.2 mb 0.00 in0.0 mm 0.00 in0.0 mm 0.00 in0.0 mm
01:51 PM 6.5°F-14.2°C -6.4°F-21.3°C 55% 5.0 mph W8.0 kmh W -- 30.50 in1032.8 mb 0.00 in0.0 mm 0.00 in0.0 mm 0.00 in0.0 mm
01:52 PM 6.6°F-14.1°C -5.9°F-21.1°C 56% 6.0 mph WNW9.7 kmh WNW -- 30.50 in1032.8 mb 0.00 in0.0 mm 0.00 in0.0 mm 0.00 in0.0 mm
01:53 PM 7.0°F-13.9°C -5.5°F-20.8°C 56% 7.0 mph WNW11.3 kmh WNW -- 30.50 in1032.8 mb 0.00 in0.0 mm 0.00 in0.0 mm 0.00 in0.0 mm
01:54 PM 7.1°F-13.8°C -5.4°F-20.8°C 56% 7.0 mph WNW11.3 kmh WNW -- 30.50 in1032.8 mb 0.00 in0.0 mm 0.00 in0.0 mm 0.00 in0.0 mm
01:55 PM 7.3°F-13.7°C -5.6°F-20.9°C 55% 6.0 mph WNW9.7 kmh WNW -- 30.50 in1032.8 mb 0.00 in0.0 mm 0.00 in0.0 mm 0.00 in0.0 mm
01:56 PM 7.3°F-13.7°C -5.6°F-20.9°C 55% 8.0 mph W12.9 kmh W -- 30.51 in1033.2 mb 0.00 in0.0 mm 0.00 in0.0 mm 0.00 in0.0 mm
01:57 PM 7.1°F-13.8°C -6.1°F-21.2°C 54% 10.0 mph WNW16.1 kmh WNW -- 30.51 in1033.2 mb 0.00 in0.0 mm 0.00 in0.0 mm 0.00 in0.0 mm
01:58 PM 7.0°F-13.9°C -6.3°F-21.3°C 54% 6.0 mph W9.7 kmh W -- 30.51 in1033.2 mb 0.00 in0.0 mm 0.00 in0.0 mm 0.00 in0.0 mm
01:59 PM 7.1°F-13.8°C -5.7°F-20.9°C 55% 7.0 mph NW11.3 kmh NW -- 30.51 in1033.2 mb 0.00 in0.0 mm 0.00 in0.0 mm 0.00 in0.0 mm
02:00 PM 7.1°F-13.8°C -5.7°F-20.9°C 55% 5.0 mph WSW8.0 kmh WSW -- 30.51 in1033.2 mb 0.00 in0.0 mm 0.00 in0.0 mm 0.00 in0.0 mm
02:01 PM 7.3°F-13.7°C -5.6°F-20.9°C 55% 5.0 mph W8.0 kmh W -- 30.51 in1033.2 mb 0.00 in0.0 mm 0.00 in0.0 mm 0.00 in0.0 mm
02:02 PM 7.3°F-13.7°C -5.6°F-20.9°C 55% 7.0 mph W11.3 kmh W -- 30.51 in1033.2 mb 0.00 in0.0 mm 0.00 in0.0 mm 0.00 in0.0 mm
02:03 PM 7.5°F-13.6°C -5.4°F-20.8°C 55% 11.0 mph W17.7 kmh W -- 30.50 in1032.8 mb 0.00 in0.0 mm 0.00 in0.0 mm 0.00 in0.0 mm
02:04 PM 7.3°F-13.7°C -6.3°F-21.3°C 53% 7.0 mph W11.3 kmh W -- 30.50 in1032.8 mb 0.00 in0.0 mm 0.00 in0.0 mm 0.00 in0.0 mm
02:05 PM 7.3°F-13.7°C -6.0°F-21.1°C 54% 11.0 mph W17.7 kmh W -- 30.50 in1032.8 mb 0.00 in0.0 mm 0.00 in0.0 mm 0.00 in0.0 mm
02:06 PM 7.3°F-13.7°C -6.0°F-21.1°C 54% 12.0 mph W19.3 kmh W -- 30.50 in1032.8 mb 0.00 in0.0 mm 0.00 in0.0 mm 0.00 in0.0 mm
02:07 PM 7.1°F-13.8°C -6.1°F-21.2°C 54% 11.0 mph W17.7 kmh W -- 30.50 in1032.8 mb 0.00 in0.0 mm 0.00 in0.0 mm 0.00 in0.0 mm
02:08 PM 7.0°F-13.9°C -6.3°F-21.3°C 54% 5.0 mph W8.0 kmh W -- 30.50 in1032.8 mb 0.00 in0.0 mm 0.00 in0.0 mm 0.00 in0.0 mm
02:09 PM 7.0°F-13.9°C -5.9°F-21.1°C 55% 6.0 mph W9.7 kmh W -- 30.50 in1032.8 mb 0.00 in0.0 mm 0.00 in0.0 mm 0.00 in0.0 mm
02:10 PM 7.3°F-13.7°C -5.6°F-20.9°C 55% 8.0 mph W12.9 kmh W -- 30.50 in1032.8 mb 0.00 in0.0 mm 0.00 in0.0 mm 0.00 in0.0 mm
02:12 PM 7.3°F-13.7°C -5.6°F-20.9°C 55% 9.0 mph W14.5 kmh W -- 30.50 in1032.8 mb 0.00 in0.0 mm 0.00 in0.0 mm 0.00 in0.0 mm
02:14 PM 7.3°F-13.7°C -5.6°F-20.9°C 55% 8.0 mph W12.9 kmh W -- 30.50 in1032.8 mb 0.00 in0.0 mm 0.00 in0.0 mm 0.00 in0.0 mm
02:15 PM 7.1°F-13.8°C -5.7°F-20.9°C 55% 7.0 mph WNW11.3 kmh WNW -- 30.50 in1032.8 mb 0.00 in0.0 mm 0.00 in0.0 mm 0.00 in0.0 mm
02:16 PM 7.3°F-13.7°C -5.6°F-20.9°C 55% 9.0 mph W14.5 kmh W -- 30.50 in1032.8 mb 0.00 in0.0 mm 0.00 in0.0 mm 0.00 in0.0 mm
02:17 PM 7.3°F-13.7°C -5.6°F-20.9°C 55% 6.0 mph W9.7 kmh W -- 30.50 in1032.8 mb 0.00 in0.0 mm 0.00 in0.0 mm 0.00 in0.0 mm
02:18 PM 7.3°F-13.7°C -5.6°F-20.9°C 55% 10.0 mph W16.1 kmh W -- 30.50 in1032.8 mb 0.00 in0.0 mm 0.00 in0.0 mm 0.00 in0.0 mm
02:19 PM 7.3°F-13.7°C -6.0°F-21.1°C 54% 5.0 mph W8.0 kmh W -- 30.50 in1032.8 mb 0.00 in0.0 mm 0.00 in0.0 mm 0.00 in0.0 mm
02:20 PM 7.3°F-13.7°C -6.3°F-21.3°C 53% 9.0 mph W14.5 kmh W -- 30.50 in1032.8 mb 0.00 in0.0 mm 0.00 in0.0 mm 0.00 in0.0 mm
02:21 PM 7.3°F-13.7°C -6.3°F-21.3°C 53% 11.0 mph W17.7 kmh W -- 30.50 in1032.8 mb 0.00 in0.0 mm 0.00 in0.0 mm 0.00 in0.0 mm
02:22 PM 7.1°F-13.8°C -6.5°F-21.4°C 53% 8.0 mph SW12.9 kmh SW -- 30.50 in1032.8 mb 0.00 in0.0 mm 0.00 in0.0 mm 0.00 in0.0 mm
02:23 PM 7.3°F-13.7°C -6.0°F-21.1°C 54% 6.0 mph NW9.7 kmh NW -- 30.50 in1032.8 mb 0.00 in0.0 mm 0.00 in0.0 mm 0.00 in0.0 mm
02:24 PM 7.3°F-13.7°C -5.6°F-20.9°C 55% 10.0 mph W16.1 kmh W -- 30.50 in1032.8 mb 0.00 in0.0 mm 0.00 in0.0 mm 0.00 in0.0 mm
02:25 PM 7.3°F-13.7°C -6.0°F-21.1°C 54% 4.0 mph W6.4 kmh W -- 30.50 in1032.8 mb 0.00 in0.0 mm 0.00 in0.0 mm 0.00 in0.0 mm
02:26 PM 7.6°F-13.6°C -5.4°F-20.8°C 55% 10.0 mph W16.1 kmh W -- 30.50 in1032.8 mb 0.00 in0.0 mm 0.00 in0.0 mm 0.00 in0.0 mm
02:27 PM 7.6°F-13.6°C -5.4°F-20.8°C 55% 8.0 mph W12.9 kmh W -- 30.50 in1032.8 mb 0.00 in0.0 mm 0.00 in0.0 mm 0.00 in0.0 mm
02:28 PM 7.6°F-13.6°C -5.8°F-21.0°C 54% 7.0 mph W11.3 kmh W -- 30.50 in1032.8 mb 0.00 in0.0 mm 0.00 in0.0 mm 0.00 in0.0 mm
02:29 PM 7.6°F-13.6°C -5.8°F-21.0°C 54% 5.0 mph 8.0 kmh -- 30.49 in1032.5 mb 0.00 in0.0 mm 0.00 in0.0 mm 0.00 in0.0 mm
02:30 PM 7.9°F-13.4°C -5.1°F-20.6°C 55% 6.0 mph W9.7 kmh W -- 30.49 in1032.5 mb 0.00 in0.0 mm 0.00 in0.0 mm 0.00 in0.0 mm
02:31 PM 8.1°F-13.3°C -4.9°F-20.5°C 55% 9.0 mph W14.5 kmh W -- 30.49 in1032.5 mb 0.00 in0.0 mm 0.00 in0.0 mm 0.00 in0.0 mm
02:32 PM 7.9°F-13.4°C -5.5°F-20.8°C 54% 6.0 mph W9.7 kmh W -- 30.50 in1032.8 mb 0.00 in0.0 mm 0.00 in0.0 mm 0.00 in0.0 mm
02:33 PM 7.6°F-13.6°C -5.8°F-21.0°C 54% 4.0 mph NNW6.4 kmh NNW -- 30.50 in1032.8 mb 0.00 in0.0 mm 0.00 in0.0 mm 0.00 in0.0 mm
02:34 PM 7.9°F-13.4°C -5.1°F-20.6°C 55% 7.0 mph NW11.3 kmh NW -- 30.50 in1032.8 mb 0.00 in0.0 mm 0.00 in0.0 mm 0.00 in0.0 mm
02:35 PM 8.1°F-13.3°C -4.9°F-20.5°C 55% 10.0 mph W16.1 kmh W -- 30.49 in1032.5 mb 0.00 in0.0 mm 0.00 in0.0 mm 0.00 in0.0 mm
02:36 PM 8.1°F-13.3°C -5.3°F-20.7°C 54% 8.0 mph NNW12.9 kmh NNW -- 30.50 in1032.8 mb 0.00 in0.0 mm 0.00 in0.0 mm 0.00 in0.0 mm
02:37 PM 7.9°F-13.4°C -5.5°F-20.8°C 54% 7.0 mph WNW11.3 kmh WNW -- 30.50 in1032.8 mb 0.00 in0.0 mm 0.00 in0.0 mm 0.00 in0.0 mm
02:38 PM 7.9°F-13.4°C -5.5°F-20.8°C 54% 10.0 mph W16.1 kmh W -- 30.50 in1032.8 mb 0.00 in0.0 mm 0.00 in0.0 mm 0.00 in0.0 mm
02:39 PM 7.9°F-13.4°C -5.5°F-20.8°C 54% 6.0 mph WNW9.7 kmh WNW -- 30.49 in1032.5 mb 0.00 in0.0 mm 0.00 in0.0 mm 0.00 in0.0 mm
02:40 PM 7.5°F-13.6°C -5.8°F-21.0°C 54% 9.0 mph W14.5 kmh W -- 30.49 in1032.5 mb 0.00 in0.0 mm 0.00 in0.0 mm 0.00 in0.0 mm
02:41 PM 7.6°F-13.6°C -5.4°F-20.8°C 55% 9.0 mph W14.5 kmh W -- 30.49 in1032.5 mb 0.00 in0.0 mm 0.00 in0.0 mm 0.00 in0.0 mm
02:42 PM 7.5°F-13.6°C -5.4°F-20.8°C 55% 8.0 mph W12.9 kmh W -- 30.49 in1032.5 mb 0.00 in0.0 mm 0.00 in0.0 mm 0.00 in0.0 mm
02:43 PM 7.5°F-13.6°C -5.8°F-21.0°C 54% 9.0 mph WNW14.5 kmh WNW -- 30.49 in1032.5 mb 0.00 in0.0 mm 0.00 in0.0 mm 0.00 in0.0 mm
02:44 PM 7.6°F-13.6°C -5.8°F-21.0°C 54% 11.0 mph WNW17.7 kmh WNW -- 30.49 in1032.5 mb 0.00 in0.0 mm 0.00 in0.0 mm 0.00 in0.0 mm
02:45 PM 7.5°F-13.6°C -5.8°F-21.0°C 54% 8.0 mph W12.9 kmh W -- 30.49 in1032.5 mb 0.00 in0.0 mm 0.00 in0.0 mm 0.00 in0.0 mm
02:46 PM 7.5°F-13.6°C -5.4°F-20.8°C 55% 5.0 mph W8.0 kmh W -- 30.49 in1032.5 mb 0.00 in0.0 mm 0.00 in0.0 mm 0.00 in0.0 mm
02:47 PM 7.5°F-13.6°C -5.4°F-20.8°C 55% 11.0 mph W17.7 kmh W -- 30.49 in1032.5 mb 0.00 in0.0 mm 0.00 in0.0 mm 0.00 in0.0 mm
02:48 PM 7.5°F-13.6°C -5.4°F-20.8°C 55% 8.0 mph W12.9 kmh W -- 30.49 in1032.5 mb 0.00 in0.0 mm 0.00 in0.0 mm 0.00 in0.0 mm
02:49 PM 7.6°F-13.6°C -5.4°F-20.8°C 55% 7.0 mph W11.3 kmh W -- 30.49 in1032.5 mb 0.00 in0.0 mm 0.00 in0.0 mm 0.00 in0.0 mm
02:50 PM 7.9°F-13.4°C -5.1°F-20.6°C 55% 11.0 mph WNW17.7 kmh WNW -- 30.49 in1032.5 mb 0.00 in0.0 mm 0.00 in0.0 mm 0.00 in0.0 mm
02:51 PM 7.9°F-13.4°C -5.1°F-20.6°C 55% 8.0 mph WNW12.9 kmh WNW -- 30.49 in1032.5 mb 0.00 in0.0 mm 0.00 in0.0 mm 0.00 in0.0 mm
02:52 PM 7.9°F-13.4°C -5.1°F-20.6°C 55% 10.0 mph W16.1 kmh W -- 30.49 in1032.5 mb 0.00 in0.0 mm 0.00 in0.0 mm 0.00 in0.0 mm
02:53 PM 7.9°F-13.4°C -5.1°F-20.6°C 55% 7.0 mph W11.3 kmh W -- 30.49 in1032.5 mb 0.00 in0.0 mm 0.00 in0.0 mm 0.00 in0.0 mm
02:54 PM 7.9°F-13.4°C -5.1°F-20.6°C 55% 10.0 mph WSW16.1 kmh WSW -- 30.49 in1032.5 mb 0.00 in0.0 mm 0.00 in0.0 mm 0.00 in0.0 mm
02:55 PM 7.9°F-13.4°C -5.5°F-20.8°C 54% 9.0 mph W14.5 kmh W -- 30.49 in1032.5 mb 0.00 in0.0 mm 0.00 in0.0 mm 0.00 in0.0 mm
02:56 PM 7.6°F-13.6°C -5.8°F-21.0°C 54% 6.0 mph WNW9.7 kmh WNW -- 30.49 in1032.5 mb 0.00 in0.0 mm 0.00 in0.0 mm 0.00 in0.0 mm
02:57 PM 7.9°F-13.4°C -5.5°F-20.8°C 54% 8.0 mph WNW12.9 kmh WNW -- 30.49 in1032.5 mb 0.00 in0.0 mm 0.00 in0.0 mm 0.00 in0.0 mm
02:58 PM 7.6°F-13.6°C -5.8°F-21.0°C 54% 7.0 mph W11.3 kmh W -- 30.49 in1032.5 mb 0.00 in0.0 mm 0.00 in0.0 mm 0.00 in0.0 mm
02:59 PM 7.6°F-13.6°C -5.8°F-21.0°C 54% 7.0 mph WNW11.3 kmh WNW -- 30.49 in1032.5 mb 0.00 in0.0 mm 0.00 in0.0 mm 0.00 in0.0 mm
03:00 PM 7.9°F-13.4°C -5.5°F-20.8°C 54% 6.0 mph W9.7 kmh W -- 30.49 in1032.5 mb 0.00 in0.0 mm 0.00 in0.0 mm 0.00 in0.0 mm
03:01 PM 7.9°F-13.4°C -5.5°F-20.8°C 54% 9.0 mph WNW14.5 kmh WNW -- 30.49 in1032.5 mb 0.00 in0.0 mm 0.00 in0.0 mm 0.00 in0.0 mm
03:03 PM 7.9°F-13.4°C -5.5°F-20.8°C 54% 9.0 mph NW14.5 kmh NW -- 30.49 in1032.5 mb 0.00 in0.0 mm 0.00 in0.0 mm 0.00 in0.0 mm
03:04 PM 7.9°F-13.4°C -5.1°F-20.6°C 55% 5.0 mph W8.0 kmh W -- 30.49 in1032.5 mb 0.00 in0.0 mm 0.00 in0.0 mm 0.00 in0.0 mm
03:05 PM 8.1°F-13.3°C -4.9°F-20.5°C 55% 6.0 mph W9.7 kmh W -- 30.49 in1032.5 mb 0.00 in0.0 mm 0.00 in0.0 mm 0.00 in0.0 mm
03:06 PM 8.3°F-13.2°C -4.7°F-20.4°C 55% 8.0 mph WSW12.9 kmh WSW -- 30.48 in1032.2 mb 0.00 in0.0 mm 0.00 in0.0 mm 0.00 in0.0 mm
03:07 PM 8.6°F-13.0°C -4.4°F-20.2°C 55% 11.0 mph WNW17.7 kmh WNW -- 30.49 in1032.5 mb 0.00 in0.0 mm 0.00 in0.0 mm 0.00 in0.0 mm
03:08 PM 8.3°F-13.2°C -5.1°F-20.6°C 54% 9.0 mph W14.5 kmh W -- 30.49 in1032.5 mb 0.00 in0.0 mm 0.00 in0.0 mm 0.00 in0.0 mm
03:09 PM 8.3°F-13.2°C -5.1°F-20.6°C 54% 10.0 mph WNW16.1 kmh WNW -- 30.48 in1032.2 mb 0.00 in0.0 mm 0.00 in0.0 mm 0.00 in0.0 mm
03:10 PM 8.1°F-13.3°C -5.3°F-20.7°C 54% 7.0 mph WNW11.3 kmh WNW -- 30.48 in1032.2 mb 0.00 in0.0 mm 0.00 in0.0 mm 0.00 in0.0 mm
03:11 PM 8.1°F-13.3°C -5.3°F-20.7°C 54% 9.0 mph W14.5 kmh W -- 30.49 in1032.5 mb 0.00 in0.0 mm 0.00 in0.0 mm 0.00 in0.0 mm
03:12 PM 8.1°F-13.3°C -5.7°F-20.9°C 53% 7.0 mph W11.3 kmh W -- 30.49 in1032.5 mb 0.00 in0.0 mm 0.00 in0.0 mm 0.00 in0.0 mm
03:13 PM 8.1°F-13.3°C -5.3°F-20.7°C 54% 10.0 mph W16.1 kmh W -- 30.49 in1032.5 mb 0.00 in0.0 mm 0.00 in0.0 mm 0.00 in0.0 mm
03:14 PM 7.9°F-13.4°C -5.5°F-20.8°C 54% 11.0 mph W17.7 kmh W -- 30.48 in1032.2 mb 0.00 in0.0 mm 0.00 in0.0 mm 0.00 in0.0 mm
03:15 PM 7.9°F-13.4°C -5.5°F-20.8°C 54% 7.0 mph W11.3 kmh W -- 30.48 in1032.2 mb 0.00 in0.0 mm 0.00 in0.0 mm 0.00 in0.0 mm
03:16 PM 8.1°F-13.3°C -5.3°F-20.7°C 54% 6.0 mph NW9.7 kmh NW -- 30.48 in1032.2 mb 0.00 in0.0 mm 0.00 in0.0 mm 0.00 in0.0 mm
03:17 PM 8.1°F-13.3°C -5.3°F-20.7°C 54% 10.0 mph WNW16.1 kmh WNW -- 30.48 in1032.2 mb 0.00 in0.0 mm 0.00 in0.0 mm 0.00 in0.0 mm
03:18 PM 8.1°F-13.3°C -5.3°F-20.7°C 54% 10.0 mph W16.1 kmh W -- 30.48 in1032.2 mb 0.00 in0.0 mm 0.00 in0.0 mm 0.00 in0.0 mm
03:19 PM 8.1°F-13.3°C -5.3°F-20.7°C 54% 7.0 mph W11.3 kmh W -- 30.48 in1032.2 mb 0.00 in0.0 mm 0.00 in0.0 mm 0.00 in0.0 mm
03:20 PM 8.1°F-13.3°C -5.3°F-20.7°C 54% 10.0 mph WNW16.1 kmh WNW -- 30.48 in1032.2 mb 0.00 in0.0 mm 0.00 in0.0 mm 0.00 in0.0 mm
03:21 PM 8.1°F-13.3°C -5.3°F-20.7°C 54% 6.0 mph WSW9.7 kmh WSW -- 30.48 in1032.2 mb 0.00 in0.0 mm 0.00 in0.0 mm 0.00 in0.0 mm
03:22 PM 8.1°F-13.3°C -5.3°F-20.7°C 54% 7.0 mph W11.3 kmh W -- 30.48 in1032.2 mb 0.00 in0.0 mm 0.00 in0.0 mm 0.00 in0.0 mm
03:24 PM 8.1°F-13.3°C -4.9°F-20.5°C 55% 4.0 mph W6.4 kmh W -- 30.48 in1032.2 mb 0.00 in0.0 mm 0.00 in0.0 mm 0.00 in0.0 mm
03:25 PM 8.3°F-13.2°C -4.7°F-20.4°C 55% 11.0 mph W17.7 kmh W -- 30.48 in1032.2 mb 0.00 in0.0 mm 0.00 in0.0 mm 0.00 in0.0 mm
03:26 PM 8.3°F-13.2°C -4.7°F-20.4°C 55% 8.0 mph W12.9 kmh W -- 30.48 in1032.2 mb 0.00 in0.0 mm 0.00 in0.0 mm 0.00 in0.0 mm
03:27 PM 8.6°F-13.0°C -4.4°F-20.2°C 55% 7.0 mph W11.3 kmh W -- 30.48 in1032.2 mb 0.00 in0.0 mm 0.00 in0.0 mm 0.00 in0.0 mm
03:28 PM 8.6°F-13.0°C -4.4°F-20.2°C 55% 8.0 mph W12.9 kmh W -- 30.48 in1032.2 mb 0.00 in0.0 mm 0.00 in0.0 mm 0.00 in0.0 mm
03:29 PM 8.6°F-13.0°C -4.4°F-20.2°C 55% 5.0 mph W8.0 kmh W -- 30.48 in1032.2 mb 0.00 in0.0 mm 0.00 in0.0 mm 0.00 in0.0 mm
03:30 PM 8.8°F-12.9°C -4.2°F-20.1°C 55% 8.0 mph W12.9 kmh W -- 30.48 in1032.2 mb 0.00 in0.0 mm 0.00 in0.0 mm 0.00 in0.0 mm
03:31 PM 8.8°F-12.9°C -4.2°F-20.1°C 55% 12.0 mph W19.3 kmh W -- 30.48 in1032.2 mb 0.00 in0.0 mm 0.00 in0.0 mm 0.00 in0.0 mm
03:32 PM 8.6°F-13.0°C -4.8°F-20.4°C 54% 9.0 mph W14.5 kmh W -- 30.48 in1032.2 mb 0.00 in0.0 mm 0.00 in0.0 mm 0.00 in0.0 mm
03:33 PM 8.6°F-13.0°C -4.8°F-20.4°C 54% 8.0 mph W12.9 kmh W -- 30.48 in1032.2 mb 0.00 in0.0 mm 0.00 in0.0 mm 0.00 in0.0 mm
03:34 PM 8.6°F-13.0°C -4.8°F-20.4°C 54% 9.0 mph W14.5 kmh W -- 30.48 in1032.2 mb 0.00 in0.0 mm 0.00 in0.0 mm 0.00 in0.0 mm
03:35 PM 8.6°F-13.0°C -4.8°F-20.4°C 54% 5.0 mph WNW8.0 kmh WNW -- 30.48 in1032.2 mb 0.00 in0.0 mm 0.00 in0.0 mm 0.00 in0.0 mm
03:36 PM 8.8°F-12.9°C -4.2°F-20.1°C 55% 9.0 mph 14.5 kmh -- 30.48 in1032.2 mb 0.00 in0.0 mm 0.00 in0.0 mm 0.00 in0.0 mm
03:37 PM 8.8°F-12.9°C -4.2°F-20.1°C 55% 12.0 mph WNW19.3 kmh WNW -- 30.48 in1032.2 mb 0.00 in0.0 mm 0.00 in0.0 mm 0.00 in0.0 mm
03:38 PM 8.8°F-12.9°C -4.6°F-20.3°C 54% 8.0 mph W12.9 kmh W -- 30.48 in1032.2 mb 0.00 in0.0 mm 0.00 in0.0 mm 0.00 in0.0 mm
03:39 PM 9.0°F-12.8°C -4.4°F-20.2°C 54% 10.0 mph W16.1 kmh W -- 30.47 in1031.8 mb 0.00 in0.0 mm 0.00 in0.0 mm 0.00 in0.0 mm
03:40 PM 9.0°F-12.8°C -4.4°F-20.2°C 54% 8.0 mph W12.9 kmh W -- 30.48 in1032.2 mb 0.00 in0.0 mm 0.00 in0.0 mm 0.00 in0.0 mm
03:41 PM 9.0°F-12.8°C -4.4°F-20.2°C 54% 8.0 mph W12.9 kmh W -- 30.47 in1031.8 mb 0.00 in0.0 mm 0.00 in0.0 mm 0.00 in0.0 mm
03:42 PM 9.0°F-12.8°C -4.4°F-20.2°C 54% 7.0 mph WNW11.3 kmh WNW -- 30.48 in1032.2 mb 0.00 in0.0 mm 0.00 in0.0 mm 0.00 in0.0 mm
03:43 PM 9.0°F-12.8°C -4.4°F-20.2°C 54% 6.0 mph WNW9.7 kmh WNW -- 30.48 in1032.2 mb 0.00 in0.0 mm 0.00 in0.0 mm 0.00 in0.0 mm
03:44 PM 9.0°F-12.8°C -4.4°F-20.2°C 54% 12.0 mph WNW19.3 kmh WNW -- 30.48 in1032.2 mb 0.00 in0.0 mm 0.00 in0.0 mm 0.00 in0.0 mm
03:45 PM 9.0°F-12.8°C -4.4°F-20.2°C 54% 6.0 mph W9.7 kmh W -- 30.47 in1031.8 mb 0.00 in0.0 mm 0.00 in0.0 mm 0.00 in0.0 mm
03:46 PM 8.8°F-12.9°C -4.6°F-20.3°C 54% 6.0 mph NW9.7 kmh NW -- 30.47 in1031.8 mb 0.00 in0.0 mm 0.00 in0.0 mm 0.00 in0.0 mm
03:47 PM 9.0°F-12.8°C -4.4°F-20.2°C 54% 8.0 mph NW12.9 kmh NW -- 30.47 in1031.8 mb 0.00 in0.0 mm 0.00 in0.0 mm 0.00 in0.0 mm
03:48 PM 9.0°F-12.8°C -4.4°F-20.2°C 54% 10.0 mph W16.1 kmh W -- 30.48 in1032.2 mb 0.00 in0.0 mm 0.00 in0.0 mm 0.00 in0.0 mm
03:49 PM 9.0°F-12.8°C -4.4°F-20.2°C 54% 8.0 mph WNW12.9 kmh WNW -- 30.47 in1031.8 mb 0.00 in0.0 mm 0.00 in0.0 mm 0.00 in0.0 mm
03:50 PM 9.0°F-12.8°C -4.4°F-20.2°C 54% 12.0 mph WNW19.3 kmh WNW -- 30.47 in1031.8 mb 0.00 in0.0 mm 0.00 in0.0 mm 0.00 in0.0 mm
03:51 PM 8.8°F-12.9°C -4.6°F-20.3°C 54% 7.0 mph WNW11.3 kmh WNW -- 30.47 in1031.8 mb 0.00 in0.0 mm 0.00 in0.0 mm 0.00 in0.0 mm
03:52 PM 8.8°F-12.9°C -4.6°F-20.3°C 54% 11.0 mph WSW17.7 kmh WSW -- 30.47 in1031.8 mb 0.00 in0.0 mm 0.00 in0.0 mm 0.00 in0.0 mm
03:53 PM 8.8°F-12.9°C -4.6°F-20.3°C 54% 8.0 mph WNW12.9 kmh WNW -- 30.47 in1031.8 mb 0.00 in0.0 mm 0.00 in0.0 mm 0.00 in0.0 mm
03:54 PM 8.8°F-12.9°C -4.6°F-20.3°C 54% 10.0 mph WNW16.1 kmh WNW -- 30.47 in1031.8 mb 0.00 in0.0 mm 0.00 in0.0 mm 0.00 in0.0 mm
03:55 PM 8.6°F-13.0°C -4.8°F-20.4°C 54% 10.0 mph WNW16.1 kmh WNW -- 30.47 in1031.8 mb 0.00 in0.0 mm 0.00 in0.0 mm 0.00 in0.0 mm
03:56 PM 8.6°F-13.0°C -4.8°F-20.4°C 54% 7.0 mph W11.3 kmh W -- 30.47 in1031.8 mb 0.00 in0.0 mm 0.00 in0.0 mm 0.00 in0.0 mm
03:57 PM 8.8°F-12.9°C -4.2°F-20.1°C 55% 8.0 mph W12.9 kmh W -- 30.47 in1031.8 mb 0.00 in0.0 mm 0.00 in0.0 mm 0.00 in0.0 mm
03:58 PM 9.0°F-12.8°C -4.1°F-20.1°C 55% 6.0 mph W9.7 kmh W -- 30.47 in1031.8 mb 0.00 in0.0 mm 0.00 in0.0 mm 0.00 in0.0 mm
03:59 PM 9.0°F-12.8°C -4.1°F-20.1°C 55% 5.0 mph W8.0 kmh W -- 30.47 in1031.8 mb 0.00 in0.0 mm 0.00 in0.0 mm 0.00 in0.0 mm
04:00 PM 9.5°F-12.5°C -3.6°F-19.8°C 55% 6.0 mph W9.7 kmh W -- 30.47 in1031.8 mb 0.00 in0.0 mm 0.00 in0.0 mm 0.00 in0.0 mm
04:01 PM 9.6°F-12.4°C -3.4°F-19.7°C 55% 8.0 mph W12.9 kmh W -- 30.47 in1031.8 mb 0.00 in0.0 mm 0.00 in0.0 mm 0.00 in0.0 mm
04:02 PM 9.7°F-12.4°C -3.0°F-19.4°C 56% 11.0 mph W17.7 kmh W -- 30.47 in1031.8 mb 0.00 in0.0 mm 0.00 in0.0 mm 0.00 in0.0 mm
04:03 PM 9.5°F-12.5°C -3.9°F-19.9°C 54% 10.0 mph W16.1 kmh W -- 30.47 in1031.8 mb 0.00 in0.0 mm 0.00 in0.0 mm 0.00 in0.0 mm
04:04 PM 9.3°F-12.6°C -4.1°F-20.1°C 54% 7.0 mph W11.3 kmh W -- 30.47 in1031.8 mb 0.00 in0.0 mm 0.00 in0.0 mm 0.00 in0.0 mm
04:05 PM 9.3°F-12.6°C -3.7°F-19.8°C 55% 7.0 mph W11.3 kmh W -- 30.47 in1031.8 mb 0.00 in0.0 mm 0.00 in0.0 mm 0.00 in0.0 mm
04:06 PM 9.5°F-12.5°C -3.6°F-19.8°C 55% 7.0 mph W11.3 kmh W -- 30.46 in1031.5 mb 0.00 in0.0 mm 0.00 in0.0 mm 0.00 in0.0 mm
04:07 PM 9.6°F-12.4°C -3.8°F-19.9°C 54% 10.0 mph WNW16.1 kmh WNW -- 30.47 in1031.8 mb 0.00 in0.0 mm 0.00 in0.0 mm 0.00 in0.0 mm
04:08 PM 9.6°F-12.4°C -3.8°F-19.9°C 54% 8.0 mph SW12.9 kmh SW -- 30.47 in1031.8 mb 0.00 in0.0 mm 0.00 in0.0 mm 0.00 in0.0 mm
04:09 PM 9.6°F-12.4°C -3.4°F-19.7°C 55% 8.0 mph W12.9 kmh W -- 30.47 in1031.8 mb 0.00 in0.0 mm 0.00 in0.0 mm 0.00 in0.0 mm
04:10 PM 9.6°F-12.4°C -3.8°F-19.9°C 54% 7.0 mph WNW11.3 kmh WNW -- 30.46 in1031.5 mb 0.00 in0.0 mm 0.00 in0.0 mm 0.00 in0.0 mm
04:11 PM 9.6°F-12.4°C -3.8°F-19.9°C 54% 7.0 mph WNW11.3 kmh WNW -- 30.47 in1031.8 mb 0.00 in0.0 mm 0.00 in0.0 mm 0.00 in0.0 mm
04:12 PM 9.6°F-12.4°C -3.8°F-19.9°C 54% 8.0 mph WNW12.9 kmh WNW -- 30.47 in1031.8 mb 0.00 in0.0 mm 0.00 in0.0 mm 0.00 in0.0 mm
04:13 PM 9.8°F-12.3°C -3.6°F-19.8°C 54% 9.0 mph WNW14.5 kmh WNW -- 30.47 in1031.8 mb 0.00 in0.0 mm 0.00 in0.0 mm 0.00 in0.0 mm
04:14 PM 9.8°F-12.3°C -3.6°F-19.8°C 54% 6.0 mph W9.7 kmh W -- 30.47 in1031.8 mb 0.00 in0.0 mm 0.00 in0.0 mm 0.00 in0.0 mm
04:15 PM 9.8°F-12.3°C -3.6°F-19.8°C 54% 7.0 mph W11.3 kmh W -- 30.47 in1031.8 mb 0.00 in0.0 mm 0.00 in0.0 mm 0.00 in0.0 mm
04:16 PM 10.0°F-12.2°C -3.4°F-19.7°C 54% 8.0 mph W12.9 kmh W -- 30.47 in1031.8 mb 0.00 in0.0 mm 0.00 in0.0 mm 0.00 in0.0 mm
04:17 PM 10.0°F-12.2°C -3.4°F-19.7°C 54% 9.0 mph W14.5 kmh W -- 30.47 in1031.8 mb 0.00 in0.0 mm 0.00 in0.0 mm 0.00 in0.0 mm
04:18 PM 10.1°F-12.2°C -3.4°F-19.7°C 54% 8.0 mph W12.9 kmh W -- 30.47 in1031.8 mb 0.00 in0.0 mm 0.00 in0.0 mm 0.00 in0.0 mm
04:19 PM 10.1°F-12.2°C -3.8°F-19.9°C 53% 8.0 mph W12.9 kmh W -- 30.47 in1031.8 mb 0.00 in0.0 mm 0.00 in0.0 mm 0.00 in0.0 mm
04:20 PM 10.0°F-12.2°C -3.8°F-19.9°C 53% 5.0 mph W8.0 kmh W -- 30.47 in1031.8 mb 0.00 in0.0 mm 0.00 in0.0 mm 0.00 in0.0 mm
04:21 PM 9.8°F-12.3°C -4.0°F-20.0°C 53% 7.0 mph WNW11.3 kmh WNW -- 30.47 in1031.8 mb 0.00 in0.0 mm 0.00 in0.0 mm 0.00 in0.0 mm
04:22 PM 9.9°F-12.3°C -4.0°F-20.0°C 53% 8.0 mph WNW12.9 kmh WNW -- 30.47 in1031.8 mb 0.00 in0.0 mm 0.00 in0.0 mm 0.00 in0.0 mm
04:23 PM 9.8°F-12.3°C -4.0°F-20.0°C 53% 6.0 mph W9.7 kmh W -- 30.46 in1031.5 mb 0.00 in0.0 mm 0.00 in0.0 mm 0.00 in0.0 mm
04:24 PM 10.0°F-12.2°C -3.4°F-19.7°C 54% 8.0 mph W12.9 kmh W -- 30.46 in1031.5 mb 0.00 in0.0 mm 0.00 in0.0 mm 0.00 in0.0 mm
04:26 PM 10.0°F-12.2°C -3.8°F-19.9°C 53% 7.0 mph NW11.3 kmh NW -- 30.46 in1031.5 mb 0.00 in0.0 mm 0.00 in0.0 mm 0.00 in0.0 mm
04:27 PM 10.0°F-12.2°C -3.8°F-19.9°C 53% 6.0 mph W9.7 kmh W -- 30.46 in1031.5 mb 0.00 in0.0 mm 0.00 in0.0 mm 0.00 in0.0 mm
04:28 PM 10.0°F-12.2°C -3.8°F-19.9°C 53% 7.0 mph WNW11.3 kmh WNW -- 30.46 in1031.5 mb 0.00 in0.0 mm 0.00 in0.0 mm 0.00 in0.0 mm
04:29 PM 10.0°F-12.2°C -3.4°F-19.7°C 54% 9.0 mph W14.5 kmh W -- 30.46 in1031.5 mb 0.00 in0.0 mm 0.00 in0.0 mm 0.00 in0.0 mm
04:30 PM 10.0°F-12.2°C -3.4°F-19.7°C 54% 9.0 mph W14.5 kmh W -- 30.47 in1031.8 mb 0.00 in0.0 mm 0.00 in0.0 mm 0.00 in0.0 mm
04:31 PM 10.0°F-12.2°C -3.8°F-19.9°C 53% 9.0 mph WNW14.5 kmh WNW -- 30.46 in1031.5 mb 0.00 in0.0 mm 0.00 in0.0 mm 0.00 in0.0 mm
04:32 PM 10.0°F-12.2°C -3.8°F-19.9°C 53% 6.0 mph W9.7 kmh W -- 30.46 in1031.5 mb 0.00 in0.0 mm 0.00 in0.0 mm 0.00 in0.0 mm
04:33 PM 10.0°F-12.2°C -3.4°F-19.7°C 54% 6.0 mph NW9.7 kmh NW -- 30.46 in1031.5 mb 0.00 in0.0 mm 0.00 in0.0 mm 0.00 in0.0 mm
04:34 PM 10.1°F-12.2°C -3.4°F-19.7°C 54% 11.0 mph NW17.7 kmh NW -- 30.46 in1031.5 mb 0.00 in0.0 mm 0.00 in0.0 mm 0.00 in0.0 mm
04:35 PM 10.1°F-12.2°C -3.4°F-19.7°C 54% 6.0 mph NW9.7 kmh NW -- 30.46 in1031.5 mb 0.00 in0.0 mm 0.00 in0.0 mm 0.00 in0.0 mm
04:36 PM 10.1°F-12.2°C -3.4°F-19.7°C 54% 6.0 mph W9.7 kmh W -- 30.46 in1031.5 mb 0.00 in0.0 mm 0.00 in0.0 mm 0.00 in0.0 mm
04:37 PM 10.1°F-12.2°C -3.1°F-19.5°C 55% 5.0 mph W8.0 kmh W -- 30.46 in1031.5 mb 0.00 in0.0 mm 0.00 in0.0 mm 0.00 in0.0 mm
04:38 PM 10.3°F-12.1°C -2.9°F-19.4°C 55% 5.0 mph W8.0 kmh W -- 30.46 in1031.5 mb 0.00 in0.0 mm 0.00 in0.0 mm 0.00 in0.0 mm
04:39 PM 10.3°F-12.1°C -2.9°F-19.4°C 55% 7.0 mph W11.3 kmh W -- 30.46 in1031.5 mb 0.00 in0.0 mm 0.00 in0.0 mm 0.00 in0.0 mm
04:40 PM 10.3°F-12.1°C -3.3°F-19.6°C 54% 10.0 mph WNW16.1 kmh WNW -- 30.46 in1031.5 mb 0.00 in0.0 mm 0.00 in0.0 mm 0.00 in0.0 mm
04:41 PM 10.3°F-12.1°C -3.3°F-19.6°C 54% 5.0 mph W8.0 kmh W -- 30.45 in1031.2 mb 0.00 in0.0 mm 0.00 in0.0 mm 0.00 in0.0 mm
04:42 PM 10.1°F-12.2°C -3.4°F-19.7°C 54% 9.0 mph W14.5 kmh W -- 30.46 in1031.5 mb 0.00 in0.0 mm 0.00 in0.0 mm 0.00 in0.0 mm
04:43 PM 10.1°F-12.2°C -3.4°F-19.7°C 54% 5.0 mph W8.0 kmh W -- 30.46 in1031.5 mb 0.00 in0.0 mm 0.00 in0.0 mm 0.00 in0.0 mm
04:44 PM 10.1°F-12.2°C -3.1°F-19.5°C 55% 7.0 mph W11.3 kmh W -- 30.46 in1031.5 mb 0.00 in0.0 mm 0.00 in0.0 mm 0.00 in0.0 mm
04:45 PM 10.0°F-12.2°C -3.1°F-19.5°C 55% 8.0 mph W12.9 kmh W -- 30.46 in1031.5 mb 0.00 in0.0 mm 0.00 in0.0 mm 0.00 in0.0 mm
04:46 PM 10.0°F-12.2°C -3.1°F-19.5°C 55% 7.0 mph W11.3 kmh W -- 30.46 in1031.5 mb 0.00 in0.0 mm 0.00 in0.0 mm 0.00 in0.0 mm
04:47 PM 10.0°F-12.2°C -3.1°F-19.5°C 55% 6.0 mph W9.7 kmh W -- 30.46 in1031.5 mb 0.00 in0.0 mm 0.00 in0.0 mm 0.00 in0.0 mm
04:48 PM 10.0°F-12.2°C -3.1°F-19.5°C 55% 7.0 mph W11.3 kmh W -- 30.46 in1031.5 mb 0.00 in0.0 mm 0.00 in0.0 mm 0.00 in0.0 mm
04:49 PM 10.1°F-12.2°C -3.4°F-19.7°C 54% 7.0 mph WNW11.3 kmh WNW -- 30.46 in1031.5 mb 0.00 in0.0 mm 0.00 in0.0 mm 0.00 in0.0 mm
04:50 PM 10.0°F-12.2°C -3.4°F-19.7°C 54% 7.0 mph W11.3 kmh W -- 30.46 in1031.5 mb 0.00 in0.0 mm 0.00 in0.0 mm 0.00 in0.0 mm
04:51 PM 10.0°F-12.2°C -3.4°F-19.7°C 54% 6.0 mph WNW9.7 kmh WNW -- 30.46 in1031.5 mb 0.00 in0.0 mm 0.00 in0.0 mm 0.00 in0.0 mm
04:52 PM 10.0°F-12.2°C -3.4°F-19.7°C 54% 6.0 mph W9.7 kmh W -- 30.46 in1031.5 mb 0.00 in0.0 mm 0.00 in0.0 mm 0.00 in0.0 mm
04:53 PM 10.0°F-12.2°C -3.4°F-19.7°C 54% 7.0 mph W11.3 kmh W -- 30.46 in1031.5 mb 0.00 in0.0 mm 0.00 in0.0 mm 0.00 in0.0 mm
04:54 PM 10.0°F-12.2°C -3.4°F-19.7°C 54% 4.0 mph W6.4 kmh W -- 30.46 in1031.5 mb 0.00 in0.0 mm 0.00 in0.0 mm 0.00 in0.0 mm
04:55 PM 10.1°F-12.2°C -3.1°F-19.5°C 55% 6.0 mph WSW9.7 kmh WSW -- 30.46 in1031.5 mb 0.00 in0.0 mm 0.00 in0.0 mm 0.00 in0.0 mm
04:56 PM 10.1°F-12.2°C -3.1°F-19.5°C 55% 7.0 mph WNW11.3 kmh WNW -- 30.46 in1031.5 mb 0.00 in0.0 mm 0.00 in0.0 mm 0.00 in0.0 mm
04:57 PM 10.1°F-12.2°C -3.4°F-19.7°C 54% 5.0 mph W8.0 kmh W -- 30.46 in1031.5 mb 0.00 in0.0 mm 0.00 in0.0 mm 0.00 in0.0 mm
04:58 PM 10.1°F-12.2°C -3.1°F-19.5°C 55% 7.0 mph SSW11.3 kmh SSW -- 30.46 in1031.5 mb 0.00 in0.0 mm 0.00 in0.0 mm 0.00 in0.0 mm
04:59 PM 10.1°F-12.2°C -3.1°F-19.5°C 55% 7.0 mph W11.3 kmh W -- 30.46 in1031.5 mb 0.00 in0.0 mm 0.00 in0.0 mm 0.00 in0.0 mm
05:00 PM 10.3°F-12.1°C -3.3°F-19.6°C 54% 5.0 mph W8.0 kmh W -- 30.46 in1031.5 mb 0.00 in0.0 mm 0.00 in0.0 mm 0.00 in0.0 mm
05:01 PM 10.1°F-12.2°C -3.4°F-19.7°C 54% 9.0 mph W14.5 kmh W -- 30.46 in1031.5 mb 0.00 in0.0 mm 0.00 in0.0 mm 0.00 in0.0 mm
05:02 PM 10.1°F-12.2°C -3.4°F-19.7°C 54% 4.0 mph W6.4 kmh W -- 30.46 in1031.5 mb 0.00 in0.0 mm 0.00 in0.0 mm 0.00 in0.0 mm
05:03 PM 10.1°F-12.2°C -3.4°F-19.7°C 54% 7.0 mph W11.3 kmh W -- 30.46 in1031.5 mb 0.00 in0.0 mm 0.00 in0.0 mm 0.00 in0.0 mm
05:04 PM 10.0°F-12.2°C -3.4°F-19.7°C 54% 3.0 mph W4.8 kmh W -- 30.46 in1031.5 mb 0.00 in0.0 mm 0.00 in0.0 mm 0.00 in0.0 mm
05:05 PM 10.0°F-12.2°C -3.4°F-19.7°C 54% 6.0 mph W9.7 kmh W -- 30.46 in1031.5 mb 0.00 in0.0 mm 0.00 in0.0 mm 0.00 in0.0 mm
05:06 PM 10.0°F-12.2°C -3.1°F-19.5°C 55% 5.0 mph W8.0 kmh W -- 30.46 in1031.5 mb 0.00 in0.0 mm 0.00 in0.0 mm 0.00 in0.0 mm
05:07 PM 10.1°F-12.2°C -3.1°F-19.5°C 55% 4.0 mph WNW6.4 kmh WNW -- 30.46 in1031.5 mb 0.00 in0.0 mm 0.00 in0.0 mm 0.00 in0.0 mm
05:08 PM 10.1°F-12.2°C -3.1°F-19.5°C 55% 5.0 mph W8.0 kmh W -- 30.46 in1031.5 mb 0.00 in0.0 mm 0.00 in0.0 mm 0.00 in0.0 mm
05:09 PM 10.1°F-12.2°C -3.1°F-19.5°C 55% 4.0 mph W6.4 kmh W -- 30.46 in1031.5 mb 0.00 in0.0 mm 0.00 in0.0 mm 0.00 in0.0 mm
05:10 PM 10.0°F-12.2°C -3.1°F-19.5°C 55% 5.0 mph WNW8.0 kmh WNW -- 30.46 in1031.5 mb 0.00 in0.0 mm 0.00 in0.0 mm 0.00 in0.0 mm
05:11 PM 10.1°F-12.2°C -3.1°F-19.5°C 55% 4.0 mph WNW6.4 kmh WNW -- 30.46 in1031.5 mb 0.00 in0.0 mm 0.00 in0.0 mm 0.00 in0.0 mm
05:12 PM 10.3°F-12.1°C -2.9°F-19.4°C 55% 5.0 mph W8.0 kmh W -- 30.46 in1031.5 mb 0.00 in0.0 mm 0.00 in0.0 mm 0.00 in0.0 mm
05:13 PM 10.3°F-12.1°C -3.3°F-19.6°C 54% 6.0 mph W9.7 kmh W -- 30.46 in1031.5 mb 0.00 in0.0 mm 0.00 in0.0 mm 0.00 in0.0 mm
05:14 PM 10.1°F-12.2°C -3.4°F-19.7°C 54% 6.0 mph WNW9.7 kmh WNW -- 30.46 in1031.5 mb 0.00 in0.0 mm 0.00 in0.0 mm 0.00 in0.0 mm
05:15 PM 10.3°F-12.1°C -3.3°F-19.6°C 54% 6.0 mph WNW9.7 kmh WNW -- 30.46 in1031.5 mb 0.00 in0.0 mm 0.00 in0.0 mm 0.00 in0.0 mm
05:16 PM 10.1°F-12.2°C -3.4°F-19.7°C 54% 6.0 mph W9.7 kmh W -- 30.46 in1031.5 mb 0.00 in0.0 mm 0.00 in0.0 mm 0.00 in0.0 mm
05:17 PM 10.1°F-12.2°C -3.4°F-19.7°C 54% 3.0 mph W4.8 kmh W -- 30.46 in1031.5 mb 0.00 in0.0 mm 0.00 in0.0 mm 0.00 in0.0 mm
05:18 PM 10.0°F-12.2°C -3.4°F-19.7°C 54% 5.0 mph W8.0 kmh W -- 30.46 in1031.5 mb 0.00 in0.0 mm 0.00 in0.0 mm 0.00 in0.0 mm
05:19 PM 10.0°F-12.2°C -3.1°F-19.5°C 55% 3.0 mph W4.8 kmh W -- 30.46 in1031.5 mb 0.00 in0.0 mm 0.00 in0.0 mm 0.00 in0.0 mm
05:20 PM 10.0°F-12.2°C -3.1°F-19.5°C 55% 5.0 mph W8.0 kmh W -- 30.46 in1031.5 mb 0.00 in0.0 mm 0.00 in0.0 mm 0.00 in0.0 mm
05:21 PM 10.0°F-12.2°C -3.1°F-19.5°C 55% 4.0 mph NW6.4 kmh NW -- 30.46 in1031.5 mb 0.00 in0.0 mm 0.00 in0.0 mm 0.00 in0.0 mm
05:22 PM 10.0°F-12.2°C -3.1°F-19.5°C 55% 6.0 mph W9.7 kmh W -- 30.46 in1031.5 mb 0.00 in0.0 mm 0.00 in0.0 mm 0.00 in0.0 mm
05:23 PM 10.0°F-12.2°C -3.1°F-19.5°C 55% 4.0 mph WNW6.4 kmh WNW -- 30.46 in1031.5 mb 0.00 in0.0 mm 0.00 in0.0 mm 0.00 in0.0 mm
05:24 PM 10.1°F-12.2°C -3.1°F-19.5°C 55% 4.0 mph W6.4 kmh W -- 30.46 in1031.5 mb 0.00 in0.0 mm 0.00 in0.0 mm 0.00 in0.0 mm
05:25 PM 10.0°F-12.2°C -3.1°F-19.5°C 55% 4.0 mph W6.4 kmh W -- 30.46 in1031.5 mb 0.00 in0.0 mm 0.00 in0.0 mm 0.00 in0.0 mm
05:26 PM 10.0°F-12.2°C -3.1°F-19.5°C 55% 4.0 mph W6.4 kmh W -- 30.45 in1031.2 mb 0.00 in0.0 mm 0.00 in0.0 mm 0.00 in0.0 mm
05:27 PM 10.1°F-12.2°C -3.1°F-19.5°C 55% 4.0 mph W6.4 kmh W -- 30.46 in1031.5 mb 0.00 in0.0 mm 0.00 in0.0 mm 0.00 in0.0 mm
05:28 PM 10.3°F-12.1°C -2.9°F-19.4°C 55% 5.0 mph W8.0 kmh W -- 30.46 in1031.5 mb 0.00 in0.0 mm 0.00 in0.0 mm 0.00 in0.0 mm
05:29 PM 10.0°F-12.2°C -3.1°F-19.5°C 55% 4.0 mph W6.4 kmh W -- 30.46 in1031.5 mb 0.00 in0.0 mm 0.00 in0.0 mm 0.00 in0.0 mm
05:30 PM 10.0°F-12.2°C -3.1°F-19.5°C 55% 5.0 mph W8.0 kmh W -- 30.46 in1031.5 mb 0.00 in0.0 mm 0.00 in0.0 mm 0.00 in0.0 mm
05:31 PM 9.8°F-12.3°C -3.2°F-19.6°C 55% 5.0 mph W8.0 kmh W -- 30.46 in1031.5 mb 0.00 in0.0 mm 0.00 in0.0 mm 0.00 in0.0 mm
05:34 PM 9.5°F-12.5°C -3.6°F-19.8°C 55% 5.0 mph W8.0 kmh W -- 30.46 in1031.5 mb 0.00 in0.0 mm 0.00 in0.0 mm 0.00 in0.0 mm
05:36 PM 9.0°F-12.8°C -4.1°F-20.1°C 55% 5.0 mph W8.0 kmh W -- 30.46 in1031.5 mb 0.00 in0.0 mm 0.00 in0.0 mm 0.00 in0.0 mm
05:37 PM 9.0°F-12.8°C -4.1°F-20.1°C 55% 4.0 mph W6.4 kmh W -- 30.46 in1031.5 mb 0.00 in0.0 mm 0.00 in0.0 mm 0.00 in0.0 mm
05:38 PM 8.8°F-12.9°C -4.2°F-20.1°C 55% 5.0 mph W8.0 kmh W -- 30.46 in1031.5 mb 0.00 in0.0 mm 0.00 in0.0 mm 0.00 in0.0 mm
05:39 PM 8.6°F-13.0°C -4.4°F-20.2°C 55% 4.0 mph W6.4 kmh W -- 30.46 in1031.5 mb 0.00 in0.0 mm 0.00 in0.0 mm 0.00 in0.0 mm
05:40 PM 8.6°F-13.0°C -4.4°F-20.2°C 55% 5.0 mph W8.0 kmh W -- 30.46 in1031.5 mb 0.00 in0.0 mm 0.00 in0.0 mm 0.00 in0.0 mm
05:41 PM 8.3°F-13.2°C -4.7°F-20.4°C 55% 4.0 mph W6.4 kmh W -- 30.46 in1031.5 mb 0.00 in0.0 mm 0.00 in0.0 mm 0.00 in0.0 mm
05:42 PM 8.1°F-13.3°C -4.9°F-20.5°C 55% 5.0 mph W8.0 kmh W -- 30.45 in1031.2 mb 0.00 in0.0 mm 0.00 in0.0 mm 0.00 in0.0 mm
05:43 PM 8.1°F-13.3°C -4.9°F-20.5°C 55% 4.0 mph W6.4 kmh W -- 30.46 in1031.5 mb 0.00 in0.0 mm 0.00 in0.0 mm 0.00 in0.0 mm
05:44 PM 8.1°F-13.3°C -4.5°F-20.3°C 56% 4.0 mph W6.4 kmh W -- 30.45 in1031.2 mb 0.00 in0.0 mm 0.00 in0.0 mm 0.00 in0.0 mm
05:45 PM 8.1°F-13.3°C -4.5°F-20.3°C 56% 5.0 mph W8.0 kmh W -- 30.46 in1031.5 mb 0.00 in0.0 mm 0.00 in0.0 mm 0.00 in0.0 mm
05:46 PM 8.1°F-13.3°C -4.5°F-20.3°C 56% 4.0 mph W6.4 kmh W -- 30.46 in1031.5 mb 0.00 in0.0 mm 0.00 in0.0 mm 0.00 in0.0 mm
05:47 PM 7.6°F-13.6°C -5.0°F-20.6°C 56% 5.0 mph W8.0 kmh W -- 30.45 in1031.2 mb 0.00 in0.0 mm 0.00 in0.0 mm 0.00 in0.0 mm
05:49 PM 7.9°F-13.4°C -4.7°F-20.4°C 56% 4.0 mph W6.4 kmh W -- 30.46 in1031.5 mb 0.00 in0.0 mm 0.00 in0.0 mm 0.00 in0.0 mm
05:50 PM 7.6°F-13.6°C -5.0°F-20.6°C 56% 5.0 mph W8.0 kmh W -- 30.46 in1031.5 mb 0.00 in0.0 mm 0.00 in0.0 mm 0.00 in0.0 mm
05:52 PM 7.9°F-13.4°C -4.7°F-20.4°C 56% 5.0 mph W8.0 kmh W -- 30.45 in1031.2 mb 0.00 in0.0 mm 0.00 in0.0 mm 0.00 in0.0 mm
05:53 PM 7.5°F-13.6°C -5.0°F-20.6°C 56% 5.0 mph W8.0 kmh W -- 30.45 in1031.2 mb 0.00 in0.0 mm 0.00 in0.0 mm 0.00 in0.0 mm
05:54 PM 7.5°F-13.6°C -5.0°F-20.6°C 56% 4.0 mph W6.4 kmh W -- 30.45 in1031.2 mb 0.00 in0.0 mm 0.00 in0.0 mm 0.00 in0.0 mm
05:55 PM 7.1°F-13.8°C -4.6°F-20.3°C 58% 4.0 mph W6.4 kmh W -- 30.46 in1031.5 mb 0.00 in0.0 mm 0.00 in0.0 mm 0.00 in0.0 mm
05:56 PM 7.0°F-13.9°C -4.8°F-20.4°C 58% 3.0 mph W4.8 kmh W -- 30.46 in1031.5 mb 0.00 in0.0 mm 0.00 in0.0 mm 0.00 in0.0 mm
05:57 PM 7.0°F-13.9°C -4.5°F-20.3°C 59% 4.0 mph W6.4 kmh W -- 30.45 in1031.2 mb 0.00 in0.0 mm 0.00 in0.0 mm 0.00 in0.0 mm
05:59 PM 6.8°F-14.0°C -4.6°F-20.3°C 59% 4.0 mph W6.4 kmh W -- 30.45 in1031.2 mb 0.00 in0.0 mm 0.00 in0.0 mm 0.00 in0.0 mm
06:01 PM 6.5°F-14.2°C -5.0°F-20.6°C 59% 4.0 mph W6.4 kmh W -- 30.45 in1031.2 mb 0.00 in0.0 mm 0.00 in0.0 mm 0.00 in0.0 mm
06:02 PM 6.5°F-14.2°C -5.0°F-20.6°C 59% 4.0 mph W6.4 kmh W -- 30.46 in1031.5 mb 0.00 in0.0 mm 0.00 in0.0 mm 0.00 in0.0 mm
06:03 PM 6.5°F-14.2°C -5.0°F-20.6°C 59% 5.0 mph W8.0 kmh W -- 30.45 in1031.2 mb 0.00 in0.0 mm 0.00 in0.0 mm 0.00 in0.0 mm
06:05 PM 6.5°F-14.2°C -5.0°F-20.6°C 59% 4.0 mph W6.4 kmh W -- 30.45 in1031.2 mb 0.00 in0.0 mm 0.00 in0.0 mm 0.00 in0.0 mm
06:06 PM 6.3°F-14.3°C -5.1°F-20.6°C 59% 4.0 mph W6.4 kmh W -- 30.46 in1031.5 mb 0.00 in0.0 mm 0.00 in0.0 mm 0.00 in0.0 mm
06:07 PM 6.3°F-14.3°C -5.1°F-20.6°C 59% 4.0 mph W6.4 kmh W -- 30.45 in1031.2 mb 0.00 in0.0 mm 0.00 in0.0 mm 0.00 in0.0 mm
06:10 PM 6.1°F-14.4°C -5.3°F-20.7°C 59% 4.0 mph W6.4 kmh W -- 30.45 in1031.2 mb 0.00 in0.0 mm 0.00 in0.0 mm 0.00 in0.0 mm
06:11 PM 5.9°F-14.5°C -5.1°F-20.6°C 60% 3.0 mph W4.8 kmh W -- 30.44 in1030.8 mb 0.00 in0.0 mm 0.00 in0.0 mm 0.00 in0.0 mm
06:12 PM 5.9°F-14.5°C -5.1°F-20.6°C 60% 4.0 mph W6.4 kmh W -- 30.45 in1031.2 mb 0.00 in0.0 mm 0.00 in0.0 mm 0.00 in0.0 mm
06:13 PM 5.9°F-14.5°C -5.1°F-20.6°C 60% 4.0 mph W6.4 kmh W -- 30.44 in1030.8 mb 0.00 in0.0 mm 0.00 in0.0 mm 0.00 in0.0 mm
06:14 PM 5.9°F-14.5°C -5.1°F-20.6°C 60% 5.0 mph W8.0 kmh W -- 30.45 in1031.2 mb 0.00 in0.0 mm 0.00 in0.0 mm 0.00 in0.0 mm
06:15 PM 5.9°F-14.5°C -5.1°F-20.6°C 60% 4.0 mph W6.4 kmh W -- 30.44 in1030.8 mb 0.00 in0.0 mm 0.00 in0.0 mm 0.00 in0.0 mm
06:16 PM 5.9°F-14.5°C -5.1°F-20.6°C 60% 4.0 mph W6.4 kmh W -- 30.45 in1031.2 mb 0.00 in0.0 mm 0.00 in0.0 mm 0.00 in0.0 mm
06:17 PM 5.6°F-14.7°C -5.5°F-20.8°C 60% 3.0 mph W4.8 kmh W -- 30.44 in1030.8 mb 0.00 in0.0 mm 0.00 in0.0 mm 0.00 in0.0 mm
06:18 PM 5.6°F-14.7°C -5.5°F-20.8°C 60% 4.0 mph W6.4 kmh W -- 30.44 in1030.8 mb 0.00 in0.0 mm 0.00 in0.0 mm 0.00 in0.0 mm
06:19 PM 5.5°F-14.7°C -5.5°F-20.8°C 60% 3.0 mph W4.8 kmh W -- 30.44 in1030.8 mb 0.00 in0.0 mm 0.00 in0.0 mm 0.00 in0.0 mm
06:20 PM 5.4°F-14.8°C -5.6°F-20.9°C 60% 4.0 mph W6.4 kmh W -- 30.44 in1030.8 mb 0.00 in0.0 mm 0.00 in0.0 mm 0.00 in0.0 mm
06:22 PM 5.4°F-14.8°C -5.6°F-20.9°C 60% 5.0 mph W8.0 kmh W -- 30.44 in1030.8 mb 0.00 in0.0 mm 0.00 in0.0 mm 0.00 in0.0 mm
06:23 PM 5.4°F-14.8°C -5.6°F-20.9°C 60% 5.0 mph W8.0 kmh W -- 30.45 in1031.2 mb 0.00 in0.0 mm 0.00 in0.0 mm 0.00 in0.0 mm
06:24 PM 5.1°F-14.9°C -5.8°F-21.0°C 60% 5.0 mph W8.0 kmh W -- 30.44 in1030.8 mb 0.00 in0.0 mm 0.00 in0.0 mm 0.00 in0.0 mm
06:25 PM 4.8°F-15.1°C -6.1°F-21.2°C 60% 4.0 mph W6.4 kmh W -- 30.44 in1030.8 mb 0.00 in0.0 mm 0.00 in0.0 mm 0.00 in0.0 mm
06:26 PM 4.5°F-15.3°C -6.1°F-21.2°C 61% 4.0 mph W6.4 kmh W -- 30.44 in1030.8 mb 0.00 in0.0 mm 0.00 in0.0 mm 0.00 in0.0 mm
06:29 PM 4.5°F-15.3°C -6.1°F-21.2°C 61% 3.0 mph W4.8 kmh W -- 30.45 in1031.2 mb 0.00 in0.0 mm 0.00 in0.0 mm 0.00 in0.0 mm
06:30 PM 4.0°F-15.6°C -6.6°F-21.4°C 61% 3.0 mph W4.8 kmh W -- 30.45 in1031.2 mb 0.00 in0.0 mm 0.00 in0.0 mm 0.00 in0.0 mm
06:31 PM 3.5°F-15.8°C -7.0°F-21.7°C 61% 3.0 mph W4.8 kmh W -- 30.44 in1030.8 mb 0.00 in0.0 mm 0.00 in0.0 mm 0.00 in0.0 mm
06:32 PM 3.5°F-15.8°C -6.3°F-21.3°C 63% 4.0 mph W6.4 kmh W -- 30.44 in1030.8 mb 0.00 in0.0 mm 0.00 in0.0 mm 0.00 in0.0 mm
06:33 PM 4.0°F-15.6°C -6.0°F-21.1°C 63% 4.0 mph W6.4 kmh W -- 30.44 in1030.8 mb 0.00 in0.0 mm 0.00 in0.0 mm 0.00 in0.0 mm
06:34 PM 4.5°F-15.3°C -6.1°F-21.2°C 61% 4.0 mph W6.4 kmh W -- 30.44 in1030.8 mb 0.00 in0.0 mm 0.00 in0.0 mm 0.00 in0.0 mm
06:36 PM 4.0°F-15.6°C -6.6°F-21.4°C 61% 4.0 mph W6.4 kmh W -- 30.44 in1030.8 mb 0.00 in0.0 mm 0.00 in0.0 mm 0.00 in0.0 mm
06:37 PM 4.3°F-15.4°C -6.3°F-21.3°C 61% 4.0 mph W6.4 kmh W -- 30.44 in1030.8 mb 0.00 in0.0 mm 0.00 in0.0 mm 0.00 in0.0 mm
06:39 PM 4.0°F-15.6°C -6.6°F-21.4°C 61% 4.0 mph W6.4 kmh W -- 30.44 in1030.8 mb 0.00 in0.0 mm 0.00 in0.0 mm 0.00 in0.0 mm
06:40 PM 3.7°F-15.7°C -6.8°F-21.6°C 61% 4.0 mph W6.4 kmh W -- 30.44 in1030.8 mb 0.00 in0.0 mm 0.00 in0.0 mm 0.00 in0.0 mm
06:42 PM 3.5°F-15.8°C -7.0°F-21.7°C 61% 4.0 mph W6.4 kmh W -- 30.44 in1030.8 mb 0.00 in0.0 mm 0.00 in0.0 mm 0.00 in0.0 mm
06:45 PM 3.4°F-15.9°C -7.2°F-21.8°C 61% 4.0 mph W6.4 kmh W -- 30.44 in1030.8 mb 0.00 in0.0 mm 0.00 in0.0 mm 0.00 in0.0 mm
06:46 PM 3.1°F-16.1°C -7.5°F-21.9°C 61% 4.0 mph W6.4 kmh W -- 30.44 in1030.8 mb 0.00 in0.0 mm 0.00 in0.0 mm 0.00 in0.0 mm
06:47 PM 3.2°F-16.0°C -7.0°F-21.7°C 62% 5.0 mph W8.0 kmh W -- 30.44 in1030.8 mb 0.00 in0.0 mm 0.00 in0.0 mm 0.00 in0.0 mm
06:48 PM 3.4°F-15.9°C -7.2°F-21.8°C 61% 5.0 mph W8.0 kmh W -- 30.44 in1030.8 mb 0.00 in0.0 mm 0.00 in0.0 mm 0.00 in0.0 mm
06:49 PM 3.5°F-15.8°C -7.0°F-21.7°C 61% 5.0 mph W8.0 kmh W -- 30.44 in1030.8 mb 0.00 in0.0 mm 0.00 in0.0 mm 0.00 in0.0 mm
06:50 PM 3.5°F-15.8°C -7.0°F-21.7°C 61% 6.0 mph W9.7 kmh W -- 30.44 in1030.8 mb 0.00 in0.0 mm 0.00 in0.0 mm 0.00 in0.0 mm
06:51 PM 3.7°F-15.7°C -6.8°F-21.6°C 61% 5.0 mph W8.0 kmh W -- 30.44 in1030.8 mb 0.00 in0.0 mm 0.00 in0.0 mm 0.00 in0.0 mm
06:52 PM 3.9°F-15.6°C -6.6°F-21.4°C 61% 5.0 mph W8.0 kmh W -- 30.44 in1030.8 mb 0.00 in0.0 mm 0.00 in0.0 mm 0.00 in0.0 mm
06:54 PM 3.9°F-15.6°C -6.6°F-21.4°C 61% 6.0 mph W9.7 kmh W -- 30.44 in1030.8 mb 0.00 in0.0 mm 0.00 in0.0 mm 0.00 in0.0 mm
06:55 PM 3.9°F-15.6°C -6.6°F-21.4°C 61% 5.0 mph W8.0 kmh W -- 30.44 in1030.8 mb 0.00 in0.0 mm 0.00 in0.0 mm 0.00 in0.0 mm
06:58 PM 3.9°F-15.6°C -6.6°F-21.4°C 61% 6.0 mph W9.7 kmh W -- 30.44 in1030.8 mb 0.00 in0.0 mm 0.00 in0.0 mm 0.00 in0.0 mm
06:59 PM 3.7°F-15.7°C -6.8°F-21.6°C 61% 5.0 mph W8.0 kmh W -- 30.44 in1030.8 mb 0.00 in0.0 mm 0.00 in0.0 mm 0.00 in0.0 mm
07:02 PM 3.7°F-15.7°C -6.8°F-21.6°C 61% 4.0 mph W6.4 kmh W -- 30.44 in1030.8 mb 0.00 in0.0 mm 0.00 in0.0 mm 0.00 in0.0 mm
07:03 PM 3.7°F-15.7°C -6.8°F-21.6°C 61% 5.0 mph W8.0 kmh W -- 30.44 in1030.8 mb 0.00 in0.0 mm 0.00 in0.0 mm 0.00 in0.0 mm
07:04 PM 3.7°F-15.7°C -6.8°F-21.6°C 61% 4.0 mph W6.4 kmh W -- 30.44 in1030.8 mb 0.00 in0.0 mm 0.00 in0.0 mm 0.00 in0.0 mm
07:05 PM 3.4°F-15.9°C -7.2°F-21.8°C 61% 3.0 mph W4.8 kmh W -- 30.44 in1030.8 mb 0.00 in0.0 mm 0.00 in0.0 mm 0.00 in0.0 mm
07:06 PM 3.1°F-16.1°C -7.5°F-21.9°C 61% 4.0 mph W6.4 kmh W -- 30.45 in1031.2 mb 0.00 in0.0 mm 0.00 in0.0 mm 0.00 in0.0 mm
07:07 PM 2.7°F-16.3°C -7.8°F-22.1°C 61% 4.0 mph W6.4 kmh W -- 30.44 in1030.8 mb 0.00 in0.0 mm 0.00 in0.0 mm 0.00 in0.0 mm
07:08 PM 2.5°F-16.4°C -8.0°F-22.2°C 61% 4.0 mph W6.4 kmh W -- 30.44 in1030.8 mb 0.00 in0.0 mm 0.00 in0.0 mm 0.00 in0.0 mm
07:09 PM 2.2°F-16.6°C -8.3°F-22.4°C 61% 4.0 mph W6.4 kmh W -- 30.43 in1030.5 mb 0.00 in0.0 mm 0.00 in0.0 mm 0.00 in0.0 mm
07:10 PM 1.9°F-16.7°C -8.5°F-22.5°C 61% 4.0 mph W6.4 kmh W -- 30.44 in1030.8 mb 0.00 in0.0 mm 0.00 in0.0 mm 0.00 in0.0 mm
07:11 PM 1.7°F-16.8°C -8.7°F-22.6°C 61% 5.0 mph W8.0 kmh W -- 30.43 in1030.5 mb 0.00 in0.0 mm 0.00 in0.0 mm 0.00 in0.0 mm
07:12 PM 1.3°F-17.1°C -8.5°F-22.5°C 63% 4.0 mph W6.4 kmh W -- 30.44 in1030.8 mb 0.00 in0.0 mm 0.00 in0.0 mm 0.00 in0.0 mm
07:13 PM 1.0°F-17.2°C -8.7°F-22.6°C 63% 4.0 mph W6.4 kmh W -- 30.43 in1030.5 mb 0.00 in0.0 mm 0.00 in0.0 mm 0.00 in0.0 mm
07:14 PM 0.9°F-17.3°C -8.9°F-22.7°C 63% 3.0 mph WNW4.8 kmh WNW -- 30.44 in1030.8 mb 0.00 in0.0 mm 0.00 in0.0 mm 0.00 in0.0 mm
07:15 PM 0.5°F-17.5°C -9.2°F-22.9°C 63% 4.0 mph W6.4 kmh W -- 30.44 in1030.8 mb 0.00 in0.0 mm 0.00 in0.0 mm 0.00 in0.0 mm
07:16 PM 0.1°F-17.7°C -9.6°F-23.1°C 63% 4.0 mph W6.4 kmh W -- 30.44 in1030.8 mb 0.00 in0.0 mm 0.00 in0.0 mm 0.00 in0.0 mm
07:17 PM 0.0°F-17.8°C -9.7°F-23.2°C 63% 4.0 mph W6.4 kmh W -- 30.43 in1030.5 mb 0.00 in0.0 mm 0.00 in0.0 mm 0.00 in0.0 mm
07:18 PM 0.0°F-17.8°C -9.1°F-22.8°C 65% 4.0 mph W6.4 kmh W -- 30.43 in1030.5 mb 0.00 in0.0 mm 0.00 in0.0 mm 0.00 in0.0 mm
07:19 PM 0.0°F-17.8°C -9.1°F-22.8°C 65% 5.0 mph W8.0 kmh W -- 30.44 in1030.8 mb 0.00 in0.0 mm 0.00 in0.0 mm 0.00 in0.0 mm
07:20 PM 0.0°F-17.8°C -9.1°F-22.8°C 65% 4.0 mph W6.4 kmh W -- 30.44 in1030.8 mb 0.00 in0.0 mm 0.00 in0.0 mm 0.00 in0.0 mm
07:22 PM -0.2°F-17.9°C -9.3°F-22.9°C 65% 4.0 mph W6.4 kmh W -- 30.44 in1030.8 mb 0.00 in0.0 mm 0.00 in0.0 mm 0.00 in0.0 mm
07:23 PM -0.6°F-18.1°C -9.6°F-23.1°C 65% 4.0 mph W6.4 kmh W -- 30.43 in1030.5 mb 0.00 in0.0 mm 0.00 in0.0 mm 0.00 in0.0 mm
07:24 PM -0.6°F-18.1°C -9.6°F-23.1°C 65% 4.0 mph W6.4 kmh W -- 30.44 in1030.8 mb 0.00 in0.0 mm 0.00 in0.0 mm 0.00 in0.0 mm
07:25 PM -0.8°F-18.2°C -9.8°F-23.2°C 65% 3.0 mph W4.8 kmh W -- 30.43 in1030.5 mb 0.00 in0.0 mm 0.00 in0.0 mm 0.00 in0.0 mm
07:26 PM -0.9°F-18.3°C -10.0°F-23.3°C 65% 4.0 mph W6.4 kmh W -- 30.43 in1030.5 mb 0.00 in0.0 mm 0.00 in0.0 mm 0.00 in0.0 mm
07:27 PM -0.9°F-18.3°C -9.6°F-23.1°C 66% 6.0 mph W9.7 kmh W -- 30.43 in1030.5 mb 0.00 in0.0 mm 0.00 in0.0 mm 0.00 in0.0 mm
07:28 PM -0.8°F-18.2°C -9.5°F-23.1°C 66% 4.0 mph W6.4 kmh W -- 30.43 in1030.5 mb 0.00 in0.0 mm 0.00 in0.0 mm 0.00 in0.0 mm
07:29 PM -0.8°F-18.2°C -9.5°F-23.1°C 66% 5.0 mph W8.0 kmh W -- 30.43 in1030.5 mb 0.00 in0.0 mm 0.00 in0.0 mm 0.00 in0.0 mm
07:30 PM -0.8°F-18.2°C -9.5°F-23.1°C 66% 4.0 mph W6.4 kmh W -- 30.43 in1030.5 mb 0.00 in0.0 mm 0.00 in0.0 mm 0.00 in0.0 mm
07:32 PM -0.8°F-18.2°C -9.5°F-23.1°C 66% 6.0 mph W9.7 kmh W -- 30.43 in1030.5 mb 0.00 in0.0 mm 0.00 in0.0 mm 0.00 in0.0 mm
07:33 PM -0.6°F-18.1°C -9.3°F-22.9°C 66% 5.0 mph W8.0 kmh W -- 30.43 in1030.5 mb 0.00 in0.0 mm 0.00 in0.0 mm 0.00 in0.0 mm
07:34 PM -0.6°F-18.1°C -9.3°F-22.9°C 66% 4.0 mph W6.4 kmh W -- 30.43 in1030.5 mb 0.00 in0.0 mm 0.00 in0.0 mm 0.00 in0.0 mm
07:36 PM -0.6°F-18.1°C -9.3°F-22.9°C 66% 5.0 mph W8.0 kmh W -- 30.43 in1030.5 mb 0.00 in0.0 mm 0.00 in0.0 mm 0.00 in0.0 mm
07:37 PM -0.6°F-18.1°C -9.3°F-22.9°C 66% 4.0 mph W6.4 kmh W -- 30.43 in1030.5 mb 0.00 in0.0 mm 0.00 in0.0 mm 0.00 in0.0 mm
07:38 PM -0.9°F-18.3°C -9.6°F-23.1°C 66% 4.0 mph W6.4 kmh W -- 30.43 in1030.5 mb 0.00 in0.0 mm 0.00 in0.0 mm 0.00 in0.0 mm
07:39 PM -1.1°F-18.4°C -9.8°F-23.2°C 66% 4.0 mph W6.4 kmh W -- 30.43 in1030.5 mb 0.00 in0.0 mm 0.00 in0.0 mm 0.00 in0.0 mm
07:40 PM -1.2°F-18.4°C -9.8°F-23.2°C 66% 4.0 mph W6.4 kmh W -- 30.43 in1030.5 mb 0.00 in0.0 mm 0.00 in0.0 mm 0.00 in0.0 mm
07:41 PM -1.5°F-18.6°C -10.2°F-23.4°C 66% 4.0 mph W6.4 kmh W -- 30.43 in1030.5 mb 0.00 in0.0 mm 0.00 in0.0 mm 0.00 in0.0 mm
07:42 PM -1.7°F-18.7°C -10.3°F-23.5°C 66% 4.0 mph W6.4 kmh W -- 30.43 in1030.5 mb 0.00 in0.0 mm 0.00 in0.0 mm 0.00 in0.0 mm
07:46 PM -1.7°F-18.7°C -9.7°F-23.2°C 68% 4.0 mph W6.4 kmh W -- 30.43 in1030.5 mb 0.00 in0.0 mm 0.00 in0.0 mm 0.00 in0.0 mm
07:47 PM -2.0°F-18.9°C -10.1°F-23.4°C 68% 3.0 mph W4.8 kmh W -- 30.43 in1030.5 mb 0.00 in0.0 mm 0.00 in0.0 mm 0.00 in0.0 mm
07:48 PM -2.0°F-18.9°C -10.1°F-23.4°C 68% 4.0 mph W6.4 kmh W -- 30.43 in1030.5 mb 0.00 in0.0 mm 0.00 in0.0 mm 0.00 in0.0 mm
07:50 PM -2.2°F-19.0°C -10.2°F-23.4°C 68% 4.0 mph W6.4 kmh W -- 30.43 in1030.5 mb 0.00 in0.0 mm 0.00 in0.0 mm 0.00 in0.0 mm
07:54 PM -2.2°F-19.0°C -10.2°F-23.4°C 68% 5.0 mph W8.0 kmh W -- 30.43 in1030.5 mb 0.00 in0.0 mm 0.00 in0.0 mm 0.00 in0.0 mm
07:55 PM -2.2°F-19.0°C -10.2°F-23.4°C 68% 3.0 mph WNW4.8 kmh WNW -- 30.43 in1030.5 mb 0.00 in0.0 mm 0.00 in0.0 mm 0.00 in0.0 mm
07:56 PM -2.2°F-19.0°C -10.2°F-23.4°C 68% 4.0 mph W6.4 kmh W -- 30.43 in1030.5 mb 0.00 in0.0 mm 0.00 in0.0 mm 0.00 in0.0 mm
07:58 PM -2.2°F-19.0°C -10.2°F-23.4°C 68% 4.0 mph W6.4 kmh W -- 30.44 in1030.8 mb 0.00 in0.0 mm 0.00 in0.0 mm 0.00 in0.0 mm
07:59 PM -2.2°F-19.0°C -10.2°F-23.4°C 68% 4.0 mph W6.4 kmh W -- 30.43 in1030.5 mb 0.00 in0.0 mm 0.00 in0.0 mm 0.00 in0.0 mm
08:04 PM -2.2°F-19.0°C -10.2°F-23.4°C 68% 3.0 mph WNW4.8 kmh WNW -- 30.43 in1030.5 mb 0.00 in0.0 mm 0.00 in0.0 mm 0.00 in0.0 mm
08:05 PM -2.4°F-19.1°C -10.4°F-23.6°C 68% 3.0 mph WNW4.8 kmh WNW -- 30.43 in1030.5 mb 0.00 in0.0 mm 0.00 in0.0 mm 0.00 in0.0 mm
08:06 PM -2.5°F-19.2°C -10.6°F-23.7°C 68% 3.0 mph W4.8 kmh W -- 30.43 in1030.5 mb 0.00 in0.0 mm 0.00 in0.0 mm 0.00 in0.0 mm
08:07 PM -2.5°F-19.2°C -10.6°F-23.7°C 68% 3.0 mph WNW4.8 kmh WNW -- 30.43 in1030.5 mb 0.00 in0.0 mm 0.00 in0.0 mm 0.00 in0.0 mm
08:08 PM -2.7°F-19.3°C -10.8°F-23.8°C 68% 3.0 mph WNW4.8 kmh WNW -- 30.43 in1030.5 mb 0.00 in0.0 mm 0.00 in0.0 mm 0.00 in0.0 mm
08:09 PM -2.7°F-19.3°C -10.8°F-23.8°C 68% 2.0 mph W3.2 kmh W -- 30.43 in1030.5 mb 0.00 in0.0 mm 0.00 in0.0 mm 0.00 in0.0 mm
08:10 PM -2.9°F-19.4°C -10.9°F-23.8°C 68% 3.0 mph WNW4.8 kmh WNW -- 30.43 in1030.5 mb 0.00 in0.0 mm 0.00 in0.0 mm 0.00 in0.0 mm
08:11 PM -3.0°F-19.4°C -10.9°F-23.8°C 68% 3.0 mph W4.8 kmh W -- 30.43 in1030.5 mb 0.00 in0.0 mm 0.00 in0.0 mm 0.00 in0.0 mm
08:12 PM -3.0°F-19.4°C -10.6°F-23.7°C 69% 3.0 mph W4.8 kmh W -- 30.43 in1030.5 mb 0.00 in0.0 mm 0.00 in0.0 mm 0.00 in0.0 mm
08:13 PM -3.2°F-19.6°C -11.0°F-23.9°C 69% 3.0 mph W4.8 kmh W -- 30.43 in1030.5 mb 0.00 in0.0 mm 0.00 in0.0 mm 0.00 in0.0 mm
08:15 PM -3.2°F-19.6°C -11.0°F-23.9°C 69% 3.0 mph WNW4.8 kmh WNW -- 30.43 in1030.5 mb 0.00 in0.0 mm 0.00 in0.0 mm 0.00 in0.0 mm
08:16 PM -3.5°F-19.7°C -11.2°F-24.0°C 69% 3.0 mph W4.8 kmh W -- 30.43 in1030.5 mb 0.00 in0.0 mm 0.00 in0.0 mm 0.00 in0.0 mm
08:17 PM -3.5°F-19.7°C -11.2°F-24.0°C 69% 3.0 mph WNW4.8 kmh WNW -- 30.43 in1030.5 mb 0.00 in0.0 mm 0.00 in0.0 mm 0.00 in0.0 mm
08:18 PM -3.5°F-19.7°C -10.9°F-23.8°C 70% 3.0 mph WNW4.8 kmh WNW -- 30.43 in1030.5 mb 0.00 in0.0 mm 0.00 in0.0 mm 0.00 in0.0 mm
08:19 PM -3.5°F-19.7°C -10.9°F-23.8°C 70% 3.0 mph W4.8 kmh W -- 30.43 in1030.5 mb 0.00 in0.0 mm 0.00 in0.0 mm 0.00 in0.0 mm
08:20 PM -3.5°F-19.7°C -10.9°F-23.8°C 70% 2.0 mph W3.2 kmh W -- 30.42 in1030.1 mb 0.00 in0.0 mm 0.00 in0.0 mm 0.00 in0.0 mm
08:21 PM -3.5°F-19.7°C -10.9°F-23.8°C 70% 2.0 mph W3.2 kmh W -- 30.43 in1030.5 mb 0.00 in0.0 mm 0.00 in0.0 mm 0.00 in0.0 mm
08:23 PM -3.5°F-19.7°C -10.9°F-23.8°C 70% 3.0 mph W4.8 kmh W -- 30.42 in1030.1 mb 0.00 in0.0 mm 0.00 in0.0 mm 0.00 in0.0 mm
08:25 PM -3.5°F-19.7°C -10.9°F-23.8°C 70% 2.0 mph W3.2 kmh W -- 30.43 in1030.5 mb 0.00 in0.0 mm 0.00 in0.0 mm 0.00 in0.0 mm
08:26 PM -3.5°F-19.7°C -10.9°F-23.8°C 70% 3.0 mph W4.8 kmh W -- 30.43 in1030.5 mb 0.00 in0.0 mm 0.00 in0.0 mm 0.00 in0.0 mm
08:27 PM -3.5°F-19.7°C -10.9°F-23.8°C 70% 2.0 mph W3.2 kmh W -- 30.43 in1030.5 mb 0.00 in0.0 mm 0.00 in0.0 mm 0.00 in0.0 mm
08:32 PM -3.2°F-19.6°C -10.4°F-23.6°C 71% 3.0 mph WNW4.8 kmh WNW -- 30.43 in1030.5 mb 0.00 in0.0 mm 0.00 in0.0 mm 0.00 in0.0 mm
08:33 PM -3.0°F-19.4°C -10.1°F-23.4°C 71% 2.0 mph W3.2 kmh W -- 30.43 in1030.5 mb 0.00 in0.0 mm 0.00 in0.0 mm 0.00 in0.0 mm
08:34 PM -2.9°F-19.4°C -10.1°F-23.4°C 71% 3.0 mph W4.8 kmh W -- 30.43 in1030.5 mb 0.00 in0.0 mm 0.00 in0.0 mm 0.00 in0.0 mm
08:35 PM -2.5°F-19.2°C -9.7°F-23.2°C 71% 3.0 mph W4.8 kmh W -- 30.43 in1030.5 mb 0.00 in0.0 mm 0.00 in0.0 mm 0.00 in0.0 mm
08:36 PM -2.4°F-19.1°C -9.5°F-23.1°C 71% 4.0 mph W6.4 kmh W -- 30.43 in1030.5 mb 0.00 in0.0 mm 0.00 in0.0 mm 0.00 in0.0 mm
08:37 PM -1.7°F-18.7°C -9.1°F-22.8°C 70% 4.0 mph W6.4 kmh W -- 30.43 in1030.5 mb 0.00 in0.0 mm 0.00 in0.0 mm 0.00 in0.0 mm
08:38 PM -1.7°F-18.7°C -9.1°F-22.8°C 70% 4.0 mph WNW6.4 kmh WNW -- 30.43 in1030.5 mb 0.00 in0.0 mm 0.00 in0.0 mm 0.00 in0.0 mm
08:39 PM -1.5°F-18.6°C -9.0°F-22.8°C 70% 4.0 mph W6.4 kmh W -- 30.43 in1030.5 mb 0.00 in0.0 mm 0.00 in0.0 mm 0.00 in0.0 mm
08:40 PM -0.8°F-18.2°C -8.9°F-22.7°C 68% 4.0 mph W6.4 kmh W -- 30.43 in1030.5 mb 0.00 in0.0 mm 0.00 in0.0 mm 0.00 in0.0 mm
08:41 PM -0.6°F-18.1°C -8.7°F-22.6°C 68% 4.0 mph WNW6.4 kmh WNW -- 30.43 in1030.5 mb 0.00 in0.0 mm 0.00 in0.0 mm 0.00 in0.0 mm
08:42 PM -0.4°F-18.0°C -9.1°F-22.8°C 66% 4.0 mph WSW6.4 kmh WSW -- 30.43 in1030.5 mb 0.00 in0.0 mm 0.00 in0.0 mm 0.00 in0.0 mm
08:43 PM -0.2°F-17.9°C -9.0°F-22.8°C 66% 4.0 mph WNW6.4 kmh WNW -- 30.43 in1030.5 mb 0.00 in0.0 mm 0.00 in0.0 mm 0.00 in0.0 mm
08:44 PM 0.0°F-17.8°C -8.8°F-22.7°C 66% 5.0 mph W8.0 kmh W -- 30.43 in1030.5 mb 0.00 in0.0 mm 0.00 in0.0 mm 0.00 in0.0 mm
08:45 PM 0.1°F-17.7°C -8.9°F-22.7°C 65% 6.0 mph W9.7 kmh W -- 30.43 in1030.5 mb 0.00 in0.0 mm 0.00 in0.0 mm 0.00 in0.0 mm
08:46 PM 0.3°F-17.6°C -8.8°F-22.7°C 65% 6.0 mph W9.7 kmh W -- 30.43 in1030.5 mb 0.00 in0.0 mm 0.00 in0.0 mm 0.00 in0.0 mm
08:47 PM 0.3°F-17.6°C -8.8°F-22.7°C 65% 4.0 mph W6.4 kmh W -- 30.43 in1030.5 mb 0.00 in0.0 mm 0.00 in0.0 mm 0.00 in0.0 mm
08:48 PM 0.5°F-17.5°C -8.6°F-22.6°C 65% 5.0 mph W8.0 kmh W -- 30.43 in1030.5 mb 0.00 in0.0 mm 0.00 in0.0 mm 0.00 in0.0 mm
08:49 PM 0.7°F-17.4°C -8.4°F-22.4°C 65% 4.0 mph W6.4 kmh W -- 30.43 in1030.5 mb 0.00 in0.0 mm 0.00 in0.0 mm 0.00 in0.0 mm
08:50 PM 0.7°F-17.4°C -8.4°F-22.4°C 65% 4.0 mph W6.4 kmh W -- 30.42 in1030.1 mb 0.00 in0.0 mm 0.00 in0.0 mm 0.00 in0.0 mm
08:52 PM 0.7°F-17.4°C -8.4°F-22.4°C 65% 3.0 mph W4.8 kmh W -- 30.43 in1030.5 mb 0.00 in0.0 mm 0.00 in0.0 mm 0.00 in0.0 mm
08:53 PM 0.5°F-17.5°C -8.6°F-22.6°C 65% 2.0 mph WNW3.2 kmh WNW -- 30.43 in1030.5 mb 0.00 in0.0 mm 0.00 in0.0 mm 0.00 in0.0 mm
08:54 PM 0.3°F-17.6°C -8.8°F-22.7°C 65% 2.0 mph W3.2 kmh W -- 30.43 in1030.5 mb 0.00 in0.0 mm 0.00 in0.0 mm 0.00 in0.0 mm
08:56 PM 0.1°F-17.7°C -8.9°F-22.7°C 65% 2.0 mph W3.2 kmh W -- 30.43 in1030.5 mb 0.00 in0.0 mm 0.00 in0.0 mm 0.00 in0.0 mm
08:57 PM 0.1°F-17.7°C -8.9°F-22.7°C 65% 3.0 mph W4.8 kmh W -- 30.43 in1030.5 mb 0.00 in0.0 mm 0.00 in0.0 mm 0.00 in0.0 mm
08:58 PM 0.0°F-17.8°C -9.1°F-22.8°C 65% 2.0 mph W3.2 kmh W -- 30.43 in1030.5 mb 0.00 in0.0 mm 0.00 in0.0 mm 0.00 in0.0 mm
08:59 PM 0.0°F-17.8°C -9.1°F-22.8°C 65% 3.0 mph W4.8 kmh W -- 30.43 in1030.5 mb 0.00 in0.0 mm 0.00 in0.0 mm 0.00 in0.0 mm
09:02 PM -0.2°F-17.9°C -9.3°F-22.9°C 65% 2.0 mph WNW3.2 kmh WNW -- 30.43 in1030.5 mb 0.00 in0.0 mm 0.00 in0.0 mm 0.00 in0.0 mm
09:03 PM -0.4°F-18.0°C -9.4°F-23.0°C 65% 3.0 mph W4.8 kmh W -- 30.43 in1030.5 mb 0.00 in0.0 mm 0.00 in0.0 mm 0.00 in0.0 mm
09:04 PM -0.6°F-18.1°C -9.6°F-23.1°C 65% 4.0 mph W6.4 kmh W -- 30.43 in1030.5 mb 0.00 in0.0 mm 0.00 in0.0 mm 0.00 in0.0 mm
09:06 PM -0.8°F-18.2°C -9.8°F-23.2°C 65% 4.0 mph W6.4 kmh W -- 30.43 in1030.5 mb 0.00 in0.0 mm 0.00 in0.0 mm 0.00 in0.0 mm
09:07 PM -0.8°F-18.2°C -9.8°F-23.2°C 65% 4.0 mph WNW6.4 kmh WNW -- 30.43 in1030.5 mb 0.00 in0.0 mm 0.00 in0.0 mm 0.00 in0.0 mm
09:08 PM -0.8°F-18.2°C -9.8°F-23.2°C 65% 4.0 mph W6.4 kmh W -- 30.42 in1030.1 mb 0.00 in0.0 mm 0.00 in0.0 mm 0.00 in0.0 mm
09:09 PM -0.8°F-18.2°C -9.8°F-23.2°C 65% 3.0 mph W4.8 kmh W -- 30.42 in1030.1 mb 0.00 in0.0 mm 0.00 in0.0 mm 0.00 in0.0 mm
09:10 PM -0.8°F-18.2°C -9.8°F-23.2°C 65% 3.0 mph W4.8 kmh W -- 30.43 in1030.5 mb 0.00 in0.0 mm 0.00 in0.0 mm 0.00 in0.0 mm
09:11 PM -0.8°F-18.2°C -9.8°F-23.2°C 65% 3.0 mph WNW4.8 kmh WNW -- 30.43 in1030.5 mb 0.00 in0.0 mm 0.00 in0.0 mm 0.00 in0.0 mm
09:12 PM -0.8°F-18.2°C -9.8°F-23.2°C 65% 2.0 mph W3.2 kmh W -- 30.43 in1030.5 mb 0.00 in0.0 mm 0.00 in0.0 mm 0.00 in0.0 mm
09:13 PM -0.9°F-18.3°C -10.0°F-23.3°C 65% 3.0 mph W4.8 kmh W -- 30.42 in1030.1 mb 0.00 in0.0 mm 0.00 in0.0 mm 0.00 in0.0 mm
09:15 PM -1.1°F-18.4°C -10.1°F-23.4°C 65% 2.0 mph W3.2 kmh W -- 30.42 in1030.1 mb 0.00 in0.0 mm 0.00 in0.0 mm 0.00 in0.0 mm
09:16 PM -1.1°F-18.4°C -10.1°F-23.4°C 65% 3.0 mph W4.8 kmh W -- 30.42 in1030.1 mb 0.00 in0.0 mm 0.00 in0.0 mm 0.00 in0.0 mm
09:17 PM -1.2°F-18.4°C -10.1°F-23.4°C 65% 2.0 mph W3.2 kmh W -- 30.42 in1030.1 mb 0.00 in0.0 mm 0.00 in0.0 mm 0.00 in0.0 mm
09:18 PM -1.5°F-18.6°C -10.5°F-23.6°C 65% 2.0 mph W3.2 kmh W -- 30.42 in1030.1 mb 0.00 in0.0 mm 0.00 in0.0 mm 0.00 in0.0 mm
09:19 PM -1.5°F-18.6°C -10.2°F-23.4°C 66% 1.0 mph NW1.6 kmh NW -- 30.42 in1030.1 mb 0.00 in0.0 mm 0.00 in0.0 mm 0.00 in0.0 mm
09:20 PM -1.5°F-18.6°C -10.2°F-23.4°C 66% 1.0 mph WNW1.6 kmh WNW -- 30.42 in1030.1 mb 0.00 in0.0 mm 0.00 in0.0 mm 0.00 in0.0 mm
09:21 PM -1.7°F-18.7°C -9.7°F-23.2°C 68% Calm Calm -- 30.42 in1030.1 mb 0.00 in0.0 mm 0.00 in0.0 mm 0.00 in0.0 mm
09:23 PM -1.7°F-18.7°C -9.7°F-23.2°C 68% 2.0 mph WNW3.2 kmh WNW -- 30.42 in1030.1 mb 0.00 in0.0 mm 0.00 in0.0 mm 0.00 in0.0 mm
09:24 PM -1.7°F-18.7°C -9.7°F-23.2°C 68% 1.0 mph WNW1.6 kmh WNW -- 30.42 in1030.1 mb 0.00 in0.0 mm 0.00 in0.0 mm 0.00 in0.0 mm
09:26 PM -1.7°F-18.7°C -9.4°F-23.0°C 69% 1.0 mph WNW1.6 kmh WNW -- 30.42 in1030.1 mb 0.00 in0.0 mm 0.00 in0.0 mm 0.00 in0.0 mm
09:28 PM -1.7°F-18.7°C -9.4°F-23.0°C 69% 1.0 mph W1.6 kmh W -- 30.42 in1030.1 mb 0.00 in0.0 mm 0.00 in0.0 mm 0.00 in0.0 mm
09:29 PM -2.0°F-18.9°C -9.8°F-23.2°C 69% Calm Calm -- 30.42 in1030.1 mb 0.00 in0.0 mm 0.00 in0.0 mm 0.00 in0.0 mm
09:31 PM -2.0°F-18.9°C -9.8°F-23.2°C 69% 1.0 mph NW1.6 kmh NW -- 30.42 in1030.1 mb 0.00 in0.0 mm 0.00 in0.0 mm 0.00 in0.0 mm
09:32 PM -2.2°F-19.0°C -9.9°F-23.3°C 69% Calm Calm -- 30.42 in1030.1 mb 0.00 in0.0 mm 0.00 in0.0 mm 0.00 in0.0 mm
09:33 PM -2.2°F-19.0°C -9.9°F-23.3°C 69% Calm Calm -- 30.42 in1030.1 mb 0.00 in0.0 mm 0.00 in0.0 mm 0.00 in0.0 mm
09:34 PM -2.4°F-19.1°C -10.1°F-23.4°C 69% Calm Calm -- 30.42 in1030.1 mb 0.00 in0.0 mm 0.00 in0.0 mm 0.00 in0.0 mm
09:35 PM -2.4°F-19.1°C -9.8°F-23.2°C 70% Calm Calm -- 30.41 in1029.8 mb 0.00 in0.0 mm 0.00 in0.0 mm 0.00 in0.0 mm
09:36 PM -2.5°F-19.2°C -10.0°F-23.3°C 70% Calm Calm -- 30.41 in1029.8 mb 0.00 in0.0 mm 0.00 in0.0 mm 0.00 in0.0 mm
09:38 PM -2.7°F-19.3°C -10.2°F-23.4°C 70% Calm Calm -- 30.42 in1030.1 mb 0.00 in0.0 mm 0.00 in0.0 mm 0.00 in0.0 mm
09:39 PM -2.7°F-19.3°C -10.2°F-23.4°C 70% Calm Calm -- 30.41 in1029.8 mb 0.00 in0.0 mm 0.00 in0.0 mm 0.00 in0.0 mm
09:41 PM -2.7°F-19.3°C -10.2°F-23.4°C 70% 1.0 mph W1.6 kmh W -- 30.42 in1030.1 mb 0.00 in0.0 mm 0.00 in0.0 mm 0.00 in0.0 mm
09:42 PM -2.7°F-19.3°C -10.2°F-23.4°C 70% 2.0 mph W3.2 kmh W -- 30.41 in1029.8 mb 0.00 in0.0 mm 0.00 in0.0 mm 0.00 in0.0 mm
09:43 PM -2.7°F-19.3°C -10.2°F-23.4°C 70% 3.0 mph W4.8 kmh W -- 30.41 in1029.8 mb 0.00 in0.0 mm 0.00 in0.0 mm 0.00 in0.0 mm
09:44 PM -2.7°F-19.3°C -10.2°F-23.4°C 70% 1.0 mph W1.6 kmh W -- 30.41 in1029.8 mb 0.00 in0.0 mm 0.00 in0.0 mm 0.00 in0.0 mm
09:45 PM -2.7°F-19.3°C -9.9°F-23.3°C 71% 2.0 mph W3.2 kmh W -- 30.41 in1029.8 mb 0.00 in0.0 mm 0.00 in0.0 mm 0.00 in0.0 mm
09:46 PM -2.7°F-19.3°C -10.2°F-23.4°C 70% 2.0 mph W3.2 kmh W -- 30.42 in1030.1 mb 0.00 in0.0 mm 0.00 in0.0 mm 0.00 in0.0 mm
09:48 PM -2.7°F-19.3°C -10.2°F-23.4°C 70% 2.0 mph W3.2 kmh W -- 30.41 in1029.8 mb 0.00 in0.0 mm 0.00 in0.0 mm 0.00 in0.0 mm
09:49 PM -2.7°F-19.3°C -10.2°F-23.4°C 70% 3.0 mph W4.8 kmh W -- 30.41 in1029.8 mb 0.00 in0.0 mm 0.00 in0.0 mm 0.00 in0.0 mm
09:50 PM -2.7°F-19.3°C -10.2°F-23.4°C 70% 2.0 mph W3.2 kmh W -- 30.41 in1029.8 mb 0.00 in0.0 mm 0.00 in0.0 mm 0.00 in0.0 mm
09:51 PM -2.7°F-19.3°C -10.2°F-23.4°C 70% 3.0 mph W4.8 kmh W -- 30.41 in1029.8 mb 0.00 in0.0 mm 0.00 in0.0 mm 0.00 in0.0 mm
09:52 PM -2.7°F-19.3°C -10.2°F-23.4°C 70% 2.0 mph W3.2 kmh W -- 30.41 in1029.8 mb 0.00 in0.0 mm 0.00 in0.0 mm 0.00 in0.0 mm
09:53 PM -2.7°F-19.3°C -10.2°F-23.4°C 70% 2.0 mph WSW3.2 kmh WSW -- 30.41 in1029.8 mb 0.00 in0.0 mm 0.00 in0.0 mm 0.00 in0.0 mm
09:54 PM -2.7°F-19.3°C -10.2°F-23.4°C 70% Calm Calm -- 30.41 in1029.8 mb 0.00 in0.0 mm 0.00 in0.0 mm 0.00 in0.0 mm
09:55 PM -2.7°F-19.3°C -10.2°F-23.4°C 70% Calm Calm -- 30.41 in1029.8 mb 0.00 in0.0 mm 0.00 in0.0 mm 0.00 in0.0 mm
09:57 PM -2.7°F-19.3°C -10.2°F-23.4°C 70% Calm Calm -- 30.42 in1030.1 mb 0.00 in0.0 mm 0.00 in0.0 mm 0.00 in0.0 mm
09:58 PM -2.7°F-19.3°C -10.2°F-23.4°C 70% Calm Calm -- 30.41 in1029.8 mb 0.00 in0.0 mm 0.00 in0.0 mm 0.00 in0.0 mm
09:59 PM -2.7°F-19.3°C -10.2°F-23.4°C 70% 3.0 mph W4.8 kmh W -- 30.41 in1029.8 mb 0.00 in0.0 mm 0.00 in0.0 mm 0.00 in0.0 mm
10:00 PM -2.7°F-19.3°C -10.2°F-23.4°C 70% 2.0 mph W3.2 kmh W -- 30.41 in1029.8 mb 0.00 in0.0 mm 0.00 in0.0 mm 0.00 in0.0 mm
10:01 PM -2.7°F-19.3°C -10.2°F-23.4°C 70% 1.0 mph W1.6 kmh W -- 30.41 in1029.8 mb 0.00 in0.0 mm 0.00 in0.0 mm 0.00 in0.0 mm
10:04 PM -2.7°F-19.3°C -10.2°F-23.4°C 70% 2.0 mph W3.2 kmh W -- 30.41 in1029.8 mb 0.00 in0.0 mm 0.00 in0.0 mm 0.00 in0.0 mm
10:05 PM -2.7°F-19.3°C -10.2°F-23.4°C 70% 3.0 mph W4.8 kmh W -- 30.41 in1029.8 mb 0.00 in0.0 mm 0.00 in0.0 mm 0.00 in0.0 mm
10:06 PM -2.5°F-19.2°C -10.0°F-23.3°C 70% 2.0 mph W3.2 kmh W -- 30.42 in1030.1 mb 0.00 in0.0 mm 0.00 in0.0 mm 0.00 in0.0 mm
10:07 PM -2.5°F-19.2°C -10.0°F-23.3°C 70% 3.0 mph W4.8 kmh W -- 30.41 in1029.8 mb 0.00 in0.0 mm 0.00 in0.0 mm 0.00 in0.0 mm
10:08 PM -2.4°F-19.1°C -9.8°F-23.2°C 70% 2.0 mph WSW3.2 kmh WSW -- 30.41 in1029.8 mb 0.00 in0.0 mm 0.00 in0.0 mm 0.00 in0.0 mm
10:09 PM -2.4°F-19.1°C -10.1°F-23.4°C 69% 3.0 mph W4.8 kmh W -- 30.42 in1030.1 mb 0.00 in0.0 mm 0.00 in0.0 mm 0.00 in0.0 mm
10:10 PM -2.4°F-19.1°C -10.1°F-23.4°C 69% 2.0 mph W3.2 kmh W -- 30.42 in1030.1 mb 0.00 in0.0 mm 0.00 in0.0 mm 0.00 in0.0 mm
10:11 PM -2.4°F-19.1°C -10.1°F-23.4°C 69% 1.0 mph W1.6 kmh W -- 30.42 in1030.1 mb 0.00 in0.0 mm 0.00 in0.0 mm 0.00 in0.0 mm
10:12 PM -2.4°F-19.1°C -9.8°F-23.2°C 70% 3.0 mph W4.8 kmh W -- 30.42 in1030.1 mb 0.00 in0.0 mm 0.00 in0.0 mm 0.00 in0.0 mm
10:13 PM -2.2°F-19.0°C -9.6°F-23.1°C 70% 3.0 mph W4.8 kmh W -- 30.42 in1030.1 mb 0.00 in0.0 mm 0.00 in0.0 mm 0.00 in0.0 mm
10:14 PM -2.0°F-18.9°C -9.5°F-23.1°C 70% 3.0 mph W4.8 kmh W -- 30.42 in1030.1 mb 0.00 in0.0 mm 0.00 in0.0 mm 0.00 in0.0 mm
10:15 PM -1.7°F-18.7°C -9.1°F-22.8°C 70% 2.0 mph WNW3.2 kmh WNW -- 30.42 in1030.1 mb 0.00 in0.0 mm 0.00 in0.0 mm 0.00 in0.0 mm
10:16 PM -1.5°F-18.6°C -9.3°F-22.9°C 69% 3.0 mph W4.8 kmh W -- 30.42 in1030.1 mb 0.00 in0.0 mm 0.00 in0.0 mm 0.00 in0.0 mm
10:18 PM -1.2°F-18.4°C -9.2°F-22.9°C 68% 3.0 mph W4.8 kmh W -- 30.42 in1030.1 mb 0.00 in0.0 mm 0.00 in0.0 mm 0.00 in0.0 mm
10:19 PM -1.2°F-18.4°C -9.2°F-22.9°C 68% 2.0 mph W3.2 kmh W -- 30.42 in1030.1 mb 0.00 in0.0 mm 0.00 in0.0 mm 0.00 in0.0 mm
10:22 PM -1.2°F-18.4°C -9.2°F-22.9°C 68% 3.0 mph W4.8 kmh W -- 30.42 in1030.1 mb 0.00 in0.0 mm 0.00 in0.0 mm 0.00 in0.0 mm
10:23 PM -1.2°F-18.4°C -9.2°F-22.9°C 68% 2.0 mph W3.2 kmh W -- 30.42 in1030.1 mb 0.00 in0.0 mm 0.00 in0.0 mm 0.00 in0.0 mm
10:24 PM -1.2°F-18.4°C -9.2°F-22.9°C 68% 1.0 mph W1.6 kmh W -- 30.42 in1030.1 mb 0.00 in0.0 mm 0.00 in0.0 mm 0.00 in0.0 mm
10:25 PM -1.2°F-18.4°C -9.2°F-22.9°C 68% 2.0 mph W3.2 kmh W -- 30.42 in1030.1 mb 0.00 in0.0 mm 0.00 in0.0 mm 0.00 in0.0 mm
10:26 PM -1.5°F-18.6°C -9.6°F-23.1°C 68%